﻿<?xml version="1.0" encoding="UTF-8" standalone="no"?>
<gpx xmlns="http://www.topografix.com/GPX/1/1" xmlns:gpxtpx="http://www.garmin.com/xmlschemas/TrackPointExtension/v1" xmlns:xsi="http://www.w3.org/2001/XMLSchema-instance" creator="Hribi.net" version="1.1" xsi:schemaLocation="http://www.topografix.com/GPX/1/1 http://www.topografix.com/GPX/1/1/gpx.xsd http://www.garmin.com/xmlschemas/TrackPointExtension/v1 http://www.garmin.com/xmlschemas/TrackPointExtensionv1.xsd">
  <metadata>
    <name>GPS sled</name>
    <desc>www.hribi.net</desc>
    <author>
      <name>hribi.net</name>
    </author>
    <link href="http://www.hribi.net">
      <text>Hribi.net</text>
    </link>
  </metadata>
  <trk>
    <trkseg>
      <trkpt lat="46.227311" lon="14.113802">
        <ele>996.5278820736</ele>
        <time>2011-04-02T08:26:08Z</time>
      </trkpt>
      <trkpt lat="46.227311" lon="14.113802">
        <ele>999.8978410944</ele>
        <time>2011-04-02T08:26:09Z</time>
      </trkpt>
      <trkpt lat="46.227374" lon="14.113734">
        <ele>999.8978410944</ele>
        <time>2011-04-02T08:26:23Z</time>
      </trkpt>
      <trkpt lat="46.227387" lon="14.113728">
        <ele>1000.3778352576</ele>
        <time>2011-04-02T08:26:40Z</time>
      </trkpt>
      <trkpt lat="46.227427" lon="14.113684">
        <ele>1000.3778352576</ele>
        <time>2011-04-02T08:26:47Z</time>
      </trkpt>
      <trkpt lat="46.227486" lon="14.113613">
        <ele>1001.8178177472</ele>
        <time>2011-04-02T08:26:54Z</time>
      </trkpt>
      <trkpt lat="46.227539" lon="14.113532">
        <ele>1002.2978119104</ele>
        <time>2011-04-02T08:27:00Z</time>
      </trkpt>
      <trkpt lat="46.227572" lon="14.113491">
        <ele>1002.7778060736</ele>
        <time>2011-04-02T08:27:10Z</time>
      </trkpt>
      <trkpt lat="46.227575" lon="14.113479">
        <ele>1003.7377944</ele>
        <time>2011-04-02T08:27:11Z</time>
      </trkpt>
      <trkpt lat="46.227651" lon="14.113390">
        <ele>1004.2177885632</ele>
        <time>2011-04-02T08:27:19Z</time>
      </trkpt>
      <trkpt lat="46.227685" lon="14.113332">
        <ele>1004.2177885632</ele>
        <time>2011-04-02T08:27:25Z</time>
      </trkpt>
      <trkpt lat="46.227698" lon="14.113307">
        <ele>1004.7077826048</ele>
        <time>2011-04-02T08:27:26Z</time>
      </trkpt>
      <trkpt lat="46.227727" lon="14.113257">
        <ele>1005.6677709312</ele>
        <time>2011-04-02T08:27:32Z</time>
      </trkpt>
      <trkpt lat="46.227824" lon="14.113163">
        <ele>1006.6277592576</ele>
        <time>2011-04-02T08:27:42Z</time>
      </trkpt>
      <trkpt lat="46.227876" lon="14.113125">
        <ele>1006.6277592576</ele>
        <time>2011-04-02T08:27:49Z</time>
      </trkpt>
      <trkpt lat="46.227916" lon="14.113092">
        <ele>1007.1077534208</ele>
        <time>2011-04-02T08:27:53Z</time>
      </trkpt>
      <trkpt lat="46.227951" lon="14.113032">
        <ele>1007.1077534208</ele>
        <time>2011-04-02T08:28:01Z</time>
      </trkpt>
      <trkpt lat="46.227962" lon="14.113015">
        <ele>1007.587747584</ele>
        <time>2011-04-02T08:28:03Z</time>
      </trkpt>
      <trkpt lat="46.227974" lon="14.112990">
        <ele>1008.0677417472</ele>
        <time>2011-04-02T08:28:04Z</time>
      </trkpt>
      <trkpt lat="46.227967" lon="14.112935">
        <ele>1008.5477359104</ele>
        <time>2011-04-02T08:28:15Z</time>
      </trkpt>
      <trkpt lat="46.227967" lon="14.112935">
        <ele>1008.0677417472</ele>
        <time>2011-04-02T08:28:16Z</time>
      </trkpt>
      <trkpt lat="46.227997" lon="14.112904">
        <ele>1008.0677417472</ele>
        <time>2011-04-02T08:28:20Z</time>
      </trkpt>
      <trkpt lat="46.228020" lon="14.112872">
        <ele>1008.5477359104</ele>
        <time>2011-04-02T08:28:23Z</time>
      </trkpt>
      <trkpt lat="46.228111" lon="14.112718">
        <ele>1009.5077242368</ele>
        <time>2011-04-02T08:28:35Z</time>
      </trkpt>
      <trkpt lat="46.228116" lon="14.112714">
        <ele>1009.9877184</ele>
        <time>2011-04-02T08:28:35Z</time>
      </trkpt>
      <trkpt lat="46.228140" lon="14.112680">
        <ele>1009.9877184</ele>
        <time>2011-04-02T08:28:39Z</time>
      </trkpt>
      <trkpt lat="46.228160" lon="14.112624">
        <ele>1011.4277008896</ele>
        <time>2011-04-02T08:28:54Z</time>
      </trkpt>
      <trkpt lat="46.228195" lon="14.112535">
        <ele>1012.8776832576</ele>
        <time>2011-04-02T08:29:06Z</time>
      </trkpt>
      <trkpt lat="46.228207" lon="14.112479">
        <ele>1013.3576774208</ele>
        <time>2011-04-02T08:29:10Z</time>
      </trkpt>
      <trkpt lat="46.228236" lon="14.112424">
        <ele>1013.837671584</ele>
        <time>2011-04-02T08:29:14Z</time>
      </trkpt>
      <trkpt lat="46.228262" lon="14.112377">
        <ele>1015.2776540736</ele>
        <time>2011-04-02T08:29:28Z</time>
      </trkpt>
      <trkpt lat="46.228323" lon="14.112341">
        <ele>1016.2376424</ele>
        <time>2011-04-02T08:29:44Z</time>
      </trkpt>
      <trkpt lat="46.228347" lon="14.112332">
        <ele>1017.6776248896</ele>
        <time>2011-04-02T08:29:47Z</time>
      </trkpt>
      <trkpt lat="46.228427" lon="14.112309">
        <ele>1019.1176073792</ele>
        <time>2011-04-02T08:29:59Z</time>
      </trkpt>
      <trkpt lat="46.228448" lon="14.112324">
        <ele>1019.6076014208</ele>
        <time>2011-04-02T08:30:01Z</time>
      </trkpt>
      <trkpt lat="46.228464" lon="14.112338">
        <ele>1019.6076014208</ele>
        <time>2011-04-02T08:30:04Z</time>
      </trkpt>
      <trkpt lat="46.228521" lon="14.112269">
        <ele>1022.0075722368</ele>
        <time>2011-04-02T08:30:15Z</time>
      </trkpt>
      <trkpt lat="46.228523" lon="14.112262">
        <ele>1022.0075722368</ele>
        <time>2011-04-02T08:30:16Z</time>
      </trkpt>
      <trkpt lat="46.228545" lon="14.112177">
        <ele>1022.9675605632</ele>
        <time>2011-04-02T08:30:22Z</time>
      </trkpt>
      <trkpt lat="46.228597" lon="14.112116">
        <ele>1024.887537216</ele>
        <time>2011-04-02T08:30:28Z</time>
      </trkpt>
      <trkpt lat="46.228620" lon="14.111986">
        <ele>1026.3275197056</ele>
        <time>2011-04-02T08:30:39Z</time>
      </trkpt>
      <trkpt lat="46.228630" lon="14.111944">
        <ele>1027.7775020736</ele>
        <time>2011-04-02T08:30:53Z</time>
      </trkpt>
      <trkpt lat="46.228630" lon="14.111944">
        <ele>1027.7775020736</ele>
        <time>2011-04-02T08:31:16Z</time>
      </trkpt>
      <trkpt lat="46.228628" lon="14.111950">
        <ele>1027.7775020736</ele>
        <time>2011-04-02T08:31:35Z</time>
      </trkpt>
      <trkpt lat="46.228622" lon="14.111957">
        <ele>1027.7775020736</ele>
        <time>2011-04-02T08:31:52Z</time>
      </trkpt>
      <trkpt lat="46.228622" lon="14.111957">
        <ele>1027.7775020736</ele>
        <time>2011-04-02T08:32:20Z</time>
      </trkpt>
      <trkpt lat="46.228638" lon="14.111983">
        <ele>1029.2174845632</ele>
        <time>2011-04-02T08:32:34Z</time>
      </trkpt>
      <trkpt lat="46.228673" lon="14.112010">
        <ele>1031.6174553792</ele>
        <time>2011-04-02T08:32:46Z</time>
      </trkpt>
      <trkpt lat="46.228721" lon="14.112095">
        <ele>1034.0274260736</ele>
        <time>2011-04-02T08:32:58Z</time>
      </trkpt>
      <trkpt lat="46.228813" lon="14.112116">
        <ele>1036.4273968896</ele>
        <time>2011-04-02T08:33:09Z</time>
      </trkpt>
      <trkpt lat="46.228865" lon="14.112123">
        <ele>1038.3473735424</ele>
        <time>2011-04-02T08:33:21Z</time>
      </trkpt>
      <trkpt lat="46.228963" lon="14.112137">
        <ele>1040.7473443584</ele>
        <time>2011-04-02T08:33:35Z</time>
      </trkpt>
      <trkpt lat="46.229044" lon="14.112142">
        <ele>1043.1573150528</ele>
        <time>2011-04-02T08:33:47Z</time>
      </trkpt>
      <trkpt lat="46.229080" lon="14.112133">
        <ele>1044.1173033792</ele>
        <time>2011-04-02T08:34:02Z</time>
      </trkpt>
      <trkpt lat="46.229165" lon="14.112105">
        <ele>1045.5572858688</ele>
        <time>2011-04-02T08:34:15Z</time>
      </trkpt>
      <trkpt lat="46.229219" lon="14.112083">
        <ele>1047.4772625216</ele>
        <time>2011-04-02T08:34:26Z</time>
      </trkpt>
      <trkpt lat="46.229266" lon="14.112035">
        <ele>1050.3672273792</ele>
        <time>2011-04-02T08:34:39Z</time>
      </trkpt>
      <trkpt lat="46.229286" lon="14.112007">
        <ele>1050.8472215424</ele>
        <time>2011-04-02T08:34:45Z</time>
      </trkpt>
      <trkpt lat="46.229370" lon="14.111935">
        <ele>1052.7671981952</ele>
        <time>2011-04-02T08:34:56Z</time>
      </trkpt>
      <trkpt lat="46.229432" lon="14.111895">
        <ele>1054.2071806848</ele>
        <time>2011-04-02T08:35:08Z</time>
      </trkpt>
      <trkpt lat="46.229420" lon="14.111910">
        <ele>1053.7271865216</ele>
        <time>2011-04-02T08:35:20Z</time>
      </trkpt>
      <trkpt lat="46.229419" lon="14.111916">
        <ele>1053.2471923584</ele>
        <time>2011-04-02T08:35:43Z</time>
      </trkpt>
      <trkpt lat="46.229419" lon="14.111880">
        <ele>1052.7671981952</ele>
        <time>2011-04-02T08:35:56Z</time>
      </trkpt>
      <trkpt lat="46.229469" lon="14.111860">
        <ele>1053.7271865216</ele>
        <time>2011-04-02T08:36:10Z</time>
      </trkpt>
      <trkpt lat="46.229512" lon="14.111791">
        <ele>1055.6571630528</ele>
        <time>2011-04-02T08:36:19Z</time>
      </trkpt>
      <trkpt lat="46.229566" lon="14.111723">
        <ele>1058.0571338688</ele>
        <time>2011-04-02T08:36:30Z</time>
      </trkpt>
      <trkpt lat="46.229581" lon="14.111704">
        <ele>1059.0171221952</ele>
        <time>2011-04-02T08:36:33Z</time>
      </trkpt>
      <trkpt lat="46.229650" lon="14.111609">
        <ele>1061.4170930112</ele>
        <time>2011-04-02T08:36:45Z</time>
      </trkpt>
      <trkpt lat="46.229680" lon="14.111557">
        <ele>1063.8270637056</ele>
        <time>2011-04-02T08:36:57Z</time>
      </trkpt>
      <trkpt lat="46.229708" lon="14.111528">
        <ele>1065.7470403584</ele>
        <time>2011-04-02T08:37:09Z</time>
      </trkpt>
      <trkpt lat="46.229705" lon="14.111524">
        <ele>1065.7470403584</ele>
        <time>2011-04-02T08:37:31Z</time>
      </trkpt>
      <trkpt lat="46.229704" lon="14.111530">
        <ele>1065.2670461952</ele>
        <time>2011-04-02T08:37:55Z</time>
      </trkpt>
      <trkpt lat="46.229704" lon="14.111530">
        <ele>1065.2670461952</ele>
        <time>2011-04-02T08:38:25Z</time>
      </trkpt>
      <trkpt lat="46.229703" lon="14.111527">
        <ele>1066.2270345216</ele>
        <time>2011-04-02T08:39:00Z</time>
      </trkpt>
      <trkpt lat="46.229745" lon="14.111445">
        <ele>1068.6270053376</ele>
        <time>2011-04-02T08:39:12Z</time>
      </trkpt>
      <trkpt lat="46.229823" lon="14.111349">
        <ele>1071.5169701952</ele>
        <time>2011-04-02T08:39:26Z</time>
      </trkpt>
      <trkpt lat="46.229853" lon="14.111299">
        <ele>1073.9169410112</ele>
        <time>2011-04-02T08:39:39Z</time>
      </trkpt>
      <trkpt lat="46.229877" lon="14.111254">
        <ele>1075.836917664</ele>
        <time>2011-04-02T08:39:50Z</time>
      </trkpt>
      <trkpt lat="46.229880" lon="14.111242">
        <ele>1075.836917664</ele>
        <time>2011-04-02T08:40:10Z</time>
      </trkpt>
      <trkpt lat="46.229880" lon="14.111242">
        <ele>1076.3169118272</ele>
        <time>2011-04-02T08:40:37Z</time>
      </trkpt>
      <trkpt lat="46.229880" lon="14.111250">
        <ele>1076.3169118272</ele>
        <time>2011-04-02T08:41:06Z</time>
      </trkpt>
      <trkpt lat="46.229883" lon="14.111195">
        <ele>1077.7668941952</ele>
        <time>2011-04-02T08:41:20Z</time>
      </trkpt>
      <trkpt lat="46.229916" lon="14.111112">
        <ele>1080.6468591744</ele>
        <time>2011-04-02T08:41:33Z</time>
      </trkpt>
      <trkpt lat="46.229963" lon="14.111025">
        <ele>1083.0468299904</ele>
        <time>2011-04-02T08:41:46Z</time>
      </trkpt>
      <trkpt lat="46.230034" lon="14.110958">
        <ele>1085.936794848</ele>
        <time>2011-04-02T08:42:01Z</time>
      </trkpt>
      <trkpt lat="46.230074" lon="14.110928">
        <ele>1088.8167598272</ele>
        <time>2011-04-02T08:42:13Z</time>
      </trkpt>
      <trkpt lat="46.230114" lon="14.110915">
        <ele>1089.7767481536</ele>
        <time>2011-04-02T08:42:24Z</time>
      </trkpt>
      <trkpt lat="46.230159" lon="14.110882">
        <ele>1092.186718848</ele>
        <time>2011-04-02T08:42:35Z</time>
      </trkpt>
      <trkpt lat="46.230168" lon="14.110882">
        <ele>1092.6667130112</ele>
        <time>2011-04-02T08:43:00Z</time>
      </trkpt>
      <trkpt lat="46.230168" lon="14.110882">
        <ele>1093.1467071744</ele>
        <time>2011-04-02T08:43:29Z</time>
      </trkpt>
      <trkpt lat="46.230203" lon="14.110869">
        <ele>1094.1066955008</ele>
        <time>2011-04-02T08:43:46Z</time>
      </trkpt>
      <trkpt lat="46.230264" lon="14.110807">
        <ele>1096.5066663168</ele>
        <time>2011-04-02T08:43:58Z</time>
      </trkpt>
      <trkpt lat="46.230348" lon="14.110764">
        <ele>1098.9066371328</ele>
        <time>2011-04-02T08:44:13Z</time>
      </trkpt>
      <trkpt lat="46.230412" lon="14.110679">
        <ele>1101.3166078272</ele>
        <time>2011-04-02T08:44:24Z</time>
      </trkpt>
      <trkpt lat="46.230460" lon="14.110635">
        <ele>1102.7565903168</ele>
        <time>2011-04-02T08:44:35Z</time>
      </trkpt>
      <trkpt lat="46.230509" lon="14.110569">
        <ele>1104.6765669696</ele>
        <time>2011-04-02T08:44:47Z</time>
      </trkpt>
      <trkpt lat="46.230531" lon="14.110562">
        <ele>1105.1565611328</ele>
        <time>2011-04-02T08:44:51Z</time>
      </trkpt>
      <trkpt lat="46.230565" lon="14.110545">
        <ele>1107.5665318272</ele>
        <time>2011-04-02T08:45:05Z</time>
      </trkpt>
      <trkpt lat="46.230616" lon="14.110508">
        <ele>1109.0065143168</ele>
        <time>2011-04-02T08:45:19Z</time>
      </trkpt>
      <trkpt lat="46.230650" lon="14.110497">
        <ele>1110.4464968064</ele>
        <time>2011-04-02T08:45:30Z</time>
      </trkpt>
      <trkpt lat="46.230660" lon="14.110494">
        <ele>1111.886479296</ele>
        <time>2011-04-02T08:45:45Z</time>
      </trkpt>
      <trkpt lat="46.230651" lon="14.110501">
        <ele>1111.886479296</ele>
        <time>2011-04-02T08:46:11Z</time>
      </trkpt>
      <trkpt lat="46.230648" lon="14.110505">
        <ele>1111.4064851328</ele>
        <time>2011-04-02T08:46:43Z</time>
      </trkpt>
      <trkpt lat="46.230676" lon="14.110507">
        <ele>1112.8464676224</ele>
        <time>2011-04-02T08:47:02Z</time>
      </trkpt>
      <trkpt lat="46.230735" lon="14.110498">
        <ele>1114.7764441536</ele>
        <time>2011-04-02T08:47:18Z</time>
      </trkpt>
      <trkpt lat="46.230758" lon="14.110495">
        <ele>1115.2564383168</ele>
        <time>2011-04-02T08:47:22Z</time>
      </trkpt>
      <trkpt lat="46.230825" lon="14.110483">
        <ele>1117.6564091328</ele>
        <time>2011-04-02T08:47:34Z</time>
      </trkpt>
      <trkpt lat="46.230846" lon="14.110513">
        <ele>1119.0963916224</ele>
        <time>2011-04-02T08:47:48Z</time>
      </trkpt>
      <trkpt lat="46.230919" lon="14.110480">
        <ele>1121.0163682752</ele>
        <time>2011-04-02T08:48:00Z</time>
      </trkpt>
      <trkpt lat="46.230926" lon="14.110472">
        <ele>1121.98635648</ele>
        <time>2011-04-02T08:48:16Z</time>
      </trkpt>
      <trkpt lat="46.230964" lon="14.110471">
        <ele>1122.9463448064</ele>
        <time>2011-04-02T08:48:30Z</time>
      </trkpt>
      <trkpt lat="46.231030" lon="14.110516">
        <ele>1125.3463156224</ele>
        <time>2011-04-02T08:48:42Z</time>
      </trkpt>
      <trkpt lat="46.231059" lon="14.110513">
        <ele>1126.3063039488</ele>
        <time>2011-04-02T08:48:50Z</time>
      </trkpt>
      <trkpt lat="46.231113" lon="14.110515">
        <ele>1127.2662922752</ele>
        <time>2011-04-02T08:49:05Z</time>
      </trkpt>
      <trkpt lat="46.231168" lon="14.110463">
        <ele>1130.1562571328</ele>
        <time>2011-04-02T08:49:18Z</time>
      </trkpt>
      <trkpt lat="46.231220" lon="14.110414">
        <ele>1131.1162454592</ele>
        <time>2011-04-02T08:49:29Z</time>
      </trkpt>
      <trkpt lat="46.231330" lon="14.110321">
        <ele>1133.5162162752</ele>
        <time>2011-04-02T08:49:43Z</time>
      </trkpt>
      <trkpt lat="46.231343" lon="14.110318">
        <ele>1134.4762046016</ele>
        <time>2011-04-02T08:49:47Z</time>
      </trkpt>
      <trkpt lat="46.231396" lon="14.110266">
        <ele>1135.436192928</ele>
        <time>2011-04-02T08:49:59Z</time>
      </trkpt>
      <trkpt lat="46.231436" lon="14.110174">
        <ele>1137.3661694592</ele>
        <time>2011-04-02T08:50:11Z</time>
      </trkpt>
      <trkpt lat="46.231441" lon="14.110139">
        <ele>1137.8461636224</ele>
        <time>2011-04-02T08:50:23Z</time>
      </trkpt>
      <trkpt lat="46.231457" lon="14.110074">
        <ele>1140.2461344384</ele>
        <time>2011-04-02T08:50:34Z</time>
      </trkpt>
      <trkpt lat="46.231507" lon="14.109983">
        <ele>1141.686116928</ele>
        <time>2011-04-02T08:50:49Z</time>
      </trkpt>
      <trkpt lat="46.231512" lon="14.109925">
        <ele>1143.1260994176</ele>
        <time>2011-04-02T08:51:01Z</time>
      </trkpt>
      <trkpt lat="46.231554" lon="14.109847">
        <ele>1145.0560759488</ele>
        <time>2011-04-02T08:51:10Z</time>
      </trkpt>
      <trkpt lat="46.231564" lon="14.109803">
        <ele>1147.4560467648</ele>
        <time>2011-04-02T08:51:25Z</time>
      </trkpt>
      <trkpt lat="46.231582" lon="14.109711">
        <ele>1149.3760234176</ele>
        <time>2011-04-02T08:51:36Z</time>
      </trkpt>
      <trkpt lat="46.231602" lon="14.109666">
        <ele>1150.8260057856</ele>
        <time>2011-04-02T08:51:51Z</time>
      </trkpt>
      <trkpt lat="46.231615" lon="14.109656">
        <ele>1150.8260057856</ele>
        <time>2011-04-02T08:52:07Z</time>
      </trkpt>
      <trkpt lat="46.231634" lon="14.109645">
        <ele>1152.2659882752</ele>
        <time>2011-04-02T08:52:22Z</time>
      </trkpt>
      <trkpt lat="46.231655" lon="14.109623">
        <ele>1151.785994112</ele>
        <time>2011-04-02T08:52:42Z</time>
      </trkpt>
      <trkpt lat="46.231711" lon="14.109570">
        <ele>1151.785994112</ele>
        <time>2011-04-02T08:52:56Z</time>
      </trkpt>
      <trkpt lat="46.231773" lon="14.109633">
        <ele>1152.7459824384</ele>
        <time>2011-04-02T08:53:09Z</time>
      </trkpt>
      <trkpt lat="46.231805" lon="14.109492">
        <ele>1155.6259474176</ele>
        <time>2011-04-02T08:53:21Z</time>
      </trkpt>
      <trkpt lat="46.231837" lon="14.109496">
        <ele>1157.5459240704</ele>
        <time>2011-04-02T08:53:35Z</time>
      </trkpt>
      <trkpt lat="46.231860" lon="14.109461">
        <ele>1158.5159122752</ele>
        <time>2011-04-02T08:53:48Z</time>
      </trkpt>
      <trkpt lat="46.231860" lon="14.109461">
        <ele>1160.435888928</ele>
        <time>2011-04-02T08:54:05Z</time>
      </trkpt>
      <trkpt lat="46.231893" lon="14.109341">
        <ele>1160.9158830912</ele>
        <time>2011-04-02T08:54:15Z</time>
      </trkpt>
      <trkpt lat="46.231923" lon="14.109285">
        <ele>1163.3158539072</ele>
        <time>2011-04-02T08:54:29Z</time>
      </trkpt>
      <trkpt lat="46.231922" lon="14.109276">
        <ele>1163.3158539072</ele>
        <time>2011-04-02T08:54:53Z</time>
      </trkpt>
      <trkpt lat="46.231922" lon="14.109276">
        <ele>1163.3158539072</ele>
        <time>2011-04-02T08:55:20Z</time>
      </trkpt>
      <trkpt lat="46.231922" lon="14.109276">
        <ele>1163.7958480704</ele>
        <time>2011-04-02T08:55:26Z</time>
      </trkpt>
      <trkpt lat="46.231915" lon="14.109272">
        <ele>1163.7958480704</ele>
        <time>2011-04-02T08:55:39Z</time>
      </trkpt>
      <trkpt lat="46.231927" lon="14.109247">
        <ele>1167.1658070912</ele>
        <time>2011-04-02T08:55:51Z</time>
      </trkpt>
      <trkpt lat="46.231963" lon="14.109184">
        <ele>1168.1257954176</ele>
        <time>2011-04-02T08:56:06Z</time>
      </trkpt>
      <trkpt lat="46.232014" lon="14.109086">
        <ele>1171.0057603968</ele>
        <time>2011-04-02T08:56:18Z</time>
      </trkpt>
      <trkpt lat="46.232039" lon="14.109038">
        <ele>1173.4157310912</ele>
        <time>2011-04-02T08:56:36Z</time>
      </trkpt>
      <trkpt lat="46.232008" lon="14.108811">
        <ele>1174.3757194176</ele>
        <time>2011-04-02T08:56:49Z</time>
      </trkpt>
      <trkpt lat="46.231988" lon="14.108780">
        <ele>1175.335707744</ele>
        <time>2011-04-02T08:56:55Z</time>
      </trkpt>
      <trkpt lat="46.231941" lon="14.108736">
        <ele>1175.335707744</ele>
        <time>2011-04-02T08:56:59Z</time>
      </trkpt>
      <trkpt lat="46.231833" lon="14.108684">
        <ele>1175.8157019072</ele>
        <time>2011-04-02T08:57:09Z</time>
      </trkpt>
      <trkpt lat="46.231782" lon="14.108597">
        <ele>1178.2156727232</ele>
        <time>2011-04-02T08:57:24Z</time>
      </trkpt>
      <trkpt lat="46.231785" lon="14.108539">
        <ele>1180.6256434176</ele>
        <time>2011-04-02T08:57:39Z</time>
      </trkpt>
      <trkpt lat="46.231799" lon="14.108490">
        <ele>1181.1056375808</ele>
        <time>2011-04-02T08:57:43Z</time>
      </trkpt>
      <trkpt lat="46.231869" lon="14.108415">
        <ele>1182.5456200704</ele>
        <time>2011-04-02T08:57:54Z</time>
      </trkpt>
      <trkpt lat="46.231888" lon="14.108414">
        <ele>1184.4655967232</ele>
        <time>2011-04-02T08:58:09Z</time>
      </trkpt>
      <trkpt lat="46.231919" lon="14.108438">
        <ele>1185.4255850496</ele>
        <time>2011-04-02T08:58:20Z</time>
      </trkpt>
      <trkpt lat="46.231973" lon="14.108456">
        <ele>1186.8655675392</ele>
        <time>2011-04-02T08:58:29Z</time>
      </trkpt>
      <trkpt lat="46.232043" lon="14.108397">
        <ele>1188.7955440704</ele>
        <time>2011-04-02T08:58:40Z</time>
      </trkpt>
      <trkpt lat="46.232088" lon="14.108337">
        <ele>1189.7555323968</ele>
        <time>2011-04-02T08:58:52Z</time>
      </trkpt>
      <trkpt lat="46.232135" lon="14.108342">
        <ele>1190.7155207232</ele>
        <time>2011-04-02T08:59:06Z</time>
      </trkpt>
      <trkpt lat="46.232182" lon="14.108368">
        <ele>1192.635497376</ele>
        <time>2011-04-02T08:59:20Z</time>
      </trkpt>
      <trkpt lat="46.232238" lon="14.108364">
        <ele>1194.0754798656</ele>
        <time>2011-04-02T08:59:33Z</time>
      </trkpt>
      <trkpt lat="46.232340" lon="14.108386">
        <ele>1196.48545056</ele>
        <time>2011-04-02T08:59:46Z</time>
      </trkpt>
      <trkpt lat="46.232359" lon="14.108388">
        <ele>1197.4454388864</ele>
        <time>2011-04-02T09:00:02Z</time>
      </trkpt>
      <trkpt lat="46.232421" lon="14.108368">
        <ele>1198.885421376</ele>
        <time>2011-04-02T09:00:14Z</time>
      </trkpt>
      <trkpt lat="46.232468" lon="14.108351">
        <ele>1199.8454097024</ele>
        <time>2011-04-02T09:00:31Z</time>
      </trkpt>
      <trkpt lat="46.232538" lon="14.108378">
        <ele>1201.285392192</ele>
        <time>2011-04-02T09:00:45Z</time>
      </trkpt>
      <trkpt lat="46.232585" lon="14.108408">
        <ele>1202.73537456</ele>
        <time>2011-04-02T09:00:54Z</time>
      </trkpt>
      <trkpt lat="46.232615" lon="14.108398">
        <ele>1204.6553512128</ele>
        <time>2011-04-02T09:01:07Z</time>
      </trkpt>
      <trkpt lat="46.232690" lon="14.108438">
        <ele>1205.135345376</ele>
        <time>2011-04-02T09:01:19Z</time>
      </trkpt>
      <trkpt lat="46.232707" lon="14.108464">
        <ele>1205.6153395392</ele>
        <time>2011-04-02T09:01:30Z</time>
      </trkpt>
      <trkpt lat="46.232742" lon="14.108479">
        <ele>1206.0953337024</ele>
        <time>2011-04-02T09:01:46Z</time>
      </trkpt>
      <trkpt lat="46.232807" lon="14.108535">
        <ele>1208.0153103552</ele>
        <time>2011-04-02T09:01:56Z</time>
      </trkpt>
      <trkpt lat="46.232848" lon="14.108526">
        <ele>1209.4652927232</ele>
        <time>2011-04-02T09:02:06Z</time>
      </trkpt>
      <trkpt lat="46.232861" lon="14.108540">
        <ele>1209.4652927232</ele>
        <time>2011-04-02T09:02:24Z</time>
      </trkpt>
      <trkpt lat="46.232857" lon="14.108533">
        <ele>1209.9452868864</ele>
        <time>2011-04-02T09:02:42Z</time>
      </trkpt>
      <trkpt lat="46.232893" lon="14.108528">
        <ele>1210.4252810496</ele>
        <time>2011-04-02T09:03:02Z</time>
      </trkpt>
      <trkpt lat="46.232949" lon="14.108566">
        <ele>1212.3452577024</ele>
        <time>2011-04-02T09:03:13Z</time>
      </trkpt>
      <trkpt lat="46.233011" lon="14.108610">
        <ele>1214.2652343552</ele>
        <time>2011-04-02T09:03:23Z</time>
      </trkpt>
      <trkpt lat="46.233049" lon="14.108638">
        <ele>1214.7452285184</ele>
        <time>2011-04-02T09:03:27Z</time>
      </trkpt>
      <trkpt lat="46.233096" lon="14.108655">
        <ele>1215.7052168448</ele>
        <time>2011-04-02T09:03:40Z</time>
      </trkpt>
      <trkpt lat="46.233130" lon="14.108685">
        <ele>1216.1952108864</ele>
        <time>2011-04-02T09:03:42Z</time>
      </trkpt>
      <trkpt lat="46.233177" lon="14.108702">
        <ele>1216.1952108864</ele>
        <time>2011-04-02T09:03:50Z</time>
      </trkpt>
      <trkpt lat="46.233195" lon="14.108701">
        <ele>1216.1952108864</ele>
        <time>2011-04-02T09:03:53Z</time>
      </trkpt>
      <trkpt lat="46.233264" lon="14.108686">
        <ele>1216.6752050496</ele>
        <time>2011-04-02T09:03:59Z</time>
      </trkpt>
      <trkpt lat="46.233325" lon="14.108711">
        <ele>1217.1551992128</ele>
        <time>2011-04-02T09:04:09Z</time>
      </trkpt>
      <trkpt lat="46.233352" lon="14.108703">
        <ele>1219.0751758656</ele>
        <time>2011-04-02T09:04:26Z</time>
      </trkpt>
      <trkpt lat="46.233420" lon="14.108743">
        <ele>1220.035164192</ele>
        <time>2011-04-02T09:04:39Z</time>
      </trkpt>
      <trkpt lat="46.233429" lon="14.108739">
        <ele>1220.9951525184</ele>
        <time>2011-04-02T09:04:54Z</time>
      </trkpt>
      <trkpt lat="46.233446" lon="14.108739">
        <ele>1220.5151583552</ele>
        <time>2011-04-02T09:04:59Z</time>
      </trkpt>
      <trkpt lat="46.233559" lon="14.108719">
        <ele>1221.9551408448</ele>
        <time>2011-04-02T09:05:10Z</time>
      </trkpt>
      <trkpt lat="46.233595" lon="14.108709">
        <ele>1222.435135008</ele>
        <time>2011-04-02T09:05:14Z</time>
      </trkpt>
      <trkpt lat="46.233670" lon="14.108643">
        <ele>1224.3651115392</ele>
        <time>2011-04-02T09:05:26Z</time>
      </trkpt>
      <trkpt lat="46.233765" lon="14.108644">
        <ele>1225.3250998656</ele>
        <time>2011-04-02T09:05:37Z</time>
      </trkpt>
      <trkpt lat="46.233878" lon="14.108615">
        <ele>1226.7650823552</ele>
        <time>2011-04-02T09:05:48Z</time>
      </trkpt>
      <trkpt lat="46.233925" lon="14.108602">
        <ele>1227.7250706816</ele>
        <time>2011-04-02T09:05:53Z</time>
      </trkpt>
      <trkpt lat="46.234011" lon="14.108554">
        <ele>1229.1650531712</ele>
        <time>2011-04-02T09:06:05Z</time>
      </trkpt>
      <trkpt lat="46.234015" lon="14.108555">
        <ele>1229.6450473344</ele>
        <time>2011-04-02T09:06:07Z</time>
      </trkpt>
      <trkpt lat="46.234079" lon="14.108537">
        <ele>1230.1250414976</ele>
        <time>2011-04-02T09:06:14Z</time>
      </trkpt>
      <trkpt lat="46.234117" lon="14.108547">
        <ele>1230.6050356608</ele>
        <time>2011-04-02T09:06:19Z</time>
      </trkpt>
      <trkpt lat="46.234134" lon="14.108525">
        <ele>1231.0950297024</ele>
        <time>2011-04-02T09:06:20Z</time>
      </trkpt>
      <trkpt lat="46.234192" lon="14.108515">
        <ele>1232.535012192</ele>
        <time>2011-04-02T09:06:30Z</time>
      </trkpt>
      <trkpt lat="46.234290" lon="14.108439">
        <ele>1233.9749946816</ele>
        <time>2011-04-02T09:06:42Z</time>
      </trkpt>
      <trkpt lat="46.234382" lon="14.108342">
        <ele>1234.4549888448</ele>
        <time>2011-04-02T09:06:54Z</time>
      </trkpt>
      <trkpt lat="46.234455" lon="14.108269">
        <ele>1234.934983008</ele>
        <time>2011-04-02T09:07:02Z</time>
      </trkpt>
      <trkpt lat="46.234527" lon="14.108226">
        <ele>1235.8949713344</ele>
        <time>2011-04-02T09:07:13Z</time>
      </trkpt>
      <trkpt lat="46.234523" lon="14.108202">
        <ele>1236.3749654976</ele>
        <time>2011-04-02T09:07:16Z</time>
      </trkpt>
      <trkpt lat="46.234606" lon="14.108114">
        <ele>1238.3049420288</ele>
        <time>2011-04-02T09:07:28Z</time>
      </trkpt>
      <trkpt lat="46.234650" lon="14.108042">
        <ele>1239.7449245184</ele>
        <time>2011-04-02T09:07:37Z</time>
      </trkpt>
      <trkpt lat="46.234742" lon="14.107874">
        <ele>1240.2249186816</ele>
        <time>2011-04-02T09:07:52Z</time>
      </trkpt>
      <trkpt lat="46.234825" lon="14.107693">
        <ele>1241.184907008</ele>
        <time>2011-04-02T09:08:06Z</time>
      </trkpt>
      <trkpt lat="46.234864" lon="14.107581">
        <ele>1242.6248894976</ele>
        <time>2011-04-02T09:08:18Z</time>
      </trkpt>
      <trkpt lat="46.234940" lon="14.107453">
        <ele>1243.1048836608</ele>
        <time>2011-04-02T09:08:31Z</time>
      </trkpt>
      <trkpt lat="46.234982" lon="14.107400">
        <ele>1244.5448661504</ele>
        <time>2011-04-02T09:08:41Z</time>
      </trkpt>
      <trkpt lat="46.235032" lon="14.107288">
        <ele>1245.0248603136</ele>
        <time>2011-04-02T09:08:50Z</time>
      </trkpt>
      <trkpt lat="46.235063" lon="14.107203">
        <ele>1245.9948485184</ele>
        <time>2011-04-02T09:09:05Z</time>
      </trkpt>
      <trkpt lat="46.235065" lon="14.107222">
        <ele>1246.4748426816</ele>
        <time>2011-04-02T09:09:25Z</time>
      </trkpt>
      <trkpt lat="46.235065" lon="14.107222">
        <ele>1246.9548368448</ele>
        <time>2011-04-02T09:09:52Z</time>
      </trkpt>
      <trkpt lat="46.235071" lon="14.107215">
        <ele>1247.434831008</ele>
        <time>2011-04-02T09:10:10Z</time>
      </trkpt>
      <trkpt lat="46.235071" lon="14.107215">
        <ele>1247.434831008</ele>
        <time>2011-04-02T09:10:34Z</time>
      </trkpt>
      <trkpt lat="46.235069" lon="14.107216">
        <ele>1247.434831008</ele>
        <time>2011-04-02T09:11:05Z</time>
      </trkpt>
      <trkpt lat="46.235064" lon="14.107220">
        <ele>1247.9148251712</ele>
        <time>2011-04-02T09:11:38Z</time>
      </trkpt>
      <trkpt lat="46.235054" lon="14.107221">
        <ele>1248.3948193344</ele>
        <time>2011-04-02T09:12:05Z</time>
      </trkpt>
      <trkpt lat="46.235055" lon="14.107224">
        <ele>1247.9148251712</ele>
        <time>2011-04-02T09:12:32Z</time>
      </trkpt>
      <trkpt lat="46.235108" lon="14.107102">
        <ele>1248.8748134976</ele>
        <time>2011-04-02T09:12:57Z</time>
      </trkpt>
      <trkpt lat="46.235221" lon="14.106917">
        <ele>1249.834801824</ele>
        <time>2011-04-02T09:13:08Z</time>
      </trkpt>
      <trkpt lat="46.235235" lon="14.106825">
        <ele>1251.2747843136</ele>
        <time>2011-04-02T09:13:20Z</time>
      </trkpt>
      <trkpt lat="46.235264" lon="14.106795">
        <ele>1252.7247666816</ele>
        <time>2011-04-02T09:13:31Z</time>
      </trkpt>
      <trkpt lat="46.235260" lon="14.106785">
        <ele>1253.2047608448</ele>
        <time>2011-04-02T09:13:44Z</time>
      </trkpt>
      <trkpt lat="46.235278" lon="14.106745">
        <ele>1255.1247374976</ele>
        <time>2011-04-02T09:13:59Z</time>
      </trkpt>
      <trkpt lat="46.235356" lon="14.106544">
        <ele>1257.5247083136</ele>
        <time>2011-04-02T09:14:14Z</time>
      </trkpt>
      <trkpt lat="46.235450" lon="14.106439">
        <ele>1258.0047024768</ele>
        <time>2011-04-02T09:14:26Z</time>
      </trkpt>
      <trkpt lat="46.235507" lon="14.106384">
        <ele>1258.9646908032</ele>
        <time>2011-04-02T09:14:37Z</time>
      </trkpt>
      <trkpt lat="46.235552" lon="14.106351">
        <ele>1259.9246791296</ele>
        <time>2011-04-02T09:14:45Z</time>
      </trkpt>
      <trkpt lat="46.235566" lon="14.106345">
        <ele>1260.4146731712</ele>
        <time>2011-04-02T09:14:48Z</time>
      </trkpt>
      <trkpt lat="46.235592" lon="14.106310">
        <ele>1262.334649824</ele>
        <time>2011-04-02T09:14:56Z</time>
      </trkpt>
      <trkpt lat="46.235630" lon="14.106239">
        <ele>1262.8146439872</ele>
        <time>2011-04-02T09:15:09Z</time>
      </trkpt>
      <trkpt lat="46.235637" lon="14.106238">
        <ele>1262.334649824</ele>
        <time>2011-04-02T09:15:26Z</time>
      </trkpt>
      <trkpt lat="46.235687" lon="14.106207">
        <ele>1263.7746323136</ele>
        <time>2011-04-02T09:15:45Z</time>
      </trkpt>
      <trkpt lat="46.235733" lon="14.106194">
        <ele>1264.2546264768</ele>
        <time>2011-04-02T09:16:08Z</time>
      </trkpt>
      <trkpt lat="46.235824" lon="14.106158">
        <ele>1266.1746031296</ele>
        <time>2011-04-02T09:16:20Z</time>
      </trkpt>
      <trkpt lat="46.235831" lon="14.106159">
        <ele>1266.1746031296</ele>
        <time>2011-04-02T09:16:21Z</time>
      </trkpt>
      <trkpt lat="46.235879" lon="14.106104">
        <ele>1268.1045796608</ele>
        <time>2011-04-02T09:16:33Z</time>
      </trkpt>
      <trkpt lat="46.235951" lon="14.105909">
        <ele>1270.0245563136</ele>
        <time>2011-04-02T09:16:44Z</time>
      </trkpt>
      <trkpt lat="46.236025" lon="14.105684">
        <ele>1270.0245563136</ele>
        <time>2011-04-02T09:16:59Z</time>
      </trkpt>
      <trkpt lat="46.236082" lon="14.105584">
        <ele>1270.0245563136</ele>
        <time>2011-04-02T09:17:10Z</time>
      </trkpt>
      <trkpt lat="46.236128" lon="14.105380">
        <ele>1271.4645388032</ele>
        <time>2011-04-02T09:17:23Z</time>
      </trkpt>
      <trkpt lat="46.236135" lon="14.105342">
        <ele>1270.98454464</ele>
        <time>2011-04-02T09:17:26Z</time>
      </trkpt>
      <trkpt lat="46.236156" lon="14.105295">
        <ele>1270.98454464</ele>
        <time>2011-04-02T09:17:27Z</time>
      </trkpt>
      <trkpt lat="46.236160" lon="14.105247">
        <ele>1270.5045504768</ele>
        <time>2011-04-02T09:17:31Z</time>
      </trkpt>
      <trkpt lat="46.236122" lon="14.105147">
        <ele>1269.5445621504</ele>
        <time>2011-04-02T09:17:42Z</time>
      </trkpt>
      <trkpt lat="46.236081" lon="14.105035">
        <ele>1270.0245563136</ele>
        <time>2011-04-02T09:17:54Z</time>
      </trkpt>
      <trkpt lat="46.236087" lon="14.104958">
        <ele>1270.5045504768</ele>
        <time>2011-04-02T09:18:05Z</time>
      </trkpt>
      <trkpt lat="46.236068" lon="14.104925">
        <ele>1271.4645388032</ele>
        <time>2011-04-02T09:18:18Z</time>
      </trkpt>
      <trkpt lat="46.236068" lon="14.104925">
        <ele>1270.98454464</ele>
        <time>2011-04-02T09:18:44Z</time>
      </trkpt>
      <trkpt lat="46.236068" lon="14.104889">
        <ele>1271.9445329664</ele>
        <time>2011-04-02T09:19:04Z</time>
      </trkpt>
      <trkpt lat="46.236086" lon="14.104846">
        <ele>1272.4245271296</ele>
        <time>2011-04-02T09:19:19Z</time>
      </trkpt>
      <trkpt lat="46.236138" lon="14.104752">
        <ele>1274.3445037824</ele>
        <time>2011-04-02T09:19:34Z</time>
      </trkpt>
      <trkpt lat="46.236199" lon="14.104668">
        <ele>1275.7944861504</ele>
        <time>2011-04-02T09:19:46Z</time>
      </trkpt>
      <trkpt lat="46.236261" lon="14.104626">
        <ele>1276.2744803136</ele>
        <time>2011-04-02T09:20:01Z</time>
      </trkpt>
      <trkpt lat="46.236353" lon="14.104461">
        <ele>1277.23446864</ele>
        <time>2011-04-02T09:20:13Z</time>
      </trkpt>
      <trkpt lat="46.236420" lon="14.104311">
        <ele>1278.1944569664</ele>
        <time>2011-04-02T09:20:24Z</time>
      </trkpt>
      <trkpt lat="46.236415" lon="14.104308">
        <ele>1279.1544452928</ele>
        <time>2011-04-02T09:20:40Z</time>
      </trkpt>
      <trkpt lat="46.236441" lon="14.104212">
        <ele>1279.634439456</ele>
        <time>2011-04-02T09:20:58Z</time>
      </trkpt>
      <trkpt lat="46.236458" lon="14.104204">
        <ele>1281.0744219456</ele>
        <time>2011-04-02T09:21:03Z</time>
      </trkpt>
      <trkpt lat="46.236567" lon="14.103963">
        <ele>1282.5244043136</ele>
        <time>2011-04-02T09:21:19Z</time>
      </trkpt>
      <trkpt lat="46.236590" lon="14.103929">
        <ele>1283.9643868032</ele>
        <time>2011-04-02T09:21:40Z</time>
      </trkpt>
      <trkpt lat="46.236653" lon="14.103827">
        <ele>1285.4043692928</ele>
        <time>2011-04-02T09:21:49Z</time>
      </trkpt>
      <trkpt lat="46.236707" lon="14.103676">
        <ele>1286.8443517824</ele>
        <time>2011-04-02T09:22:01Z</time>
      </trkpt>
      <trkpt lat="46.236765" lon="14.103559">
        <ele>1289.73431664</ele>
        <time>2011-04-02T09:22:13Z</time>
      </trkpt>
      <trkpt lat="46.236821" lon="14.103386">
        <ele>1289.73431664</ele>
        <time>2011-04-02T09:22:28Z</time>
      </trkpt>
      <trkpt lat="46.236900" lon="14.103197">
        <ele>1291.6542932928</ele>
        <time>2011-04-02T09:22:39Z</time>
      </trkpt>
      <trkpt lat="46.236968" lon="14.103022">
        <ele>1293.0942757824</ele>
        <time>2011-04-02T09:22:53Z</time>
      </trkpt>
      <trkpt lat="46.236988" lon="14.103009">
        <ele>1294.534258272</ele>
        <time>2011-04-02T09:23:03Z</time>
      </trkpt>
      <trkpt lat="46.237003" lon="14.102966">
        <ele>1296.4642348032</ele>
        <time>2011-04-02T09:23:22Z</time>
      </trkpt>
      <trkpt lat="46.237008" lon="14.102918">
        <ele>1296.4642348032</ele>
        <time>2011-04-02T09:23:36Z</time>
      </trkpt>
      <trkpt lat="46.237018" lon="14.102908">
        <ele>1296.4642348032</ele>
        <time>2011-04-02T09:23:55Z</time>
      </trkpt>
      <trkpt lat="46.237018" lon="14.102905">
        <ele>1296.4642348032</ele>
        <time>2011-04-02T09:24:18Z</time>
      </trkpt>
      <trkpt lat="46.237025" lon="14.102893">
        <ele>1297.9042172928</ele>
        <time>2011-04-02T09:24:46Z</time>
      </trkpt>
      <trkpt lat="46.237043" lon="14.102841">
        <ele>1298.8642056192</ele>
        <time>2011-04-02T09:24:59Z</time>
      </trkpt>
      <trkpt lat="46.237056" lon="14.102784">
        <ele>1300.3041881088</ele>
        <time>2011-04-02T09:25:13Z</time>
      </trkpt>
      <trkpt lat="46.237045" lon="14.102731">
        <ele>1302.2241647616</ele>
        <time>2011-04-02T09:25:29Z</time>
      </trkpt>
      <trkpt lat="46.237037" lon="14.102598">
        <ele>1304.1541412928</ele>
        <time>2011-04-02T09:25:41Z</time>
      </trkpt>
      <trkpt lat="46.237033" lon="14.102578">
        <ele>1304.634135456</ele>
        <time>2011-04-02T09:26:03Z</time>
      </trkpt>
      <trkpt lat="46.237016" lon="14.102515">
        <ele>1306.0741179456</ele>
        <time>2011-04-02T09:26:12Z</time>
      </trkpt>
      <trkpt lat="46.237020" lon="14.102461">
        <ele>1307.5141004352</ele>
        <time>2011-04-02T09:26:24Z</time>
      </trkpt>
      <trkpt lat="46.237009" lon="14.102419">
        <ele>1309.9140712512</ele>
        <time>2011-04-02T09:26:39Z</time>
      </trkpt>
      <trkpt lat="46.237004" lon="14.102333">
        <ele>1310.884059456</ele>
        <time>2011-04-02T09:26:53Z</time>
      </trkpt>
      <trkpt lat="46.236989" lon="14.102327">
        <ele>1311.8440477824</ele>
        <time>2011-04-02T09:27:13Z</time>
      </trkpt>
      <trkpt lat="46.236985" lon="14.102286">
        <ele>1312.8040361088</ele>
        <time>2011-04-02T09:27:28Z</time>
      </trkpt>
      <trkpt lat="46.236985" lon="14.102234">
        <ele>1314.2440185984</ele>
        <time>2011-04-02T09:27:40Z</time>
      </trkpt>
      <trkpt lat="46.237030" lon="14.102210">
        <ele>1316.1639952512</ele>
        <time>2011-04-02T09:27:55Z</time>
      </trkpt>
      <trkpt lat="46.237073" lon="14.102160">
        <ele>1318.083971904</ele>
        <time>2011-04-02T09:28:07Z</time>
      </trkpt>
      <trkpt lat="46.237083" lon="14.102156">
        <ele>1317.6039777408</ele>
        <time>2011-04-02T09:28:11Z</time>
      </trkpt>
      <trkpt lat="46.237137" lon="14.102111">
        <ele>1319.0539601088</ele>
        <time>2011-04-02T09:28:25Z</time>
      </trkpt>
      <trkpt lat="46.237147" lon="14.102098">
        <ele>1319.0539601088</ele>
        <time>2011-04-02T09:28:26Z</time>
      </trkpt>
      <trkpt lat="46.237209" lon="14.101969">
        <ele>1321.933925088</ele>
        <time>2011-04-02T09:28:39Z</time>
      </trkpt>
      <trkpt lat="46.237254" lon="14.101859">
        <ele>1323.3739075776</ele>
        <time>2011-04-02T09:28:54Z</time>
      </trkpt>
      <trkpt lat="46.237269" lon="14.101827">
        <ele>1325.2938842304</ele>
        <time>2011-04-02T09:29:06Z</time>
      </trkpt>
      <trkpt lat="46.237283" lon="14.101774">
        <ele>1327.7038549248</ele>
        <time>2011-04-02T09:29:20Z</time>
      </trkpt>
      <trkpt lat="46.237279" lon="14.101772">
        <ele>1329.1438374144</ele>
        <time>2011-04-02T09:29:43Z</time>
      </trkpt>
      <trkpt lat="46.237279" lon="14.101772">
        <ele>1325.2938842304</ele>
        <time>2011-04-02T09:29:44Z</time>
      </trkpt>
      <trkpt lat="46.237279" lon="14.101772">
        <ele>1331.0638140672</ele>
        <time>2011-04-02T09:29:47Z</time>
      </trkpt>
      <trkpt lat="46.237279" lon="14.101772">
        <ele>1327.7038549248</ele>
        <time>2011-04-02T09:29:47Z</time>
      </trkpt>
      <trkpt lat="46.237281" lon="14.101756">
        <ele>1329.6238315776</ele>
        <time>2011-04-02T09:30:00Z</time>
      </trkpt>
      <trkpt lat="46.237308" lon="14.101695">
        <ele>1330.583819904</ele>
        <time>2011-04-02T09:30:14Z</time>
      </trkpt>
      <trkpt lat="46.237330" lon="14.101619">
        <ele>1332.5037965568</ele>
        <time>2011-04-02T09:30:30Z</time>
      </trkpt>
      <trkpt lat="46.237364" lon="14.101515">
        <ele>1333.9537789248</ele>
        <time>2011-04-02T09:30:41Z</time>
      </trkpt>
      <trkpt lat="46.237362" lon="14.101512">
        <ele>1334.9137672512</ele>
        <time>2011-04-02T09:31:04Z</time>
      </trkpt>
      <trkpt lat="46.237364" lon="14.101448">
        <ele>1336.833743904</ele>
        <time>2011-04-02T09:31:16Z</time>
      </trkpt>
      <trkpt lat="46.237363" lon="14.101430">
        <ele>1337.7937322304</ele>
        <time>2011-04-02T09:31:31Z</time>
      </trkpt>
      <trkpt lat="46.237367" lon="14.101379">
        <ele>1339.7137088832</ele>
        <time>2011-04-02T09:31:44Z</time>
      </trkpt>
      <trkpt lat="46.237365" lon="14.101371">
        <ele>1340.683697088</ele>
        <time>2011-04-02T09:32:01Z</time>
      </trkpt>
      <trkpt lat="46.237365" lon="14.101371">
        <ele>1340.683697088</ele>
        <time>2011-04-02T09:32:30Z</time>
      </trkpt>
      <trkpt lat="46.237382" lon="14.101284">
        <ele>1340.2037029248</ele>
        <time>2011-04-02T09:32:48Z</time>
      </trkpt>
      <trkpt lat="46.237374" lon="14.101251">
        <ele>1342.1236795776</ele>
        <time>2011-04-02T09:32:56Z</time>
      </trkpt>
      <trkpt lat="46.237369" lon="14.101194">
        <ele>1341.1636912512</ele>
        <time>2011-04-02T09:33:12Z</time>
      </trkpt>
      <trkpt lat="46.237398" lon="14.101101">
        <ele>1342.1236795776</ele>
        <time>2011-04-02T09:33:34Z</time>
      </trkpt>
      <trkpt lat="46.237403" lon="14.101077">
        <ele>1343.5636620672</ele>
        <time>2011-04-02T09:33:50Z</time>
      </trkpt>
      <trkpt lat="46.237411" lon="14.101010">
        <ele>1344.0436562304</ele>
        <time>2011-04-02T09:34:06Z</time>
      </trkpt>
      <trkpt lat="46.237439" lon="14.100898">
        <ele>1345.0036445568</ele>
        <time>2011-04-02T09:34:13Z</time>
      </trkpt>
      <trkpt lat="46.237460" lon="14.100828">
        <ele>1345.48363872</ele>
        <time>2011-04-02T09:34:25Z</time>
      </trkpt>
      <trkpt lat="46.237488" lon="14.100758">
        <ele>1346.9236212096</ele>
        <time>2011-04-02T09:34:35Z</time>
      </trkpt>
      <trkpt lat="46.237531" lon="14.100699">
        <ele>1347.8936094144</ele>
        <time>2011-04-02T09:34:48Z</time>
      </trkpt>
      <trkpt lat="46.237535" lon="14.100659">
        <ele>1348.3736035776</ele>
        <time>2011-04-02T09:35:03Z</time>
      </trkpt>
      <trkpt lat="46.237561" lon="14.100601">
        <ele>1349.333591904</ele>
        <time>2011-04-02T09:35:20Z</time>
      </trkpt>
      <trkpt lat="46.237582" lon="14.100490">
        <ele>1349.333591904</ele>
        <time>2011-04-02T09:35:31Z</time>
      </trkpt>
      <trkpt lat="46.237582" lon="14.100490">
        <ele>1350.2935802304</ele>
        <time>2011-04-02T09:35:57Z</time>
      </trkpt>
      <trkpt lat="46.237593" lon="14.100473">
        <ele>1349.333591904</ele>
        <time>2011-04-02T09:36:14Z</time>
      </trkpt>
      <trkpt lat="46.237611" lon="14.100429">
        <ele>1348.8535977408</ele>
        <time>2011-04-02T09:36:28Z</time>
      </trkpt>
      <trkpt lat="46.237624" lon="14.100382">
        <ele>1348.8535977408</ele>
        <time>2011-04-02T09:36:33Z</time>
      </trkpt>
      <trkpt lat="46.237641" lon="14.100332">
        <ele>1348.8535977408</ele>
        <time>2011-04-02T09:36:50Z</time>
      </trkpt>
      <trkpt lat="46.237651" lon="14.100321">
        <ele>1349.8135860672</ele>
        <time>2011-04-02T09:37:03Z</time>
      </trkpt>
      <trkpt lat="46.237641" lon="14.100331">
        <ele>1349.8135860672</ele>
        <time>2011-04-02T09:37:30Z</time>
      </trkpt>
      <trkpt lat="46.237639" lon="14.100355">
        <ele>1349.8135860672</ele>
        <time>2011-04-02T09:37:54Z</time>
      </trkpt>
      <trkpt lat="46.237639" lon="14.100355">
        <ele>1349.333591904</ele>
        <time>2011-04-02T09:38:20Z</time>
      </trkpt>
      <trkpt lat="46.237637" lon="14.100324">
        <ele>1350.7735743936</ele>
        <time>2011-04-02T09:38:32Z</time>
      </trkpt>
      <trkpt lat="46.237629" lon="14.100295">
        <ele>1352.6935510464</ele>
        <time>2011-04-02T09:38:39Z</time>
      </trkpt>
      <trkpt lat="46.237651" lon="14.100255">
        <ele>1351.73356272</ele>
        <time>2011-04-02T09:38:50Z</time>
      </trkpt>
      <trkpt lat="46.237666" lon="14.100257">
        <ele>1352.6935510464</ele>
        <time>2011-04-02T09:39:10Z</time>
      </trkpt>
      <trkpt lat="46.237709" lon="14.100230">
        <ele>1353.1735452096</ele>
        <time>2011-04-02T09:39:22Z</time>
      </trkpt>
      <trkpt lat="46.237769" lon="14.100151">
        <ele>1353.1735452096</ele>
        <time>2011-04-02T09:39:34Z</time>
      </trkpt>
      <trkpt lat="46.237797" lon="14.100088">
        <ele>1356.0635100672</ele>
        <time>2011-04-02T09:39:49Z</time>
      </trkpt>
      <trkpt lat="46.237797" lon="14.100025">
        <ele>1356.5435042304</ele>
        <time>2011-04-02T09:40:01Z</time>
      </trkpt>
      <trkpt lat="46.237849" lon="14.099970">
        <ele>1357.0234983936</ele>
        <time>2011-04-02T09:40:16Z</time>
      </trkpt>
      <trkpt lat="46.237851" lon="14.099913">
        <ele>1358.4634808832</ele>
        <time>2011-04-02T09:40:28Z</time>
      </trkpt>
      <trkpt lat="46.237849" lon="14.099871">
        <ele>1358.9434750464</ele>
        <time>2011-04-02T09:40:47Z</time>
      </trkpt>
      <trkpt lat="46.237900" lon="14.099763">
        <ele>1360.8634516992</ele>
        <time>2011-04-02T09:40:59Z</time>
      </trkpt>
      <trkpt lat="46.237894" lon="14.099705">
        <ele>1361.3434458624</ele>
        <time>2011-04-02T09:41:17Z</time>
      </trkpt>
      <trkpt lat="46.237893" lon="14.099709">
        <ele>1361.8234400256</ele>
        <time>2011-04-02T09:41:20Z</time>
      </trkpt>
      <trkpt lat="46.237888" lon="14.099692">
        <ele>1363.7534165568</ele>
        <time>2011-04-02T09:41:33Z</time>
      </trkpt>
      <trkpt lat="46.237919" lon="14.099680">
        <ele>1364.23341072</ele>
        <time>2011-04-02T09:41:47Z</time>
      </trkpt>
      <trkpt lat="46.237905" lon="14.099682">
        <ele>1364.7134048832</ele>
        <time>2011-04-02T09:42:09Z</time>
      </trkpt>
      <trkpt lat="46.237905" lon="14.099682">
        <ele>1365.1933990464</ele>
        <time>2011-04-02T09:42:35Z</time>
      </trkpt>
      <trkpt lat="46.237906" lon="14.099662">
        <ele>1365.1933990464</ele>
        <time>2011-04-02T09:42:50Z</time>
      </trkpt>
      <trkpt lat="46.237911" lon="14.099596">
        <ele>1367.1133756992</ele>
        <time>2011-04-02T09:43:01Z</time>
      </trkpt>
      <trkpt lat="46.237920" lon="14.099567">
        <ele>1366.633381536</ele>
        <time>2011-04-02T09:43:03Z</time>
      </trkpt>
      <trkpt lat="46.237954" lon="14.099487">
        <ele>1369.033352352</ele>
        <time>2011-04-02T09:43:14Z</time>
      </trkpt>
      <trkpt lat="46.237968" lon="14.099457">
        <ele>1370.0033405568</ele>
        <time>2011-04-02T09:43:29Z</time>
      </trkpt>
      <trkpt lat="46.237968" lon="14.099457">
        <ele>1370.48333472</ele>
        <time>2011-04-02T09:43:51Z</time>
      </trkpt>
      <trkpt lat="46.237967" lon="14.099452">
        <ele>1370.48333472</ele>
        <time>2011-04-02T09:44:11Z</time>
      </trkpt>
      <trkpt lat="46.237967" lon="14.099452">
        <ele>1370.48333472</ele>
        <time>2011-04-02T09:44:34Z</time>
      </trkpt>
      <trkpt lat="46.237968" lon="14.099463">
        <ele>1371.4433230464</ele>
        <time>2011-04-02T09:44:38Z</time>
      </trkpt>
      <trkpt lat="46.237962" lon="14.099409">
        <ele>1372.4033113728</ele>
        <time>2011-04-02T09:44:50Z</time>
      </trkpt>
      <trkpt lat="46.237964" lon="14.099303">
        <ele>1374.3232880256</ele>
        <time>2011-04-02T09:45:01Z</time>
      </trkpt>
      <trkpt lat="46.237956" lon="14.099290">
        <ele>1373.8432938624</ele>
        <time>2011-04-02T09:45:05Z</time>
      </trkpt>
      <trkpt lat="46.237962" lon="14.099295">
        <ele>1375.7632705152</ele>
        <time>2011-04-02T09:45:18Z</time>
      </trkpt>
      <trkpt lat="46.237952" lon="14.099295">
        <ele>1376.73325872</ele>
        <time>2011-04-02T09:45:32Z</time>
      </trkpt>
      <trkpt lat="46.237937" lon="14.099351">
        <ele>1377.6932470464</ele>
        <time>2011-04-02T09:45:52Z</time>
      </trkpt>
      <trkpt lat="46.237936" lon="14.099352">
        <ele>1378.1732412096</ele>
        <time>2011-04-02T09:46:19Z</time>
      </trkpt>
      <trkpt lat="46.237912" lon="14.099270">
        <ele>1379.6132236992</ele>
        <time>2011-04-02T09:46:37Z</time>
      </trkpt>
      <trkpt lat="46.237926" lon="14.099139">
        <ele>1381.0532061888</ele>
        <time>2011-04-02T09:46:48Z</time>
      </trkpt>
      <trkpt lat="46.237948" lon="14.099035">
        <ele>1382.9731828416</ele>
        <time>2011-04-02T09:46:57Z</time>
      </trkpt>
      <trkpt lat="46.237947" lon="14.098966">
        <ele>1384.9031593728</ele>
        <time>2011-04-02T09:47:09Z</time>
      </trkpt>
      <trkpt lat="46.237959" lon="14.098923">
        <ele>1386.8231360256</ele>
        <time>2011-04-02T09:47:21Z</time>
      </trkpt>
      <trkpt lat="46.237967" lon="14.098879">
        <ele>1388.2631185152</ele>
        <time>2011-04-02T09:47:40Z</time>
      </trkpt>
      <trkpt lat="46.238011" lon="14.098733">
        <ele>1390.6630893312</ele>
        <time>2011-04-02T09:47:54Z</time>
      </trkpt>
      <trkpt lat="46.238054" lon="14.098647">
        <ele>1392.5930658624</ele>
        <time>2011-04-02T09:48:06Z</time>
      </trkpt>
      <trkpt lat="46.238066" lon="14.098536">
        <ele>1394.033048352</ele>
        <time>2011-04-02T09:48:18Z</time>
      </trkpt>
      <trkpt lat="46.238071" lon="14.098442">
        <ele>1395.4730308416</ele>
        <time>2011-04-02T09:48:30Z</time>
      </trkpt>
      <trkpt lat="46.238052" lon="14.098411">
        <ele>1396.9130133312</ele>
        <time>2011-04-02T09:48:44Z</time>
      </trkpt>
      <trkpt lat="46.238066" lon="14.098385">
        <ele>1398.3529958208</ele>
        <time>2011-04-02T09:48:57Z</time>
      </trkpt>
      <trkpt lat="46.238085" lon="14.098321">
        <ele>1400.7629665152</ele>
        <time>2011-04-02T09:49:11Z</time>
      </trkpt>
      <trkpt lat="46.238081" lon="14.098329">
        <ele>1401.7229548416</ele>
        <time>2011-04-02T09:49:28Z</time>
      </trkpt>
      <trkpt lat="46.238068" lon="14.098315">
        <ele>1402.682943168</ele>
        <time>2011-04-02T09:49:39Z</time>
      </trkpt>
      <trkpt lat="46.238050" lon="14.098313">
        <ele>1404.6029198208</ele>
        <time>2011-04-02T09:49:53Z</time>
      </trkpt>
      <trkpt lat="46.238044" lon="14.098363">
        <ele>1406.0529021888</ele>
        <time>2011-04-02T09:50:11Z</time>
      </trkpt>
      <trkpt lat="46.238064" lon="14.098344">
        <ele>1407.9728788416</ele>
        <time>2011-04-02T09:50:32Z</time>
      </trkpt>
      <trkpt lat="46.238117" lon="14.098213">
        <ele>1409.4128613312</ele>
        <time>2011-04-02T09:50:48Z</time>
      </trkpt>
      <trkpt lat="46.238125" lon="14.098139">
        <ele>1410.3728496576</ele>
        <time>2011-04-02T09:50:59Z</time>
      </trkpt>
      <trkpt lat="46.238117" lon="14.098072">
        <ele>1412.2928263104</ele>
        <time>2011-04-02T09:51:11Z</time>
      </trkpt>
      <trkpt lat="46.238106" lon="14.098022">
        <ele>1413.7428086784</ele>
        <time>2011-04-02T09:51:27Z</time>
      </trkpt>
      <trkpt lat="46.238115" lon="14.097976">
        <ele>1415.182791168</ele>
        <time>2011-04-02T09:51:39Z</time>
      </trkpt>
      <trkpt lat="46.238116" lon="14.097917">
        <ele>1418.5427503104</ele>
        <time>2011-04-02T09:51:54Z</time>
      </trkpt>
      <trkpt lat="46.238156" lon="14.097696">
        <ele>1419.9827328</ele>
        <time>2011-04-02T09:52:08Z</time>
      </trkpt>
      <trkpt lat="46.238152" lon="14.097654">
        <ele>1421.432715168</ele>
        <time>2011-04-02T09:52:21Z</time>
      </trkpt>
      <trkpt lat="46.238161" lon="14.097594">
        <ele>1422.3927034944</ele>
        <time>2011-04-02T09:52:33Z</time>
      </trkpt>
      <trkpt lat="46.238168" lon="14.097584">
        <ele>1423.832685984</ele>
        <time>2011-04-02T09:52:47Z</time>
      </trkpt>
      <trkpt lat="46.238198" lon="14.097507">
        <ele>1424.7926743104</ele>
        <time>2011-04-02T09:52:57Z</time>
      </trkpt>
      <trkpt lat="46.238252" lon="14.097450">
        <ele>1426.7126509632</ele>
        <time>2011-04-02T09:53:08Z</time>
      </trkpt>
      <trkpt lat="46.238288" lon="14.097434">
        <ele>1428.1626333312</ele>
        <time>2011-04-02T09:53:19Z</time>
      </trkpt>
      <trkpt lat="46.238310" lon="14.097396">
        <ele>1429.6026158208</ele>
        <time>2011-04-02T09:53:33Z</time>
      </trkpt>
      <trkpt lat="46.238363" lon="14.097329">
        <ele>1432.0025866368</ele>
        <time>2011-04-02T09:53:46Z</time>
      </trkpt>
      <trkpt lat="46.238419" lon="14.097260">
        <ele>1433.4425691264</ele>
        <time>2011-04-02T09:54:00Z</time>
      </trkpt>
      <trkpt lat="46.238428" lon="14.097195">
        <ele>1435.3725456576</ele>
        <time>2011-04-02T09:54:13Z</time>
      </trkpt>
      <trkpt lat="46.238448" lon="14.097122">
        <ele>1437.7725164736</ele>
        <time>2011-04-02T09:54:25Z</time>
      </trkpt>
      <trkpt lat="46.238475" lon="14.097068">
        <ele>1438.7325048</ele>
        <time>2011-04-02T09:54:35Z</time>
      </trkpt>
      <trkpt lat="46.238490" lon="14.097015">
        <ele>1440.1724872896</ele>
        <time>2011-04-02T09:54:52Z</time>
      </trkpt>
      <trkpt lat="46.238489" lon="14.096996">
        <ele>1440.6524814528</ele>
        <time>2011-04-02T09:54:54Z</time>
      </trkpt>
      <trkpt lat="46.238462" lon="14.096964">
        <ele>1440.6524814528</ele>
        <time>2011-04-02T09:55:07Z</time>
      </trkpt>
      <trkpt lat="46.238445" lon="14.096880">
        <ele>1441.132475616</ele>
        <time>2011-04-02T09:55:18Z</time>
      </trkpt>
      <trkpt lat="46.238446" lon="14.096802">
        <ele>1442.0924639424</ele>
        <time>2011-04-02T09:55:23Z</time>
      </trkpt>
      <trkpt lat="46.238457" lon="14.096764">
        <ele>1442.0924639424</ele>
        <time>2011-04-02T09:55:35Z</time>
      </trkpt>
      <trkpt lat="46.238454" lon="14.096768">
        <ele>1441.132475616</ele>
        <time>2011-04-02T09:55:54Z</time>
      </trkpt>
      <trkpt lat="46.238444" lon="14.096786">
        <ele>1441.6124697792</ele>
        <time>2011-04-02T09:56:11Z</time>
      </trkpt>
      <trkpt lat="46.238443" lon="14.096812">
        <ele>1441.6124697792</ele>
        <time>2011-04-02T09:56:28Z</time>
      </trkpt>
      <trkpt lat="46.238443" lon="14.096812">
        <ele>1441.6124697792</ele>
        <time>2011-04-02T09:56:47Z</time>
      </trkpt>
      <trkpt lat="46.238440" lon="14.096808">
        <ele>1441.132475616</ele>
        <time>2011-04-02T09:57:18Z</time>
      </trkpt>
      <trkpt lat="46.238439" lon="14.096795">
        <ele>1442.0924639424</ele>
        <time>2011-04-02T09:57:37Z</time>
      </trkpt>
      <trkpt lat="46.238440" lon="14.096796">
        <ele>1441.6124697792</ele>
        <time>2011-04-02T09:57:54Z</time>
      </trkpt>
      <trkpt lat="46.238440" lon="14.096796">
        <ele>1441.6124697792</ele>
        <time>2011-04-02T09:58:13Z</time>
      </trkpt>
      <trkpt lat="46.238451" lon="14.096763">
        <ele>1441.6124697792</ele>
        <time>2011-04-02T09:58:16Z</time>
      </trkpt>
      <trkpt lat="46.238472" lon="14.096700">
        <ele>1442.582457984</ele>
        <time>2011-04-02T09:58:20Z</time>
      </trkpt>
      <trkpt lat="46.238475" lon="14.096624">
        <ele>1443.0624521472</ele>
        <time>2011-04-02T09:58:31Z</time>
      </trkpt>
      <trkpt lat="46.238475" lon="14.096624">
        <ele>1443.0624521472</ele>
        <time>2011-04-02T09:58:43Z</time>
      </trkpt>
      <trkpt lat="46.238539" lon="14.096572">
        <ele>1443.5424463104</ele>
        <time>2011-04-02T09:58:55Z</time>
      </trkpt>
      <trkpt lat="46.238562" lon="14.096526">
        <ele>1444.5024346368</ele>
        <time>2011-04-02T09:59:02Z</time>
      </trkpt>
      <trkpt lat="46.238562" lon="14.096452">
        <ele>1444.9824288</ele>
        <time>2011-04-02T09:59:13Z</time>
      </trkpt>
      <trkpt lat="46.238562" lon="14.096452">
        <ele>1444.0224404736</ele>
        <time>2011-04-02T09:59:38Z</time>
      </trkpt>
      <trkpt lat="46.238561" lon="14.096446">
        <ele>1444.5024346368</ele>
        <time>2011-04-02T09:59:56Z</time>
      </trkpt>
      <trkpt lat="46.238580" lon="14.096461">
        <ele>1444.9824288</ele>
        <time>2011-04-02T10:00:04Z</time>
      </trkpt>
      <trkpt lat="46.238593" lon="14.096458">
        <ele>1444.0224404736</ele>
        <time>2011-04-02T10:00:14Z</time>
      </trkpt>
      <trkpt lat="46.238604" lon="14.096441">
        <ele>1444.5024346368</ele>
        <time>2011-04-02T10:00:30Z</time>
      </trkpt>
      <trkpt lat="46.238604" lon="14.096441">
        <ele>1444.5024346368</ele>
        <time>2011-04-02T10:01:03Z</time>
      </trkpt>
      <trkpt lat="46.238606" lon="14.096440">
        <ele>1444.0224404736</ele>
        <time>2011-04-02T10:01:33Z</time>
      </trkpt>
      <trkpt lat="46.238606" lon="14.096438">
        <ele>1444.5024346368</ele>
        <time>2011-04-02T10:02:11Z</time>
      </trkpt>
      <trkpt lat="46.238605" lon="14.096438">
        <ele>1444.5024346368</ele>
        <time>2011-04-02T10:02:47Z</time>
      </trkpt>
      <trkpt lat="46.238605" lon="14.096436">
        <ele>1444.0224404736</ele>
        <time>2011-04-02T10:03:25Z</time>
      </trkpt>
      <trkpt lat="46.238602" lon="14.096431">
        <ele>1444.5024346368</ele>
        <time>2011-04-02T10:04:02Z</time>
      </trkpt>
      <trkpt lat="46.238619" lon="14.096421">
        <ele>1443.5424463104</ele>
        <time>2011-04-02T10:04:34Z</time>
      </trkpt>
      <trkpt lat="46.238620" lon="14.096426">
        <ele>1443.5424463104</ele>
        <time>2011-04-02T10:05:06Z</time>
      </trkpt>
      <trkpt lat="46.238620" lon="14.096426">
        <ele>1443.0624521472</ele>
        <time>2011-04-02T10:05:43Z</time>
      </trkpt>
      <trkpt lat="46.238620" lon="14.096428">
        <ele>1443.5424463104</ele>
        <time>2011-04-02T10:06:19Z</time>
      </trkpt>
      <trkpt lat="46.238624" lon="14.096419">
        <ele>1443.0624521472</ele>
        <time>2011-04-02T10:06:57Z</time>
      </trkpt>
      <trkpt lat="46.238627" lon="14.096421">
        <ele>1443.5424463104</ele>
        <time>2011-04-02T10:07:31Z</time>
      </trkpt>
      <trkpt lat="46.238627" lon="14.096422">
        <ele>1443.0624521472</ele>
        <time>2011-04-02T10:08:06Z</time>
      </trkpt>
      <trkpt lat="46.238630" lon="14.096422">
        <ele>1443.5424463104</ele>
        <time>2011-04-02T10:08:40Z</time>
      </trkpt>
      <trkpt lat="46.238630" lon="14.096424">
        <ele>1442.582457984</ele>
        <time>2011-04-02T10:09:20Z</time>
      </trkpt>
      <trkpt lat="46.238630" lon="14.096432">
        <ele>1442.582457984</ele>
        <time>2011-04-02T10:09:50Z</time>
      </trkpt>
      <trkpt lat="46.238628" lon="14.096432">
        <ele>1442.582457984</ele>
        <time>2011-04-02T10:10:29Z</time>
      </trkpt>
      <trkpt lat="46.238628" lon="14.096432">
        <ele>1443.0624521472</ele>
        <time>2011-04-02T10:10:59Z</time>
      </trkpt>
      <trkpt lat="46.238625" lon="14.096433">
        <ele>1443.0624521472</ele>
        <time>2011-04-02T10:11:14Z</time>
      </trkpt>
      <trkpt lat="46.238630" lon="14.096424">
        <ele>1443.0624521472</ele>
        <time>2011-04-02T10:11:30Z</time>
      </trkpt>
      <trkpt lat="46.238623" lon="14.096414">
        <ele>1443.0624521472</ele>
        <time>2011-04-02T10:11:41Z</time>
      </trkpt>
      <trkpt lat="46.238582" lon="14.096415">
        <ele>1443.0624521472</ele>
        <time>2011-04-02T10:11:53Z</time>
      </trkpt>
      <trkpt lat="46.238582" lon="14.096415">
        <ele>1442.582457984</ele>
        <time>2011-04-02T10:12:14Z</time>
      </trkpt>
      <trkpt lat="46.238584" lon="14.096419">
        <ele>1443.0624521472</ele>
        <time>2011-04-02T10:12:35Z</time>
      </trkpt>
      <trkpt lat="46.238571" lon="14.096344">
        <ele>1443.5424463104</ele>
        <time>2011-04-02T10:12:44Z</time>
      </trkpt>
      <trkpt lat="46.238593" lon="14.096346">
        <ele>1444.0224404736</ele>
        <time>2011-04-02T10:12:59Z</time>
      </trkpt>
      <trkpt lat="46.238591" lon="14.096302">
        <ele>1444.9824288</ele>
        <time>2011-04-02T10:13:12Z</time>
      </trkpt>
      <trkpt lat="46.238587" lon="14.096218">
        <ele>1445.9424171264</ele>
        <time>2011-04-02T10:13:25Z</time>
      </trkpt>
      <trkpt lat="46.238595" lon="14.096190">
        <ele>1446.4224112896</ele>
        <time>2011-04-02T10:13:34Z</time>
      </trkpt>
      <trkpt lat="46.238525" lon="14.096107">
        <ele>1448.8223821056</ele>
        <time>2011-04-02T10:13:48Z</time>
      </trkpt>
      <trkpt lat="46.238458" lon="14.096097">
        <ele>1450.7523586368</ele>
        <time>2011-04-02T10:14:01Z</time>
      </trkpt>
      <trkpt lat="46.238396" lon="14.096093">
        <ele>1452.6723352896</ele>
        <time>2011-04-02T10:14:13Z</time>
      </trkpt>
      <trkpt lat="46.238356" lon="14.096124">
        <ele>1453.632323616</ele>
        <time>2011-04-02T10:14:24Z</time>
      </trkpt>
      <trkpt lat="46.238297" lon="14.096173">
        <ele>1455.5523002688</ele>
        <time>2011-04-02T10:14:39Z</time>
      </trkpt>
      <trkpt lat="46.238289" lon="14.096176">
        <ele>1456.032294432</ele>
        <time>2011-04-02T10:14:40Z</time>
      </trkpt>
      <trkpt lat="46.238243" lon="14.096198">
        <ele>1457.0022826368</ele>
        <time>2011-04-02T10:14:55Z</time>
      </trkpt>
      <trkpt lat="46.238225" lon="14.096219">
        <ele>1457.4822768</ele>
        <time>2011-04-02T10:15:10Z</time>
      </trkpt>
      <trkpt lat="46.238225" lon="14.096219">
        <ele>1457.9622709632</ele>
        <time>2011-04-02T10:15:11Z</time>
      </trkpt>
      <trkpt lat="46.238179" lon="14.096261">
        <ele>1458.9222592896</ele>
        <time>2011-04-02T10:15:22Z</time>
      </trkpt>
      <trkpt lat="46.238136" lon="14.096285">
        <ele>1460.8422359424</ele>
        <time>2011-04-02T10:15:36Z</time>
      </trkpt>
      <trkpt lat="46.238110" lon="14.096311">
        <ele>1462.7622125952</ele>
        <time>2011-04-02T10:15:53Z</time>
      </trkpt>
      <trkpt lat="46.238106" lon="14.096322">
        <ele>1462.7622125952</ele>
        <time>2011-04-02T10:16:07Z</time>
      </trkpt>
      <trkpt lat="46.238071" lon="14.096316">
        <ele>1464.2121949632</ele>
        <time>2011-04-02T10:16:19Z</time>
      </trkpt>
      <trkpt lat="46.238058" lon="14.096255">
        <ele>1466.132171616</ele>
        <time>2011-04-02T10:16:38Z</time>
      </trkpt>
      <trkpt lat="46.238048" lon="14.096232">
        <ele>1466.132171616</ele>
        <time>2011-04-02T10:16:50Z</time>
      </trkpt>
      <trkpt lat="46.238011" lon="14.096217">
        <ele>1468.532142432</ele>
        <time>2011-04-02T10:17:03Z</time>
      </trkpt>
      <trkpt lat="46.237982" lon="14.096216">
        <ele>1470.4521190848</ele>
        <time>2011-04-02T10:17:11Z</time>
      </trkpt>
      <trkpt lat="46.237939" lon="14.096236">
        <ele>1471.4221072896</ele>
        <time>2011-04-02T10:17:26Z</time>
      </trkpt>
      <trkpt lat="46.237939" lon="14.096236">
        <ele>1470.932113248</ele>
        <time>2011-04-02T10:17:51Z</time>
      </trkpt>
      <trkpt lat="46.237917" lon="14.096245">
        <ele>1471.9021014528</ele>
        <time>2011-04-02T10:18:08Z</time>
      </trkpt>
      <trkpt lat="46.237916" lon="14.096258">
        <ele>1473.3420839424</ele>
        <time>2011-04-02T10:18:28Z</time>
      </trkpt>
      <trkpt lat="46.237916" lon="14.096262">
        <ele>1472.8620897792</ele>
        <time>2011-04-02T10:19:03Z</time>
      </trkpt>
      <trkpt lat="46.237906" lon="14.096312">
        <ele>1473.8220781056</ele>
        <time>2011-04-02T10:19:13Z</time>
      </trkpt>
      <trkpt lat="46.237880" lon="14.096371">
        <ele>1476.2220489216</ele>
        <time>2011-04-02T10:19:25Z</time>
      </trkpt>
      <trkpt lat="46.237818" lon="14.096345">
        <ele>1477.182037248</ele>
        <time>2011-04-02T10:19:36Z</time>
      </trkpt>
      <trkpt lat="46.237791" lon="14.096346">
        <ele>1477.6620314112</ele>
        <time>2011-04-02T10:19:49Z</time>
      </trkpt>
      <trkpt lat="46.237785" lon="14.096378">
        <ele>1478.632019616</ele>
        <time>2011-04-02T10:20:06Z</time>
      </trkpt>
      <trkpt lat="46.237694" lon="14.096358">
        <ele>1480.5519962688</ele>
        <time>2011-04-02T10:20:19Z</time>
      </trkpt>
      <trkpt lat="46.237681" lon="14.096361">
        <ele>1481.031990432</ele>
        <time>2011-04-02T10:20:34Z</time>
      </trkpt>
      <trkpt lat="46.237595" lon="14.096407">
        <ele>1482.9519670848</ele>
        <time>2011-04-02T10:20:46Z</time>
      </trkpt>
      <trkpt lat="46.237552" lon="14.096392">
        <ele>1485.3519379008</ele>
        <time>2011-04-02T10:21:01Z</time>
      </trkpt>
      <trkpt lat="46.237556" lon="14.096374">
        <ele>1486.3219261056</ele>
        <time>2011-04-02T10:21:17Z</time>
      </trkpt>
      <trkpt lat="46.237491" lon="14.096370">
        <ele>1489.681885248</ele>
        <time>2011-04-02T10:21:35Z</time>
      </trkpt>
      <trkpt lat="46.237445" lon="14.096363">
        <ele>1491.1218677376</ele>
        <time>2011-04-02T10:21:48Z</time>
      </trkpt>
      <trkpt lat="46.237448" lon="14.096364">
        <ele>1491.6018619008</ele>
        <time>2011-04-02T10:22:06Z</time>
      </trkpt>
      <trkpt lat="46.237448" lon="14.096364">
        <ele>1492.081856064</ele>
        <time>2011-04-02T10:22:30Z</time>
      </trkpt>
      <trkpt lat="46.237448" lon="14.096364">
        <ele>1491.1218677376</ele>
        <time>2011-04-02T10:22:31Z</time>
      </trkpt>
      <trkpt lat="46.237448" lon="14.096364">
        <ele>1490.6418735744</ele>
        <time>2011-04-02T10:22:58Z</time>
      </trkpt>
      <trkpt lat="46.237447" lon="14.096362">
        <ele>1491.6018619008</ele>
        <time>2011-04-02T10:23:20Z</time>
      </trkpt>
      <trkpt lat="46.237422" lon="14.096341">
        <ele>1493.531838432</ele>
        <time>2011-04-02T10:23:42Z</time>
      </trkpt>
      <trkpt lat="46.237419" lon="14.096350">
        <ele>1489.2018910848</ele>
        <time>2011-04-02T10:23:47Z</time>
      </trkpt>
      <trkpt lat="46.237419" lon="14.096350">
        <ele>1493.0418443904</ele>
        <time>2011-04-02T10:23:48Z</time>
      </trkpt>
      <trkpt lat="46.237419" lon="14.096355">
        <ele>1494.0118325952</ele>
        <time>2011-04-02T10:24:05Z</time>
      </trkpt>
      <trkpt lat="46.237416" lon="14.096348">
        <ele>1494.4918267584</ele>
        <time>2011-04-02T10:24:21Z</time>
      </trkpt>
      <trkpt lat="46.237411" lon="14.096354">
        <ele>1494.4918267584</ele>
        <time>2011-04-02T10:24:52Z</time>
      </trkpt>
      <trkpt lat="46.237411" lon="14.096354">
        <ele>1494.0118325952</ele>
        <time>2011-04-02T10:25:21Z</time>
      </trkpt>
      <trkpt lat="46.237411" lon="14.096359">
        <ele>1494.4918267584</ele>
        <time>2011-04-02T10:25:55Z</time>
      </trkpt>
      <trkpt lat="46.237412" lon="14.096358">
        <ele>1494.4918267584</ele>
        <time>2011-04-02T10:26:25Z</time>
      </trkpt>
      <trkpt lat="46.237417" lon="14.096306">
        <ele>1495.931809248</ele>
        <time>2011-04-02T10:26:37Z</time>
      </trkpt>
      <trkpt lat="46.237423" lon="14.096265">
        <ele>1498.331780064</ele>
        <time>2011-04-02T10:26:52Z</time>
      </trkpt>
      <trkpt lat="46.237411" lon="14.096181">
        <ele>1499.2917683904</ele>
        <time>2011-04-02T10:27:08Z</time>
      </trkpt>
      <trkpt lat="46.237382" lon="14.096125">
        <ele>1501.2217449216</ele>
        <time>2011-04-02T10:27:22Z</time>
      </trkpt>
      <trkpt lat="46.237395" lon="14.096130">
        <ele>1501.7017390848</ele>
        <time>2011-04-02T10:27:31Z</time>
      </trkpt>
      <trkpt lat="46.237446" lon="14.096046">
        <ele>1504.1017099008</ele>
        <time>2011-04-02T10:27:45Z</time>
      </trkpt>
      <trkpt lat="46.237470" lon="14.096045">
        <ele>1506.0216865536</ele>
        <time>2011-04-02T10:27:59Z</time>
      </trkpt>
      <trkpt lat="46.237479" lon="14.096035">
        <ele>1506.98167488</ele>
        <time>2011-04-02T10:28:17Z</time>
      </trkpt>
      <trkpt lat="46.237479" lon="14.096035">
        <ele>1507.4616690432</ele>
        <time>2011-04-02T10:28:25Z</time>
      </trkpt>
      <trkpt lat="46.237506" lon="14.096031">
        <ele>1509.8716397376</ele>
        <time>2011-04-02T10:28:37Z</time>
      </trkpt>
      <trkpt lat="46.237569" lon="14.095938">
        <ele>1508.431657248</ele>
        <time>2011-04-02T10:28:51Z</time>
      </trkpt>
      <trkpt lat="46.237581" lon="14.095908">
        <ele>1510.3516339008</ele>
        <time>2011-04-02T10:29:00Z</time>
      </trkpt>
      <trkpt lat="46.237614" lon="14.095819">
        <ele>1511.7916163904</ele>
        <time>2011-04-02T10:29:11Z</time>
      </trkpt>
      <trkpt lat="46.237614" lon="14.095819">
        <ele>1512.2716105536</ele>
        <time>2011-04-02T10:29:19Z</time>
      </trkpt>
      <trkpt lat="46.237624" lon="14.095774">
        <ele>1512.2716105536</ele>
        <time>2011-04-02T10:29:42Z</time>
      </trkpt>
      <trkpt lat="46.237599" lon="14.095709">
        <ele>1513.23159888</ele>
        <time>2011-04-02T10:29:54Z</time>
      </trkpt>
      <trkpt lat="46.237547" lon="14.095686">
        <ele>1516.6015579008</ele>
        <time>2011-04-02T10:30:08Z</time>
      </trkpt>
      <trkpt lat="46.237543" lon="14.095684">
        <ele>1516.6015579008</ele>
        <time>2011-04-02T10:30:09Z</time>
      </trkpt>
      <trkpt lat="46.237523" lon="14.095674">
        <ele>1519.0015287168</ele>
        <time>2011-04-02T10:30:24Z</time>
      </trkpt>
      <trkpt lat="46.237523" lon="14.095674">
        <ele>1519.0015287168</ele>
        <time>2011-04-02T10:30:52Z</time>
      </trkpt>
      <trkpt lat="46.237494" lon="14.095664">
        <ele>1519.48152288</ele>
        <time>2011-04-02T10:31:19Z</time>
      </trkpt>
      <trkpt lat="46.237407" lon="14.095638">
        <ele>1521.4014995328</ele>
        <time>2011-04-02T10:31:34Z</time>
      </trkpt>
      <trkpt lat="46.237395" lon="14.095628">
        <ele>1521.4014995328</ele>
        <time>2011-04-02T10:31:50Z</time>
      </trkpt>
      <trkpt lat="46.237374" lon="14.095600">
        <ele>1523.331476064</ele>
        <time>2011-04-02T10:32:02Z</time>
      </trkpt>
      <trkpt lat="46.237321" lon="14.095555">
        <ele>1524.7714585536</ele>
        <time>2011-04-02T10:32:16Z</time>
      </trkpt>
      <trkpt lat="46.237316" lon="14.095526">
        <ele>1525.2514527168</ele>
        <time>2011-04-02T10:32:28Z</time>
      </trkpt>
      <trkpt lat="46.237321" lon="14.095512">
        <ele>1526.6914352064</ele>
        <time>2011-04-02T10:32:32Z</time>
      </trkpt>
      <trkpt lat="46.237330" lon="14.095463">
        <ele>1528.6114118592</ele>
        <time>2011-04-02T10:32:43Z</time>
      </trkpt>
      <trkpt lat="46.237344" lon="14.095443">
        <ele>1531.5013767168</ele>
        <time>2011-04-02T10:32:59Z</time>
      </trkpt>
      <trkpt lat="46.237350" lon="14.095416">
        <ele>1531.5013767168</ele>
        <time>2011-04-02T10:33:15Z</time>
      </trkpt>
      <trkpt lat="46.237348" lon="14.095413">
        <ele>1531.5013767168</ele>
        <time>2011-04-02T10:33:48Z</time>
      </trkpt>
      <trkpt lat="46.237367" lon="14.095331">
        <ele>1532.9413592064</ele>
        <time>2011-04-02T10:33:59Z</time>
      </trkpt>
      <trkpt lat="46.237363" lon="14.095305">
        <ele>1533.4213533696</ele>
        <time>2011-04-02T10:34:01Z</time>
      </trkpt>
      <trkpt lat="46.237359" lon="14.095207">
        <ele>1536.3013183488</ele>
        <time>2011-04-02T10:34:13Z</time>
      </trkpt>
      <trkpt lat="46.237346" lon="14.095152">
        <ele>1538.7112890432</ele>
        <time>2011-04-02T10:34:28Z</time>
      </trkpt>
      <trkpt lat="46.237321" lon="14.095151">
        <ele>1539.6712773696</ele>
        <time>2011-04-02T10:34:39Z</time>
      </trkpt>
      <trkpt lat="46.237289" lon="14.095153">
        <ele>1541.1112598592</ele>
        <time>2011-04-02T10:34:51Z</time>
      </trkpt>
      <trkpt lat="46.237289" lon="14.095153">
        <ele>1541.5912540224</ele>
        <time>2011-04-02T10:35:14Z</time>
      </trkpt>
      <trkpt lat="46.237292" lon="14.095139">
        <ele>1541.5912540224</ele>
        <time>2011-04-02T10:35:36Z</time>
      </trkpt>
      <trkpt lat="46.237292" lon="14.095121">
        <ele>1542.5512423488</ele>
        <time>2011-04-02T10:35:49Z</time>
      </trkpt>
      <trkpt lat="46.237292" lon="14.095121">
        <ele>1542.0712481856</ele>
        <time>2011-04-02T10:36:12Z</time>
      </trkpt>
      <trkpt lat="46.237297" lon="14.095104">
        <ele>1543.9912248384</ele>
        <time>2011-04-02T10:36:43Z</time>
      </trkpt>
      <trkpt lat="46.237307" lon="14.095085">
        <ele>1543.9912248384</ele>
        <time>2011-04-02T10:36:58Z</time>
      </trkpt>
      <trkpt lat="46.237302" lon="14.095071">
        <ele>1544.48121888</ele>
        <time>2011-04-02T10:37:13Z</time>
      </trkpt>
      <trkpt lat="46.237302" lon="14.095071">
        <ele>1544.9612130432</ele>
        <time>2011-04-02T10:37:40Z</time>
      </trkpt>
      <trkpt lat="46.237286" lon="14.095047">
        <ele>1545.4412072064</ele>
        <time>2011-04-02T10:37:56Z</time>
      </trkpt>
      <trkpt lat="46.237280" lon="14.095050">
        <ele>1545.4412072064</ele>
        <time>2011-04-02T10:37:57Z</time>
      </trkpt>
      <trkpt lat="46.237250" lon="14.095094">
        <ele>1545.9212013696</ele>
        <time>2011-04-02T10:38:11Z</time>
      </trkpt>
      <trkpt lat="46.237250" lon="14.095105">
        <ele>1545.4412072064</ele>
        <time>2011-04-02T10:38:27Z</time>
      </trkpt>
      <trkpt lat="46.237249" lon="14.095108">
        <ele>1544.9612130432</ele>
        <time>2011-04-02T10:38:43Z</time>
      </trkpt>
      <trkpt lat="46.237249" lon="14.095108">
        <ele>1546.4011955328</ele>
        <time>2011-04-02T10:39:12Z</time>
      </trkpt>
      <trkpt lat="46.237249" lon="14.095085">
        <ele>1546.4011955328</ele>
        <time>2011-04-02T10:39:35Z</time>
      </trkpt>
      <trkpt lat="46.237217" lon="14.094996">
        <ele>1547.8411780224</ele>
        <time>2011-04-02T10:39:47Z</time>
      </trkpt>
      <trkpt lat="46.237162" lon="14.094938">
        <ele>1548.3211721856</ele>
        <time>2011-04-02T10:39:59Z</time>
      </trkpt>
      <trkpt lat="46.237163" lon="14.094936">
        <ele>1550.2411488384</ele>
        <time>2011-04-02T10:40:21Z</time>
      </trkpt>
      <trkpt lat="46.237161" lon="14.094902">
        <ele>1551.6911312064</ele>
        <time>2011-04-02T10:40:44Z</time>
      </trkpt>
      <trkpt lat="46.237157" lon="14.094881">
        <ele>1552.1711253696</ele>
        <time>2011-04-02T10:40:50Z</time>
      </trkpt>
      <trkpt lat="46.237155" lon="14.094847">
        <ele>1553.6111078592</ele>
        <time>2011-04-02T10:41:01Z</time>
      </trkpt>
      <trkpt lat="46.237104" lon="14.094820">
        <ele>1555.0510903488</ele>
        <time>2011-04-02T10:41:15Z</time>
      </trkpt>
      <trkpt lat="46.237088" lon="14.094810">
        <ele>1556.9710670016</ele>
        <time>2011-04-02T10:41:29Z</time>
      </trkpt>
      <trkpt lat="46.237048" lon="14.094807">
        <ele>1557.931055328</ele>
        <time>2011-04-02T10:41:47Z</time>
      </trkpt>
      <trkpt lat="46.236972" lon="14.094815">
        <ele>1560.8210201856</ele>
        <time>2011-04-02T10:42:03Z</time>
      </trkpt>
      <trkpt lat="46.236918" lon="14.094839">
        <ele>1561.781008512</ele>
        <time>2011-04-02T10:42:17Z</time>
      </trkpt>
      <trkpt lat="46.236873" lon="14.094860">
        <ele>1562.7409968384</ele>
        <time>2011-04-02T10:42:26Z</time>
      </trkpt>
      <trkpt lat="46.236846" lon="14.094892">
        <ele>1564.180979328</ele>
        <time>2011-04-02T10:42:41Z</time>
      </trkpt>
      <trkpt lat="46.236824" lon="14.094896">
        <ele>1564.6609734912</ele>
        <time>2011-04-02T10:42:53Z</time>
      </trkpt>
      <trkpt lat="46.236817" lon="14.094893">
        <ele>1565.6209618176</ele>
        <time>2011-04-02T10:42:57Z</time>
      </trkpt>
      <trkpt lat="46.236800" lon="14.094876">
        <ele>1567.0709441856</ele>
        <time>2011-04-02T10:43:04Z</time>
      </trkpt>
      <trkpt lat="46.236775" lon="14.094896">
        <ele>1568.9909208384</ele>
        <time>2011-04-02T10:43:15Z</time>
      </trkpt>
      <trkpt lat="46.236770" lon="14.094908">
        <ele>1568.5109266752</ele>
        <time>2011-04-02T10:43:23Z</time>
      </trkpt>
      <trkpt lat="46.236734" lon="14.094906">
        <ele>1569.9509091648</ele>
        <time>2011-04-02T10:43:35Z</time>
      </trkpt>
      <trkpt lat="46.236726" lon="14.094894">
        <ele>1572.830874144</ele>
        <time>2011-04-02T10:43:46Z</time>
      </trkpt>
      <trkpt lat="46.236726" lon="14.094894">
        <ele>1568.5109266752</ele>
        <time>2011-04-02T10:43:47Z</time>
      </trkpt>
      <trkpt lat="46.236726" lon="14.094894">
        <ele>1572.3508799808</ele>
        <time>2011-04-02T10:43:48Z</time>
      </trkpt>
      <trkpt lat="46.236726" lon="14.094894">
        <ele>1571.8708858176</ele>
        <time>2011-04-02T10:43:50Z</time>
      </trkpt>
      <trkpt lat="46.236726" lon="14.094894">
        <ele>1572.3508799808</ele>
        <time>2011-04-02T10:43:54Z</time>
      </trkpt>
      <trkpt lat="46.236723" lon="14.094889">
        <ele>1570.9108974912</ele>
        <time>2011-04-02T10:43:55Z</time>
      </trkpt>
      <trkpt lat="46.236730" lon="14.094829">
        <ele>1574.280856512</ele>
        <time>2011-04-02T10:44:06Z</time>
      </trkpt>
      <trkpt lat="46.236748" lon="14.094749">
        <ele>1575.2408448384</ele>
        <time>2011-04-02T10:44:20Z</time>
      </trkpt>
      <trkpt lat="46.236773" lon="14.094677">
        <ele>1576.2008331648</ele>
        <time>2011-04-02T10:44:33Z</time>
      </trkpt>
      <trkpt lat="46.236774" lon="14.094622">
        <ele>1579.080798144</ele>
        <time>2011-04-02T10:44:44Z</time>
      </trkpt>
      <trkpt lat="46.236788" lon="14.094543">
        <ele>1580.5207806336</ele>
        <time>2011-04-02T10:44:52Z</time>
      </trkpt>
      <trkpt lat="46.236805" lon="14.094406">
        <ele>1583.4107454912</ele>
        <time>2011-04-02T10:45:03Z</time>
      </trkpt>
      <trkpt lat="46.236826" lon="14.094312">
        <ele>1584.8507279808</ele>
        <time>2011-04-02T10:45:15Z</time>
      </trkpt>
      <trkpt lat="46.236823" lon="14.094271">
        <ele>1586.2907104704</ele>
        <time>2011-04-02T10:45:19Z</time>
      </trkpt>
      <trkpt lat="46.236797" lon="14.094246">
        <ele>1586.2907104704</ele>
        <time>2011-04-02T10:45:31Z</time>
      </trkpt>
      <trkpt lat="46.236797" lon="14.094246">
        <ele>1586.2907104704</ele>
        <time>2011-04-02T10:45:57Z</time>
      </trkpt>
      <trkpt lat="46.236797" lon="14.094246">
        <ele>1585.8107163072</ele>
        <time>2011-04-02T10:46:03Z</time>
      </trkpt>
      <trkpt lat="46.236789" lon="14.094244">
        <ele>1585.8107163072</ele>
        <time>2011-04-02T10:46:10Z</time>
      </trkpt>
      <trkpt lat="46.236789" lon="14.094244">
        <ele>1587.2506987968</ele>
        <time>2011-04-02T10:46:25Z</time>
      </trkpt>
      <trkpt lat="46.236789" lon="14.094244">
        <ele>1586.2907104704</ele>
        <time>2011-04-02T10:46:28Z</time>
      </trkpt>
      <trkpt lat="46.236789" lon="14.094244">
        <ele>1587.73069296</ele>
        <time>2011-04-02T10:46:33Z</time>
      </trkpt>
      <trkpt lat="46.236781" lon="14.094245">
        <ele>1586.2907104704</ele>
        <time>2011-04-02T10:46:36Z</time>
      </trkpt>
      <trkpt lat="46.236779" lon="14.094245">
        <ele>1588.2206870016</ele>
        <time>2011-04-02T10:46:37Z</time>
      </trkpt>
      <trkpt lat="46.236795" lon="14.094238">
        <ele>1587.2506987968</ele>
        <time>2011-04-02T10:46:52Z</time>
      </trkpt>
      <trkpt lat="46.236795" lon="14.094238">
        <ele>1587.2506987968</ele>
        <time>2011-04-02T10:47:10Z</time>
      </trkpt>
      <trkpt lat="46.236826" lon="14.094176">
        <ele>1587.73069296</ele>
        <time>2011-04-02T10:47:23Z</time>
      </trkpt>
      <trkpt lat="46.236828" lon="14.094153">
        <ele>1589.180675328</ele>
        <time>2011-04-02T10:47:41Z</time>
      </trkpt>
      <trkpt lat="46.236832" lon="14.094094">
        <ele>1589.180675328</ele>
        <time>2011-04-02T10:47:56Z</time>
      </trkpt>
      <trkpt lat="46.236829" lon="14.094070">
        <ele>1592.0606403072</ele>
        <time>2011-04-02T10:48:04Z</time>
      </trkpt>
      <trkpt lat="46.236831" lon="14.094012">
        <ele>1593.0206286336</ele>
        <time>2011-04-02T10:48:17Z</time>
      </trkpt>
      <trkpt lat="46.236831" lon="14.093956">
        <ele>1596.3905876544</ele>
        <time>2011-04-02T10:48:27Z</time>
      </trkpt>
      <trkpt lat="46.236834" lon="14.093907">
        <ele>1595.430599328</ele>
        <time>2011-04-02T10:48:43Z</time>
      </trkpt>
      <trkpt lat="46.236854" lon="14.093827">
        <ele>1597.830570144</ele>
        <time>2011-04-02T10:48:55Z</time>
      </trkpt>
      <trkpt lat="46.236855" lon="14.093817">
        <ele>1597.3505759808</ele>
        <time>2011-04-02T10:48:59Z</time>
      </trkpt>
      <trkpt lat="46.236874" lon="14.093752">
        <ele>1599.7505467968</ele>
        <time>2011-04-02T10:49:11Z</time>
      </trkpt>
      <trkpt lat="46.236866" lon="14.093686">
        <ele>1601.6705234496</ele>
        <time>2011-04-02T10:49:19Z</time>
      </trkpt>
      <trkpt lat="46.236879" lon="14.093659">
        <ele>1601.6705234496</ele>
        <time>2011-04-02T10:49:31Z</time>
      </trkpt>
      <trkpt lat="46.236883" lon="14.093657">
        <ele>1602.1505176128</ele>
        <time>2011-04-02T10:49:53Z</time>
      </trkpt>
      <trkpt lat="46.236890" lon="14.093626">
        <ele>1602.6405116544</ele>
        <time>2011-04-02T10:50:15Z</time>
      </trkpt>
      <trkpt lat="46.236887" lon="14.093601">
        <ele>1603.6004999808</ele>
        <time>2011-04-02T10:50:20Z</time>
      </trkpt>
      <trkpt lat="46.236885" lon="14.093496">
        <ele>1604.080494144</ele>
        <time>2011-04-02T10:50:33Z</time>
      </trkpt>
      <trkpt lat="46.236858" lon="14.093421">
        <ele>1606.48046496</ele>
        <time>2011-04-02T10:50:48Z</time>
      </trkpt>
      <trkpt lat="46.236871" lon="14.093354">
        <ele>1608.880435776</ele>
        <time>2011-04-02T10:51:00Z</time>
      </trkpt>
      <trkpt lat="46.236817" lon="14.093305">
        <ele>1609.3604299392</ele>
        <time>2011-04-02T10:51:10Z</time>
      </trkpt>
      <trkpt lat="46.236800" lon="14.093292">
        <ele>1609.3604299392</ele>
        <time>2011-04-02T10:51:15Z</time>
      </trkpt>
      <trkpt lat="46.236768" lon="14.093209">
        <ele>1610.330418144</ele>
        <time>2011-04-02T10:51:26Z</time>
      </trkpt>
      <trkpt lat="46.236735" lon="14.093192">
        <ele>1611.2904064704</ele>
        <time>2011-04-02T10:51:45Z</time>
      </trkpt>
      <trkpt lat="46.236735" lon="14.093192">
        <ele>1610.8104123072</ele>
        <time>2011-04-02T10:51:45Z</time>
      </trkpt>
      <trkpt lat="46.236665" lon="14.093156">
        <ele>1609.8404241024</ele>
        <time>2011-04-02T10:51:57Z</time>
      </trkpt>
      <trkpt lat="46.236665" lon="14.093156">
        <ele>1610.330418144</ele>
        <time>2011-04-02T10:52:21Z</time>
      </trkpt>
      <trkpt lat="46.236665" lon="14.093156">
        <ele>1610.8104123072</ele>
        <time>2011-04-02T10:52:47Z</time>
      </trkpt>
      <trkpt lat="46.236692" lon="14.093153">
        <ele>1612.2503947968</ele>
        <time>2011-04-02T10:53:02Z</time>
      </trkpt>
      <trkpt lat="46.236730" lon="14.093116">
        <ele>1613.2103831232</ele>
        <time>2011-04-02T10:53:22Z</time>
      </trkpt>
      <trkpt lat="46.236762" lon="14.093067">
        <ele>1612.73038896</ele>
        <time>2011-04-02T10:53:36Z</time>
      </trkpt>
      <trkpt lat="46.236774" lon="14.093062">
        <ele>1612.73038896</ele>
        <time>2011-04-02T10:53:52Z</time>
      </trkpt>
      <trkpt lat="46.236770" lon="14.093056">
        <ele>1613.2103831232</ele>
        <time>2011-04-02T10:54:08Z</time>
      </trkpt>
      <trkpt lat="46.236773" lon="14.093051">
        <ele>1613.2103831232</ele>
        <time>2011-04-02T10:54:22Z</time>
      </trkpt>
      <trkpt lat="46.236778" lon="14.093017">
        <ele>1614.1703714496</ele>
        <time>2011-04-02T10:54:23Z</time>
      </trkpt>
      <trkpt lat="46.236788" lon="14.092979">
        <ele>1615.6103539392</ele>
        <time>2011-04-02T10:54:27Z</time>
      </trkpt>
      <trkpt lat="46.236789" lon="14.092895">
        <ele>1615.6103539392</ele>
        <time>2011-04-02T10:54:32Z</time>
      </trkpt>
      <trkpt lat="46.236789" lon="14.092835">
        <ele>1615.6103539392</ele>
        <time>2011-04-02T10:54:38Z</time>
      </trkpt>
      <trkpt lat="46.236779" lon="14.092776">
        <ele>1616.0903481024</ele>
        <time>2011-04-02T10:54:43Z</time>
      </trkpt>
      <trkpt lat="46.236794" lon="14.092695">
        <ele>1616.5703422656</ele>
        <time>2011-04-02T10:54:54Z</time>
      </trkpt>
      <trkpt lat="46.236792" lon="14.092683">
        <ele>1616.5703422656</ele>
        <time>2011-04-02T10:54:55Z</time>
      </trkpt>
      <trkpt lat="46.236791" lon="14.092664">
        <ele>1615.6103539392</ele>
        <time>2011-04-02T10:55:10Z</time>
      </trkpt>
      <trkpt lat="46.236803" lon="14.092550">
        <ele>1616.5703422656</ele>
        <time>2011-04-02T10:55:22Z</time>
      </trkpt>
      <trkpt lat="46.236806" lon="14.092504">
        <ele>1618.5003187968</ele>
        <time>2011-04-02T10:55:39Z</time>
      </trkpt>
      <trkpt lat="46.236775" lon="14.092397">
        <ele>1618.0203246336</ele>
        <time>2011-04-02T10:55:52Z</time>
      </trkpt>
      <trkpt lat="46.236773" lon="14.092386">
        <ele>1618.0203246336</ele>
        <time>2011-04-02T10:55:52Z</time>
      </trkpt>
      <trkpt lat="46.236763" lon="14.092324">
        <ele>1620.4202954496</ele>
        <time>2011-04-02T10:56:04Z</time>
      </trkpt>
      <trkpt lat="46.236770" lon="14.092246">
        <ele>1621.8602779392</ele>
        <time>2011-04-02T10:56:15Z</time>
      </trkpt>
      <trkpt lat="46.236770" lon="14.092184">
        <ele>1622.8202662656</ele>
        <time>2011-04-02T10:56:27Z</time>
      </trkpt>
      <trkpt lat="46.236779" lon="14.092069">
        <ele>1624.2602487552</ele>
        <time>2011-04-02T10:56:41Z</time>
      </trkpt>
      <trkpt lat="46.236779" lon="14.092008">
        <ele>1623.3002604288</ele>
        <time>2011-04-02T10:56:51Z</time>
      </trkpt>
      <trkpt lat="46.236791" lon="14.091973">
        <ele>1624.7502427968</ele>
        <time>2011-04-02T10:56:54Z</time>
      </trkpt>
      <trkpt lat="46.236789" lon="14.091918">
        <ele>1625.7102311232</ele>
        <time>2011-04-02T10:57:08Z</time>
      </trkpt>
      <trkpt lat="46.236779" lon="14.091834">
        <ele>1627.1502136128</ele>
        <time>2011-04-02T10:57:23Z</time>
      </trkpt>
      <trkpt lat="46.236786" lon="14.091792">
        <ele>1628.1102019392</ele>
        <time>2011-04-02T10:57:27Z</time>
      </trkpt>
      <trkpt lat="46.236773" lon="14.091655">
        <ele>1629.0701902656</ele>
        <time>2011-04-02T10:57:39Z</time>
      </trkpt>
      <trkpt lat="46.236799" lon="14.091554">
        <ele>1630.030178592</ele>
        <time>2011-04-02T10:57:51Z</time>
      </trkpt>
      <trkpt lat="46.236829" lon="14.091451">
        <ele>1631.4701610816</ele>
        <time>2011-04-02T10:58:03Z</time>
      </trkpt>
      <trkpt lat="46.236843" lon="14.091413">
        <ele>1632.4401492864</ele>
        <time>2011-04-02T10:58:07Z</time>
      </trkpt>
      <trkpt lat="46.236844" lon="14.091365">
        <ele>1631.9601551232</ele>
        <time>2011-04-02T10:58:11Z</time>
      </trkpt>
      <trkpt lat="46.236822" lon="14.091341">
        <ele>1633.4001376128</ele>
        <time>2011-04-02T10:58:23Z</time>
      </trkpt>
      <trkpt lat="46.236817" lon="14.091268">
        <ele>1634.8401201024</ele>
        <time>2011-04-02T10:58:35Z</time>
      </trkpt>
      <trkpt lat="46.236816" lon="14.091154">
        <ele>1635.3201142656</ele>
        <time>2011-04-02T10:58:49Z</time>
      </trkpt>
      <trkpt lat="46.236809" lon="14.091109">
        <ele>1635.8001084288</ele>
        <time>2011-04-02T10:58:57Z</time>
      </trkpt>
      <trkpt lat="46.236809" lon="14.091031">
        <ele>1637.2400909184</ele>
        <time>2011-04-02T10:59:09Z</time>
      </trkpt>
      <trkpt lat="46.236807" lon="14.091008">
        <ele>1637.2400909184</ele>
        <time>2011-04-02T10:59:25Z</time>
      </trkpt>
      <trkpt lat="46.236807" lon="14.091008">
        <ele>1637.7200850816</ele>
        <time>2011-04-02T10:59:47Z</time>
      </trkpt>
      <trkpt lat="46.236792" lon="14.090990">
        <ele>1638.680073408</ele>
        <time>2011-04-02T11:00:00Z</time>
      </trkpt>
      <trkpt lat="46.236760" lon="14.090910">
        <ele>1639.6500616128</ele>
        <time>2011-04-02T11:00:13Z</time>
      </trkpt>
      <trkpt lat="46.236763" lon="14.090918">
        <ele>1640.130055776</ele>
        <time>2011-04-02T11:00:33Z</time>
      </trkpt>
      <trkpt lat="46.236801" lon="14.090937">
        <ele>1639.6500616128</ele>
        <time>2011-04-02T11:00:37Z</time>
      </trkpt>
      <trkpt lat="46.236881" lon="14.090988">
        <ele>1639.6500616128</ele>
        <time>2011-04-02T11:00:49Z</time>
      </trkpt>
      <trkpt lat="46.236860" lon="14.090997">
        <ele>1639.6500616128</ele>
        <time>2011-04-02T11:01:12Z</time>
      </trkpt>
      <trkpt lat="46.236855" lon="14.091014">
        <ele>1640.130055776</ele>
        <time>2011-04-02T11:01:31Z</time>
      </trkpt>
      <trkpt lat="46.236858" lon="14.090987">
        <ele>1640.6100499392</ele>
        <time>2011-04-02T11:01:42Z</time>
      </trkpt>
      <trkpt lat="46.236877" lon="14.090938">
        <ele>1641.0900441024</ele>
        <time>2011-04-02T11:01:47Z</time>
      </trkpt>
      <trkpt lat="46.236884" lon="14.090801">
        <ele>1641.0900441024</ele>
        <time>2011-04-02T11:01:58Z</time>
      </trkpt>
      <trkpt lat="46.236877" lon="14.090774">
        <ele>1640.6100499392</ele>
        <time>2011-04-02T11:02:01Z</time>
      </trkpt>
      <trkpt lat="46.236876" lon="14.090724">
        <ele>1641.5700382656</ele>
        <time>2011-04-02T11:02:06Z</time>
      </trkpt>
      <trkpt lat="46.236872" lon="14.090679">
        <ele>1641.0900441024</ele>
        <time>2011-04-02T11:02:10Z</time>
      </trkpt>
      <trkpt lat="46.236867" lon="14.090599">
        <ele>1640.6100499392</ele>
        <time>2011-04-02T11:02:14Z</time>
      </trkpt>
      <trkpt lat="46.236874" lon="14.090576">
        <ele>1641.0900441024</ele>
        <time>2011-04-02T11:02:17Z</time>
      </trkpt>
      <trkpt lat="46.236874" lon="14.090517">
        <ele>1640.130055776</ele>
        <time>2011-04-02T11:02:29Z</time>
      </trkpt>
      <trkpt lat="46.236874" lon="14.090517">
        <ele>1639.1700674496</ele>
        <time>2011-04-02T11:02:40Z</time>
      </trkpt>
      <trkpt lat="46.236875" lon="14.090478">
        <ele>1639.1700674496</ele>
        <time>2011-04-02T11:02:56Z</time>
      </trkpt>
      <trkpt lat="46.236875" lon="14.090470">
        <ele>1640.130055776</ele>
        <time>2011-04-02T11:02:59Z</time>
      </trkpt>
      <trkpt lat="46.236877" lon="14.090412">
        <ele>1638.680073408</ele>
        <time>2011-04-02T11:03:04Z</time>
      </trkpt>
      <trkpt lat="46.236880" lon="14.090371">
        <ele>1639.1700674496</ele>
        <time>2011-04-02T11:03:09Z</time>
      </trkpt>
      <trkpt lat="46.236904" lon="14.090343">
        <ele>1638.680073408</ele>
        <time>2011-04-02T11:03:12Z</time>
      </trkpt>
      <trkpt lat="46.236942" lon="14.090286">
        <ele>1637.7200850816</ele>
        <time>2011-04-02T11:03:19Z</time>
      </trkpt>
      <trkpt lat="46.236945" lon="14.090238">
        <ele>1638.2000792448</ele>
        <time>2011-04-02T11:03:23Z</time>
      </trkpt>
      <trkpt lat="46.236947" lon="14.090231">
        <ele>1638.680073408</ele>
        <time>2011-04-02T11:03:39Z</time>
      </trkpt>
      <trkpt lat="46.236947" lon="14.090231">
        <ele>1638.680073408</ele>
        <time>2011-04-02T11:04:02Z</time>
      </trkpt>
      <trkpt lat="46.236950" lon="14.090221">
        <ele>1637.7200850816</ele>
        <time>2011-04-02T11:04:10Z</time>
      </trkpt>
      <trkpt lat="46.236964" lon="14.090207">
        <ele>1638.2000792448</ele>
        <time>2011-04-02T11:04:13Z</time>
      </trkpt>
      <trkpt lat="46.236988" lon="14.090161">
        <ele>1637.7200850816</ele>
        <time>2011-04-02T11:04:18Z</time>
      </trkpt>
      <trkpt lat="46.236988" lon="14.090040">
        <ele>1636.280102592</ele>
        <time>2011-04-02T11:04:29Z</time>
      </trkpt>
      <trkpt lat="46.237004" lon="14.090008">
        <ele>1636.280102592</ele>
        <time>2011-04-02T11:04:36Z</time>
      </trkpt>
      <trkpt lat="46.237049" lon="14.089963">
        <ele>1634.8401201024</ele>
        <time>2011-04-02T11:04:45Z</time>
      </trkpt>
      <trkpt lat="46.237064" lon="14.089942">
        <ele>1634.3601259392</ele>
        <time>2011-04-02T11:04:48Z</time>
      </trkpt>
      <trkpt lat="46.237100" lon="14.089908">
        <ele>1635.3201142656</ele>
        <time>2011-04-02T11:04:55Z</time>
      </trkpt>
      <trkpt lat="46.237104" lon="14.089875">
        <ele>1634.8401201024</ele>
        <time>2011-04-02T11:05:00Z</time>
      </trkpt>
      <trkpt lat="46.237115" lon="14.089870">
        <ele>1633.880131776</ele>
        <time>2011-04-02T11:05:03Z</time>
      </trkpt>
      <trkpt lat="46.237135" lon="14.089828">
        <ele>1632.9201434496</ele>
        <time>2011-04-02T11:05:07Z</time>
      </trkpt>
      <trkpt lat="46.237187" lon="14.089743">
        <ele>1633.880131776</ele>
        <time>2011-04-02T11:05:15Z</time>
      </trkpt>
      <trkpt lat="46.237210" lon="14.089708">
        <ele>1632.4401492864</ele>
        <time>2011-04-02T11:05:23Z</time>
      </trkpt>
      <trkpt lat="46.237224" lon="14.089644">
        <ele>1632.4401492864</ele>
        <time>2011-04-02T11:05:34Z</time>
      </trkpt>
      <trkpt lat="46.237219" lon="14.089583">
        <ele>1631.4701610816</ele>
        <time>2011-04-02T11:05:45Z</time>
      </trkpt>
      <trkpt lat="46.237219" lon="14.089583">
        <ele>1632.4401492864</ele>
        <time>2011-04-02T11:05:46Z</time>
      </trkpt>
      <trkpt lat="46.237214" lon="14.089510">
        <ele>1631.9601551232</ele>
        <time>2011-04-02T11:06:01Z</time>
      </trkpt>
      <trkpt lat="46.237214" lon="14.089510">
        <ele>1632.9201434496</ele>
        <time>2011-04-02T11:06:27Z</time>
      </trkpt>
      <trkpt lat="46.237212" lon="14.089502">
        <ele>1631.9601551232</ele>
        <time>2011-04-02T11:06:28Z</time>
      </trkpt>
      <trkpt lat="46.237219" lon="14.089474">
        <ele>1631.4701610816</ele>
        <time>2011-04-02T11:06:29Z</time>
      </trkpt>
      <trkpt lat="46.237241" lon="14.089428">
        <ele>1630.030178592</ele>
        <time>2011-04-02T11:06:40Z</time>
      </trkpt>
      <trkpt lat="46.237254" lon="14.089379">
        <ele>1627.630207776</ele>
        <time>2011-04-02T11:06:54Z</time>
      </trkpt>
      <trkpt lat="46.237264" lon="14.089371">
        <ele>1629.0701902656</ele>
        <time>2011-04-02T11:06:58Z</time>
      </trkpt>
      <trkpt lat="46.237283" lon="14.089317">
        <ele>1626.6702194496</ele>
        <time>2011-04-02T11:07:11Z</time>
      </trkpt>
      <trkpt lat="46.237289" lon="14.089319">
        <ele>1623.780254592</ele>
        <time>2011-04-02T11:07:18Z</time>
      </trkpt>
      <trkpt lat="46.237289" lon="14.089319">
        <ele>1627.1502136128</ele>
        <time>2011-04-02T11:07:19Z</time>
      </trkpt>
      <trkpt lat="46.237289" lon="14.089319">
        <ele>1628.1102019392</ele>
        <time>2011-04-02T11:07:21Z</time>
      </trkpt>
      <trkpt lat="46.237289" lon="14.089319">
        <ele>1627.630207776</ele>
        <time>2011-04-02T11:07:30Z</time>
      </trkpt>
      <trkpt lat="46.237288" lon="14.089285">
        <ele>1627.1502136128</ele>
        <time>2011-04-02T11:07:42Z</time>
      </trkpt>
      <trkpt lat="46.237302" lon="14.089251">
        <ele>1624.7502427968</ele>
        <time>2011-04-02T11:07:46Z</time>
      </trkpt>
      <trkpt lat="46.237307" lon="14.089228">
        <ele>1625.7102311232</ele>
        <time>2011-04-02T11:07:48Z</time>
      </trkpt>
      <trkpt lat="46.237331" lon="14.089186">
        <ele>1623.3002604288</ele>
        <time>2011-04-02T11:07:58Z</time>
      </trkpt>
      <trkpt lat="46.237335" lon="14.089161">
        <ele>1624.2602487552</ele>
        <time>2011-04-02T11:08:01Z</time>
      </trkpt>
      <trkpt lat="46.237365" lon="14.089138">
        <ele>1622.8202662656</ele>
        <time>2011-04-02T11:08:04Z</time>
      </trkpt>
      <trkpt lat="46.237370" lon="14.089112">
        <ele>1623.3002604288</ele>
        <time>2011-04-02T11:08:05Z</time>
      </trkpt>
      <trkpt lat="46.237409" lon="14.089041">
        <ele>1622.8202662656</ele>
        <time>2011-04-02T11:08:16Z</time>
      </trkpt>
      <trkpt lat="46.237423" lon="14.089021">
        <ele>1622.3402721024</ele>
        <time>2011-04-02T11:08:17Z</time>
      </trkpt>
      <trkpt lat="46.237439" lon="14.088968">
        <ele>1619.9403012864</ele>
        <time>2011-04-02T11:08:23Z</time>
      </trkpt>
      <trkpt lat="46.237459" lon="14.088902">
        <ele>1619.4603071232</ele>
        <time>2011-04-02T11:08:28Z</time>
      </trkpt>
      <trkpt lat="46.237482" lon="14.088863">
        <ele>1620.9002896128</ele>
        <time>2011-04-02T11:08:35Z</time>
      </trkpt>
      <trkpt lat="46.237492" lon="14.088816">
        <ele>1621.380283776</ele>
        <time>2011-04-02T11:08:38Z</time>
      </trkpt>
      <trkpt lat="46.237494" lon="14.088752">
        <ele>1621.8602779392</ele>
        <time>2011-04-02T11:08:47Z</time>
      </trkpt>
      <trkpt lat="46.237504" lon="14.088664">
        <ele>1622.3402721024</ele>
        <time>2011-04-02T11:08:55Z</time>
      </trkpt>
      <trkpt lat="46.237517" lon="14.088626">
        <ele>1619.4603071232</ele>
        <time>2011-04-02T11:08:58Z</time>
      </trkpt>
      <trkpt lat="46.237519" lon="14.088595">
        <ele>1619.9403012864</ele>
        <time>2011-04-02T11:09:00Z</time>
      </trkpt>
      <trkpt lat="46.237537" lon="14.088543">
        <ele>1618.5003187968</ele>
        <time>2011-04-02T11:09:06Z</time>
      </trkpt>
      <trkpt lat="46.237538" lon="14.088535">
        <ele>1620.9002896128</ele>
        <time>2011-04-02T11:09:07Z</time>
      </trkpt>
      <trkpt lat="46.237550" lon="14.088517">
        <ele>1621.8602779392</ele>
        <time>2011-04-02T11:09:09Z</time>
      </trkpt>
      <trkpt lat="46.237552" lon="14.088494">
        <ele>1623.780254592</ele>
        <time>2011-04-02T11:09:13Z</time>
      </trkpt>
      <trkpt lat="46.237552" lon="14.088494">
        <ele>1619.9403012864</ele>
        <time>2011-04-02T11:09:14Z</time>
      </trkpt>
      <trkpt lat="46.237557" lon="14.088483">
        <ele>1619.9403012864</ele>
        <time>2011-04-02T11:09:14Z</time>
      </trkpt>
      <trkpt lat="46.237562" lon="14.088463">
        <ele>1623.3002604288</ele>
        <time>2011-04-02T11:09:17Z</time>
      </trkpt>
      <trkpt lat="46.237565" lon="14.088453">
        <ele>1619.4603071232</ele>
        <time>2011-04-02T11:09:18Z</time>
      </trkpt>
      <trkpt lat="46.237567" lon="14.088436">
        <ele>1622.8202662656</ele>
        <time>2011-04-02T11:09:19Z</time>
      </trkpt>
      <trkpt lat="46.237589" lon="14.088343">
        <ele>1622.8202662656</ele>
        <time>2011-04-02T11:09:29Z</time>
      </trkpt>
      <trkpt lat="46.237590" lon="14.088336">
        <ele>1621.380283776</ele>
        <time>2011-04-02T11:09:30Z</time>
      </trkpt>
      <trkpt lat="46.237590" lon="14.088329">
        <ele>1624.7502427968</ele>
        <time>2011-04-02T11:09:32Z</time>
      </trkpt>
      <trkpt lat="46.237593" lon="14.088317">
        <ele>1622.3402721024</ele>
        <time>2011-04-02T11:09:33Z</time>
      </trkpt>
      <trkpt lat="46.237602" lon="14.088250">
        <ele>1621.8602779392</ele>
        <time>2011-04-02T11:09:41Z</time>
      </trkpt>
      <trkpt lat="46.237602" lon="14.088246">
        <ele>1624.7502427968</ele>
        <time>2011-04-02T11:09:42Z</time>
      </trkpt>
      <trkpt lat="46.237619" lon="14.088217">
        <ele>1622.3402721024</ele>
        <time>2011-04-02T11:09:45Z</time>
      </trkpt>
      <trkpt lat="46.237608" lon="14.088164">
        <ele>1626.1902252864</ele>
        <time>2011-04-02T11:09:53Z</time>
      </trkpt>
      <trkpt lat="46.237608" lon="14.088164">
        <ele>1622.3402721024</ele>
        <time>2011-04-02T11:09:53Z</time>
      </trkpt>
      <trkpt lat="46.237608" lon="14.088164">
        <ele>1623.3002604288</ele>
        <time>2011-04-02T11:09:54Z</time>
      </trkpt>
      <trkpt lat="46.237598" lon="14.088133">
        <ele>1624.7502427968</ele>
        <time>2011-04-02T11:10:00Z</time>
      </trkpt>
      <trkpt lat="46.237592" lon="14.088056">
        <ele>1628.1102019392</ele>
        <time>2011-04-02T11:10:11Z</time>
      </trkpt>
      <trkpt lat="46.237591" lon="14.088049">
        <ele>1627.630207776</ele>
        <time>2011-04-02T11:10:12Z</time>
      </trkpt>
      <trkpt lat="46.237592" lon="14.088037">
        <ele>1624.7502427968</ele>
        <time>2011-04-02T11:10:13Z</time>
      </trkpt>
      <trkpt lat="46.237592" lon="14.088037">
        <ele>1628.5901961024</ele>
        <time>2011-04-02T11:10:16Z</time>
      </trkpt>
      <trkpt lat="46.237600" lon="14.088022">
        <ele>1625.23023696</ele>
        <time>2011-04-02T11:10:21Z</time>
      </trkpt>
      <trkpt lat="46.237607" lon="14.088011">
        <ele>1628.5901961024</ele>
        <time>2011-04-02T11:10:24Z</time>
      </trkpt>
      <trkpt lat="46.237624" lon="14.087961">
        <ele>1628.5901961024</ele>
        <time>2011-04-02T11:10:39Z</time>
      </trkpt>
      <trkpt lat="46.237623" lon="14.087894">
        <ele>1630.9901669184</ele>
        <time>2011-04-02T11:10:51Z</time>
      </trkpt>
      <trkpt lat="46.237622" lon="14.087873">
        <ele>1629.0701902656</ele>
        <time>2011-04-02T11:10:55Z</time>
      </trkpt>
      <trkpt lat="46.237633" lon="14.087840">
        <ele>1631.9601551232</ele>
        <time>2011-04-02T11:11:02Z</time>
      </trkpt>
      <trkpt lat="46.237634" lon="14.087828">
        <ele>1633.4001376128</ele>
        <time>2011-04-02T11:11:05Z</time>
      </trkpt>
      <trkpt lat="46.237634" lon="14.087828">
        <ele>1629.0701902656</ele>
        <time>2011-04-02T11:11:06Z</time>
      </trkpt>
      <trkpt lat="46.237634" lon="14.087828">
        <ele>1630.5101727552</ele>
        <time>2011-04-02T11:11:06Z</time>
      </trkpt>
      <trkpt lat="46.237634" lon="14.087818">
        <ele>1633.880131776</ele>
        <time>2011-04-02T11:11:20Z</time>
      </trkpt>
      <trkpt lat="46.237634" lon="14.087818">
        <ele>1632.9201434496</ele>
        <time>2011-04-02T11:11:21Z</time>
      </trkpt>
      <trkpt lat="46.237634" lon="14.087818">
        <ele>1629.5501844288</ele>
        <time>2011-04-02T11:11:47Z</time>
      </trkpt>
      <trkpt lat="46.237634" lon="14.087818">
        <ele>1634.8401201024</ele>
        <time>2011-04-02T11:11:48Z</time>
      </trkpt>
      <trkpt lat="46.237634" lon="14.087818">
        <ele>1632.4401492864</ele>
        <time>2011-04-02T11:11:49Z</time>
      </trkpt>
      <trkpt lat="46.237634" lon="14.087817">
        <ele>1630.030178592</ele>
        <time>2011-04-02T11:11:52Z</time>
      </trkpt>
      <trkpt lat="46.237634" lon="14.087817">
        <ele>1634.3601259392</ele>
        <time>2011-04-02T11:11:52Z</time>
      </trkpt>
      <trkpt lat="46.237643" lon="14.087795">
        <ele>1630.9901669184</ele>
        <time>2011-04-02T11:11:56Z</time>
      </trkpt>
      <trkpt lat="46.237643" lon="14.087795">
        <ele>1634.3601259392</ele>
        <time>2011-04-02T11:11:59Z</time>
      </trkpt>
      <trkpt lat="46.237653" lon="14.087764">
        <ele>1635.3201142656</ele>
        <time>2011-04-02T11:12:08Z</time>
      </trkpt>
      <trkpt lat="46.237653" lon="14.087764">
        <ele>1631.4701610816</ele>
        <time>2011-04-02T11:12:08Z</time>
      </trkpt>
      <trkpt lat="46.237655" lon="14.087756">
        <ele>1632.9201434496</ele>
        <time>2011-04-02T11:12:09Z</time>
      </trkpt>
      <trkpt lat="46.237657" lon="14.087746">
        <ele>1636.7600967552</ele>
        <time>2011-04-02T11:12:11Z</time>
      </trkpt>
      <trkpt lat="46.237657" lon="14.087746">
        <ele>1631.9601551232</ele>
        <time>2011-04-02T11:12:12Z</time>
      </trkpt>
      <trkpt lat="46.237655" lon="14.087733">
        <ele>1637.2400909184</ele>
        <time>2011-04-02T11:12:14Z</time>
      </trkpt>
      <trkpt lat="46.237652" lon="14.087723">
        <ele>1634.8401201024</ele>
        <time>2011-04-02T11:12:15Z</time>
      </trkpt>
      <trkpt lat="46.237643" lon="14.087703">
        <ele>1631.4701610816</ele>
        <time>2011-04-02T11:12:18Z</time>
      </trkpt>
      <trkpt lat="46.237643" lon="14.087703">
        <ele>1634.8401201024</ele>
        <time>2011-04-02T11:12:19Z</time>
      </trkpt>
      <trkpt lat="46.237651" lon="14.087670">
        <ele>1638.2000792448</ele>
        <time>2011-04-02T11:12:24Z</time>
      </trkpt>
      <trkpt lat="46.237649" lon="14.087657">
        <ele>1636.280102592</ele>
        <time>2011-04-02T11:12:26Z</time>
      </trkpt>
      <trkpt lat="46.237645" lon="14.087611">
        <ele>1639.1700674496</ele>
        <time>2011-04-02T11:12:31Z</time>
      </trkpt>
      <trkpt lat="46.237646" lon="14.087604">
        <ele>1634.3601259392</ele>
        <time>2011-04-02T11:12:32Z</time>
      </trkpt>
      <trkpt lat="46.237646" lon="14.087600">
        <ele>1636.280102592</ele>
        <time>2011-04-02T11:12:34Z</time>
      </trkpt>
      <trkpt lat="46.237646" lon="14.087600">
        <ele>1640.130055776</ele>
        <time>2011-04-02T11:12:35Z</time>
      </trkpt>
      <trkpt lat="46.237646" lon="14.087600">
        <ele>1637.7200850816</ele>
        <time>2011-04-02T11:12:35Z</time>
      </trkpt>
      <trkpt lat="46.237646" lon="14.087600">
        <ele>1639.6500616128</ele>
        <time>2011-04-02T11:12:45Z</time>
      </trkpt>
      <trkpt lat="46.237646" lon="14.087592">
        <ele>1634.8401201024</ele>
        <time>2011-04-02T11:12:46Z</time>
      </trkpt>
      <trkpt lat="46.237646" lon="14.087585">
        <ele>1635.3201142656</ele>
        <time>2011-04-02T11:12:46Z</time>
      </trkpt>
      <trkpt lat="46.237646" lon="14.087577">
        <ele>1641.0900441024</ele>
        <time>2011-04-02T11:12:49Z</time>
      </trkpt>
      <trkpt lat="46.237646" lon="14.087577">
        <ele>1639.1700674496</ele>
        <time>2011-04-02T11:12:50Z</time>
      </trkpt>
      <trkpt lat="46.237646" lon="14.087577">
        <ele>1635.3201142656</ele>
        <time>2011-04-02T11:12:50Z</time>
      </trkpt>
      <trkpt lat="46.237646" lon="14.087577">
        <ele>1637.7200850816</ele>
        <time>2011-04-02T11:12:51Z</time>
      </trkpt>
      <trkpt lat="46.237646" lon="14.087577">
        <ele>1640.6100499392</ele>
        <time>2011-04-02T11:12:53Z</time>
      </trkpt>
      <trkpt lat="46.237646" lon="14.087577">
        <ele>1639.1700674496</ele>
        <time>2011-04-02T11:12:54Z</time>
      </trkpt>
      <trkpt lat="46.237646" lon="14.087577">
        <ele>1635.8001084288</ele>
        <time>2011-04-02T11:12:54Z</time>
      </trkpt>
      <trkpt lat="46.237646" lon="14.087577">
        <ele>1637.2400909184</ele>
        <time>2011-04-02T11:12:55Z</time>
      </trkpt>
      <trkpt lat="46.237646" lon="14.087577">
        <ele>1640.6100499392</ele>
        <time>2011-04-02T11:12:57Z</time>
      </trkpt>
      <trkpt lat="46.237646" lon="14.087577">
        <ele>1636.280102592</ele>
        <time>2011-04-02T11:12:58Z</time>
      </trkpt>
      <trkpt lat="46.237646" lon="14.087577">
        <ele>1641.0900441024</ele>
        <time>2011-04-02T11:12:59Z</time>
      </trkpt>
      <trkpt lat="46.237646" lon="14.087577">
        <ele>1639.6500616128</ele>
        <time>2011-04-02T11:13:01Z</time>
      </trkpt>
      <trkpt lat="46.237651" lon="14.087501">
        <ele>1642.530026592</ele>
        <time>2011-04-02T11:13:10Z</time>
      </trkpt>
      <trkpt lat="46.237652" lon="14.087493">
        <ele>1641.5700382656</ele>
        <time>2011-04-02T11:13:12Z</time>
      </trkpt>
      <trkpt lat="46.237666" lon="14.087468">
        <ele>1644.4500032448</ele>
        <time>2011-04-02T11:13:16Z</time>
      </trkpt>
      <trkpt lat="46.237667" lon="14.087467">
        <ele>1639.1700674496</ele>
        <time>2011-04-02T11:13:17Z</time>
      </trkpt>
      <trkpt lat="46.237667" lon="14.087467">
        <ele>1640.130055776</ele>
        <time>2011-04-02T11:13:17Z</time>
      </trkpt>
      <trkpt lat="46.237667" lon="14.087467">
        <ele>1642.0500324288</ele>
        <time>2011-04-02T11:13:20Z</time>
      </trkpt>
      <trkpt lat="46.237667" lon="14.087467">
        <ele>1638.2000792448</ele>
        <time>2011-04-02T11:13:24Z</time>
      </trkpt>
      <trkpt lat="46.237667" lon="14.087467">
        <ele>1642.0500324288</ele>
        <time>2011-04-02T11:13:25Z</time>
      </trkpt>
      <trkpt lat="46.237666" lon="14.087468">
        <ele>1641.5700382656</ele>
        <time>2011-04-02T11:13:30Z</time>
      </trkpt>
      <trkpt lat="46.237666" lon="14.087468">
        <ele>1641.0900441024</ele>
        <time>2011-04-02T11:13:32Z</time>
      </trkpt>
      <trkpt lat="46.237648" lon="14.087434">
        <ele>1644.929997408</ele>
        <time>2011-04-02T11:13:37Z</time>
      </trkpt>
      <trkpt lat="46.237641" lon="14.087433">
        <ele>1642.0500324288</ele>
        <time>2011-04-02T11:13:39Z</time>
      </trkpt>
      <trkpt lat="46.237613" lon="14.087416">
        <ele>1644.929997408</ele>
        <time>2011-04-02T11:13:45Z</time>
      </trkpt>
      <trkpt lat="46.237604" lon="14.087415">
        <ele>1643.0100207552</ele>
        <time>2011-04-02T11:13:48Z</time>
      </trkpt>
      <trkpt lat="46.237572" lon="14.087407">
        <ele>1645.8899857344</ele>
        <time>2011-04-02T11:14:02Z</time>
      </trkpt>
      <trkpt lat="46.237572" lon="14.087407">
        <ele>1643.0100207552</ele>
        <time>2011-04-02T11:14:03Z</time>
      </trkpt>
      <trkpt lat="46.237572" lon="14.087407">
        <ele>1641.5700382656</ele>
        <time>2011-04-02T11:14:08Z</time>
      </trkpt>
      <trkpt lat="46.237572" lon="14.087407">
        <ele>1645.8899857344</ele>
        <time>2011-04-02T11:14:11Z</time>
      </trkpt>
      <trkpt lat="46.237566" lon="14.087401">
        <ele>1644.4500032448</ele>
        <time>2011-04-02T11:14:11Z</time>
      </trkpt>
      <trkpt lat="46.237545" lon="14.087396">
        <ele>1643.4900149184</ele>
        <time>2011-04-02T11:14:15Z</time>
      </trkpt>
      <trkpt lat="46.237545" lon="14.087396">
        <ele>1646.379979776</ele>
        <time>2011-04-02T11:14:19Z</time>
      </trkpt>
      <trkpt lat="46.237493" lon="14.087388">
        <ele>1646.8599739392</ele>
        <time>2011-04-02T11:14:30Z</time>
      </trkpt>
      <trkpt lat="46.237422" lon="14.087405">
        <ele>1644.929997408</ele>
        <time>2011-04-02T11:14:42Z</time>
      </trkpt>
      <trkpt lat="46.237387" lon="14.087406">
        <ele>1648.2999564288</ele>
        <time>2011-04-02T11:14:47Z</time>
      </trkpt>
      <trkpt lat="46.237397" lon="14.087386">
        <ele>1649.2599447552</ele>
        <time>2011-04-02T11:14:54Z</time>
      </trkpt>
      <trkpt lat="46.237401" lon="14.087372">
        <ele>1647.3399681024</ele>
        <time>2011-04-02T11:14:56Z</time>
      </trkpt>
      <trkpt lat="46.237395" lon="14.087368">
        <ele>1648.2999564288</ele>
        <time>2011-04-02T11:14:58Z</time>
      </trkpt>
      <trkpt lat="46.237392" lon="14.087363">
        <ele>1651.6599155712</ele>
        <time>2011-04-02T11:15:00Z</time>
      </trkpt>
      <trkpt lat="46.237392" lon="14.087363">
        <ele>1649.2599447552</ele>
        <time>2011-04-02T11:15:01Z</time>
      </trkpt>
      <trkpt lat="46.237372" lon="14.087346">
        <ele>1652.6199038976</ele>
        <time>2011-04-02T11:15:05Z</time>
      </trkpt>
      <trkpt lat="46.237364" lon="14.087338">
        <ele>1652.1399097344</ele>
        <time>2011-04-02T11:15:06Z</time>
      </trkpt>
      <trkpt lat="46.237354" lon="14.087331">
        <ele>1651.6599155712</ele>
        <time>2011-04-02T11:15:08Z</time>
      </trkpt>
      <trkpt lat="46.237313" lon="14.087301">
        <ele>1650.6999272448</ele>
        <time>2011-04-02T11:15:12Z</time>
      </trkpt>
      <trkpt lat="46.237312" lon="14.087273">
        <ele>1654.0698862656</ele>
        <time>2011-04-02T11:15:16Z</time>
      </trkpt>
      <trkpt lat="46.237309" lon="14.087269">
        <ele>1650.6999272448</ele>
        <time>2011-04-02T11:15:17Z</time>
      </trkpt>
      <trkpt lat="46.237308" lon="14.087266">
        <ele>1654.5498804288</ele>
        <time>2011-04-02T11:15:20Z</time>
      </trkpt>
      <trkpt lat="46.237308" lon="14.087266">
        <ele>1650.2199330816</ele>
        <time>2011-04-02T11:15:21Z</time>
      </trkpt>
      <trkpt lat="46.237308" lon="14.087266">
        <ele>1653.579892224</ele>
        <time>2011-04-02T11:15:25Z</time>
      </trkpt>
      <trkpt lat="46.237308" lon="14.087266">
        <ele>1654.5498804288</ele>
        <time>2011-04-02T11:15:44Z</time>
      </trkpt>
      <trkpt lat="46.237308" lon="14.087266">
        <ele>1650.2199330816</ele>
        <time>2011-04-02T11:15:52Z</time>
      </trkpt>
      <trkpt lat="46.237308" lon="14.087266">
        <ele>1653.0998980608</ele>
        <time>2011-04-02T11:15:52Z</time>
      </trkpt>
      <trkpt lat="46.237370" lon="14.087242">
        <ele>1654.0698862656</ele>
        <time>2011-04-02T11:16:11Z</time>
      </trkpt>
      <trkpt lat="46.237406" lon="14.087194">
        <ele>1654.5498804288</ele>
        <time>2011-04-02T11:16:23Z</time>
      </trkpt>
      <trkpt lat="46.237407" lon="14.087144">
        <ele>1656.4698570816</ele>
        <time>2011-04-02T11:16:31Z</time>
      </trkpt>
      <trkpt lat="46.237411" lon="14.087117">
        <ele>1654.5498804288</ele>
        <time>2011-04-02T11:16:34Z</time>
      </trkpt>
      <trkpt lat="46.237413" lon="14.087088">
        <ele>1656.9498512448</ele>
        <time>2011-04-02T11:16:37Z</time>
      </trkpt>
      <trkpt lat="46.237421" lon="14.087059">
        <ele>1653.579892224</ele>
        <time>2011-04-02T11:16:39Z</time>
      </trkpt>
      <trkpt lat="46.237422" lon="14.087055">
        <ele>1658.3898337344</ele>
        <time>2011-04-02T11:16:42Z</time>
      </trkpt>
      <trkpt lat="46.237422" lon="14.087055">
        <ele>1654.0698862656</ele>
        <time>2011-04-02T11:16:46Z</time>
      </trkpt>
      <trkpt lat="46.237422" lon="14.087055">
        <ele>1657.429845408</ele>
        <time>2011-04-02T11:16:46Z</time>
      </trkpt>
      <trkpt lat="46.237422" lon="14.087055">
        <ele>1660.7898045504</ele>
        <time>2011-04-02T11:16:49Z</time>
      </trkpt>
      <trkpt lat="46.237422" lon="14.087055">
        <ele>1655.5098687552</ele>
        <time>2011-04-02T11:16:49Z</time>
      </trkpt>
      <trkpt lat="46.237422" lon="14.087055">
        <ele>1655.5098687552</ele>
        <time>2011-04-02T11:16:50Z</time>
      </trkpt>
      <trkpt lat="46.237422" lon="14.087055">
        <ele>1658.8698278976</ele>
        <time>2011-04-02T11:16:52Z</time>
      </trkpt>
      <trkpt lat="46.237422" lon="14.087055">
        <ele>1657.429845408</ele>
        <time>2011-04-02T11:16:53Z</time>
      </trkpt>
      <trkpt lat="46.237422" lon="14.087055">
        <ele>1654.5498804288</ele>
        <time>2011-04-02T11:16:56Z</time>
      </trkpt>
      <trkpt lat="46.237422" lon="14.087055">
        <ele>1656.4698570816</ele>
        <time>2011-04-02T11:16:57Z</time>
      </trkpt>
      <trkpt lat="46.237422" lon="14.087055">
        <ele>1659.829816224</ele>
        <time>2011-04-02T11:16:57Z</time>
      </trkpt>
      <trkpt lat="46.237424" lon="14.087051">
        <ele>1658.3898337344</ele>
        <time>2011-04-02T11:16:58Z</time>
      </trkpt>
      <trkpt lat="46.237427" lon="14.087042">
        <ele>1655.9898629184</ele>
        <time>2011-04-02T11:17:00Z</time>
      </trkpt>
      <trkpt lat="46.237438" lon="14.087025">
        <ele>1655.9898629184</ele>
        <time>2011-04-02T11:17:01Z</time>
      </trkpt>
      <trkpt lat="46.237439" lon="14.087020">
        <ele>1659.829816224</ele>
        <time>2011-04-02T11:17:02Z</time>
      </trkpt>
      <trkpt lat="46.237445" lon="14.087002">
        <ele>1655.5098687552</ele>
        <time>2011-04-02T11:17:05Z</time>
      </trkpt>
      <trkpt lat="46.237444" lon="14.086997">
        <ele>1659.3498220608</ele>
        <time>2011-04-02T11:17:09Z</time>
      </trkpt>
      <trkpt lat="46.237463" lon="14.086939">
        <ele>1655.9898629184</ele>
        <time>2011-04-02T11:17:17Z</time>
      </trkpt>
      <trkpt lat="46.237460" lon="14.086905">
        <ele>1659.829816224</ele>
        <time>2011-04-02T11:17:20Z</time>
      </trkpt>
      <trkpt lat="46.237479" lon="14.086862">
        <ele>1659.3498220608</ele>
        <time>2011-04-02T11:17:32Z</time>
      </trkpt>
      <trkpt lat="46.237479" lon="14.086862">
        <ele>1662.7197810816</ele>
        <time>2011-04-02T11:17:32Z</time>
      </trkpt>
      <trkpt lat="46.237479" lon="14.086862">
        <ele>1659.3498220608</ele>
        <time>2011-04-02T11:17:36Z</time>
      </trkpt>
      <trkpt lat="46.237479" lon="14.086862">
        <ele>1663.679769408</ele>
        <time>2011-04-02T11:17:36Z</time>
      </trkpt>
      <trkpt lat="46.237479" lon="14.086862">
        <ele>1660.7898045504</ele>
        <time>2011-04-02T11:17:38Z</time>
      </trkpt>
      <trkpt lat="46.237487" lon="14.086836">
        <ele>1659.829816224</ele>
        <time>2011-04-02T11:17:40Z</time>
      </trkpt>
      <trkpt lat="46.237491" lon="14.086828">
        <ele>1663.679769408</ele>
        <time>2011-04-02T11:17:40Z</time>
      </trkpt>
      <trkpt lat="46.237493" lon="14.086824">
        <ele>1659.829816224</ele>
        <time>2011-04-02T11:17:42Z</time>
      </trkpt>
      <trkpt lat="46.237497" lon="14.086817">
        <ele>1663.1997752448</ele>
        <time>2011-04-02T11:17:43Z</time>
      </trkpt>
      <trkpt lat="46.237504" lon="14.086807">
        <ele>1659.829816224</ele>
        <time>2011-04-02T11:17:47Z</time>
      </trkpt>
      <trkpt lat="46.237504" lon="14.086807">
        <ele>1659.829816224</ele>
        <time>2011-04-02T11:17:47Z</time>
      </trkpt>
      <trkpt lat="46.237504" lon="14.086807">
        <ele>1664.1597635712</ele>
        <time>2011-04-02T11:17:48Z</time>
      </trkpt>
      <trkpt lat="46.237504" lon="14.086807">
        <ele>1661.279798592</ele>
        <time>2011-04-02T11:17:50Z</time>
      </trkpt>
      <trkpt lat="46.237504" lon="14.086807">
        <ele>1664.6397577344</ele>
        <time>2011-04-02T11:17:51Z</time>
      </trkpt>
      <trkpt lat="46.237504" lon="14.086807">
        <ele>1661.279798592</ele>
        <time>2011-04-02T11:17:55Z</time>
      </trkpt>
      <trkpt lat="46.237506" lon="14.086799">
        <ele>1665.1197518976</ele>
        <time>2011-04-02T11:18:03Z</time>
      </trkpt>
      <trkpt lat="46.237506" lon="14.086799">
        <ele>1664.1597635712</ele>
        <time>2011-04-02T11:18:03Z</time>
      </trkpt>
      <trkpt lat="46.237522" lon="14.086754">
        <ele>1664.6397577344</ele>
        <time>2011-04-02T11:18:11Z</time>
      </trkpt>
      <trkpt lat="46.237507" lon="14.086724">
        <ele>1659.829816224</ele>
        <time>2011-04-02T11:18:14Z</time>
      </trkpt>
      <trkpt lat="46.237507" lon="14.086724">
        <ele>1662.2397869184</ele>
        <time>2011-04-02T11:18:15Z</time>
      </trkpt>
      <trkpt lat="46.237493" lon="14.086656">
        <ele>1660.3098103872</ele>
        <time>2011-04-02T11:18:27Z</time>
      </trkpt>
      <trkpt lat="46.237489" lon="14.086649">
        <ele>1663.1997752448</ele>
        <time>2011-04-02T11:18:29Z</time>
      </trkpt>
      <trkpt lat="46.237481" lon="14.086637">
        <ele>1664.6397577344</ele>
        <time>2011-04-02T11:18:45Z</time>
      </trkpt>
      <trkpt lat="46.237481" lon="14.086637">
        <ele>1661.7597927552</ele>
        <time>2011-04-02T11:18:49Z</time>
      </trkpt>
      <trkpt lat="46.237481" lon="14.086637">
        <ele>1665.5997460608</ele>
        <time>2011-04-02T11:18:50Z</time>
      </trkpt>
      <trkpt lat="46.237481" lon="14.086637">
        <ele>1660.3098103872</ele>
        <time>2011-04-02T11:18:52Z</time>
      </trkpt>
      <trkpt lat="46.237481" lon="14.086637">
        <ele>1665.5997460608</ele>
        <time>2011-04-02T11:18:53Z</time>
      </trkpt>
      <trkpt lat="46.237481" lon="14.086637">
        <ele>1660.7898045504</ele>
        <time>2011-04-02T11:18:53Z</time>
      </trkpt>
      <trkpt lat="46.237481" lon="14.086637">
        <ele>1664.1597635712</ele>
        <time>2011-04-02T11:18:54Z</time>
      </trkpt>
      <trkpt lat="46.237484" lon="14.086628">
        <ele>1667.0397285504</ele>
        <time>2011-04-02T11:19:04Z</time>
      </trkpt>
      <trkpt lat="46.237489" lon="14.086606">
        <ele>1667.5197227136</ele>
        <time>2011-04-02T11:19:05Z</time>
      </trkpt>
      <trkpt lat="46.237487" lon="14.086595">
        <ele>1663.1997752448</ele>
        <time>2011-04-02T11:19:07Z</time>
      </trkpt>
      <trkpt lat="46.237487" lon="14.086595">
        <ele>1667.0397285504</ele>
        <time>2011-04-02T11:19:08Z</time>
      </trkpt>
      <trkpt lat="46.237467" lon="14.086533">
        <ele>1663.679769408</ele>
        <time>2011-04-02T11:19:21Z</time>
      </trkpt>
      <trkpt lat="46.237450" lon="14.086523">
        <ele>1667.5197227136</ele>
        <time>2011-04-02T11:19:24Z</time>
      </trkpt>
      <trkpt lat="46.237450" lon="14.086523">
        <ele>1664.1597635712</ele>
        <time>2011-04-02T11:19:26Z</time>
      </trkpt>
      <trkpt lat="46.237450" lon="14.086523">
        <ele>1667.5197227136</ele>
        <time>2011-04-02T11:19:27Z</time>
      </trkpt>
      <trkpt lat="46.237449" lon="14.086512">
        <ele>1663.679769408</ele>
        <time>2011-04-02T11:19:28Z</time>
      </trkpt>
      <trkpt lat="46.237445" lon="14.086505">
        <ele>1667.9997168768</ele>
        <time>2011-04-02T11:19:28Z</time>
      </trkpt>
      <trkpt lat="46.237432" lon="14.086469">
        <ele>1665.5997460608</ele>
        <time>2011-04-02T11:19:39Z</time>
      </trkpt>
      <trkpt lat="46.237428" lon="14.086462">
        <ele>1669.4496992448</ele>
        <time>2011-04-02T11:19:40Z</time>
      </trkpt>
      <trkpt lat="46.237428" lon="14.086462">
        <ele>1665.1197518976</ele>
        <time>2011-04-02T11:19:42Z</time>
      </trkpt>
      <trkpt lat="46.237428" lon="14.086462">
        <ele>1670.4096875712</ele>
        <time>2011-04-02T11:19:43Z</time>
      </trkpt>
      <trkpt lat="46.237424" lon="14.086454">
        <ele>1665.5997460608</ele>
        <time>2011-04-02T11:19:43Z</time>
      </trkpt>
      <trkpt lat="46.237420" lon="14.086447">
        <ele>1669.929693408</ele>
        <time>2011-04-02T11:19:44Z</time>
      </trkpt>
      <trkpt lat="46.237393" lon="14.086432">
        <ele>1666.5597343872</ele>
        <time>2011-04-02T11:19:50Z</time>
      </trkpt>
      <trkpt lat="46.237389" lon="14.086423">
        <ele>1670.8896817344</ele>
        <time>2011-04-02T11:19:58Z</time>
      </trkpt>
      <trkpt lat="46.237392" lon="14.086413">
        <ele>1666.5597343872</ele>
        <time>2011-04-02T11:19:59Z</time>
      </trkpt>
      <trkpt lat="46.237392" lon="14.086404">
        <ele>1671.8496700608</ele>
        <time>2011-04-02T11:20:01Z</time>
      </trkpt>
      <trkpt lat="46.237385" lon="14.086393">
        <ele>1668.4897109184</ele>
        <time>2011-04-02T11:20:02Z</time>
      </trkpt>
      <trkpt lat="46.237399" lon="14.086370">
        <ele>1671.8496700608</ele>
        <time>2011-04-02T11:20:06Z</time>
      </trkpt>
      <trkpt lat="46.237399" lon="14.086370">
        <ele>1667.9997168768</ele>
        <time>2011-04-02T11:20:07Z</time>
      </trkpt>
      <trkpt lat="46.237399" lon="14.086370">
        <ele>1672.329664224</ele>
        <time>2011-04-02T11:20:09Z</time>
      </trkpt>
      <trkpt lat="46.237399" lon="14.086370">
        <ele>1668.4897109184</ele>
        <time>2011-04-02T11:20:10Z</time>
      </trkpt>
      <trkpt lat="46.237399" lon="14.086370">
        <ele>1673.7696467136</ele>
        <time>2011-04-02T11:20:10Z</time>
      </trkpt>
      <trkpt lat="46.237399" lon="14.086365">
        <ele>1670.4096875712</ele>
        <time>2011-04-02T11:20:13Z</time>
      </trkpt>
      <trkpt lat="46.237385" lon="14.086331">
        <ele>1673.7696467136</ele>
        <time>2011-04-02T11:20:22Z</time>
      </trkpt>
      <trkpt lat="46.237381" lon="14.086332">
        <ele>1670.8896817344</ele>
        <time>2011-04-02T11:20:25Z</time>
      </trkpt>
      <trkpt lat="46.237381" lon="14.086332">
        <ele>1674.72963504</ele>
        <time>2011-04-02T11:20:25Z</time>
      </trkpt>
      <trkpt lat="46.237377" lon="14.086324">
        <ele>1670.4096875712</ele>
        <time>2011-04-02T11:20:26Z</time>
      </trkpt>
      <trkpt lat="46.237372" lon="14.086317">
        <ele>1675.2096292032</ele>
        <time>2011-04-02T11:20:28Z</time>
      </trkpt>
      <trkpt lat="46.237366" lon="14.086308">
        <ele>1671.3696758976</ele>
        <time>2011-04-02T11:20:29Z</time>
      </trkpt>
      <trkpt lat="46.237355" lon="14.086295">
        <ele>1674.72963504</ele>
        <time>2011-04-02T11:20:30Z</time>
      </trkpt>
      <trkpt lat="46.237350" lon="14.086292">
        <ele>1669.929693408</ele>
        <time>2011-04-02T11:20:32Z</time>
      </trkpt>
      <trkpt lat="46.237340" lon="14.086279">
        <ele>1671.8496700608</ele>
        <time>2011-04-02T11:20:34Z</time>
      </trkpt>
      <trkpt lat="46.237326" lon="14.086263">
        <ele>1674.72963504</ele>
        <time>2011-04-02T11:20:37Z</time>
      </trkpt>
      <trkpt lat="46.237322" lon="14.086259">
        <ele>1670.4096875712</ele>
        <time>2011-04-02T11:20:37Z</time>
      </trkpt>
      <trkpt lat="46.237319" lon="14.086253">
        <ele>1675.2096292032</ele>
        <time>2011-04-02T11:20:38Z</time>
      </trkpt>
      <trkpt lat="46.237307" lon="14.086244">
        <ele>1671.8496700608</ele>
        <time>2011-04-02T11:20:42Z</time>
      </trkpt>
      <trkpt lat="46.237307" lon="14.086244">
        <ele>1675.6996232448</ele>
        <time>2011-04-02T11:20:44Z</time>
      </trkpt>
      <trkpt lat="46.237307" lon="14.086244">
        <ele>1672.8096583872</ele>
        <time>2011-04-02T11:20:49Z</time>
      </trkpt>
      <trkpt lat="46.237302" lon="14.086244">
        <ele>1674.2496408768</ele>
        <time>2011-04-02T11:20:49Z</time>
      </trkpt>
      <trkpt lat="46.237292" lon="14.086237">
        <ele>1671.3696758976</ele>
        <time>2011-04-02T11:20:52Z</time>
      </trkpt>
      <trkpt lat="46.237292" lon="14.086237">
        <ele>1675.6996232448</ele>
        <time>2011-04-02T11:20:52Z</time>
      </trkpt>
      <trkpt lat="46.237292" lon="14.086237">
        <ele>1675.2096292032</ele>
        <time>2011-04-02T11:20:53Z</time>
      </trkpt>
      <trkpt lat="46.237292" lon="14.086237">
        <ele>1671.8496700608</ele>
        <time>2011-04-02T11:21:03Z</time>
      </trkpt>
      <trkpt lat="46.237292" lon="14.086237">
        <ele>1672.8096583872</ele>
        <time>2011-04-02T11:21:04Z</time>
      </trkpt>
      <trkpt lat="46.237292" lon="14.086237">
        <ele>1676.179617408</ele>
        <time>2011-04-02T11:21:19Z</time>
      </trkpt>
      <trkpt lat="46.237292" lon="14.086237">
        <ele>1675.2096292032</ele>
        <time>2011-04-02T11:21:19Z</time>
      </trkpt>
      <trkpt lat="46.237292" lon="14.086237">
        <ele>1671.8496700608</ele>
        <time>2011-04-02T11:21:23Z</time>
      </trkpt>
      <trkpt lat="46.237292" lon="14.086237">
        <ele>1675.2096292032</ele>
        <time>2011-04-02T11:21:24Z</time>
      </trkpt>
      <trkpt lat="46.237292" lon="14.086237">
        <ele>1670.8896817344</ele>
        <time>2011-04-02T11:21:26Z</time>
      </trkpt>
      <trkpt lat="46.237292" lon="14.086237">
        <ele>1674.2496408768</ele>
        <time>2011-04-02T11:21:27Z</time>
      </trkpt>
      <trkpt lat="46.237292" lon="14.086237">
        <ele>1670.8896817344</ele>
        <time>2011-04-02T11:21:27Z</time>
      </trkpt>
      <trkpt lat="46.237292" lon="14.086237">
        <ele>1675.2096292032</ele>
        <time>2011-04-02T11:21:28Z</time>
      </trkpt>
      <trkpt lat="46.237294" lon="14.086236">
        <ele>1671.8496700608</ele>
        <time>2011-04-02T11:21:32Z</time>
      </trkpt>
      <trkpt lat="46.237294" lon="14.086236">
        <ele>1671.3696758976</ele>
        <time>2011-04-02T11:21:34Z</time>
      </trkpt>
      <trkpt lat="46.237294" lon="14.086236">
        <ele>1675.2096292032</ele>
        <time>2011-04-02T11:21:35Z</time>
      </trkpt>
      <trkpt lat="46.237294" lon="14.086236">
        <ele>1670.4096875712</ele>
        <time>2011-04-02T11:21:35Z</time>
      </trkpt>
      <trkpt lat="46.237294" lon="14.086236">
        <ele>1673.7696467136</ele>
        <time>2011-04-02T11:21:36Z</time>
      </trkpt>
      <trkpt lat="46.237294" lon="14.086236">
        <ele>1671.3696758976</ele>
        <time>2011-04-02T11:21:46Z</time>
      </trkpt>
      <trkpt lat="46.237262" lon="14.086210">
        <ele>1671.3696758976</ele>
        <time>2011-04-02T11:21:50Z</time>
      </trkpt>
      <trkpt lat="46.237252" lon="14.086201">
        <ele>1674.72963504</ele>
        <time>2011-04-02T11:21:50Z</time>
      </trkpt>
      <trkpt lat="46.237238" lon="14.086182">
        <ele>1671.3696758976</ele>
        <time>2011-04-02T11:21:53Z</time>
      </trkpt>
      <trkpt lat="46.237234" lon="14.086175">
        <ele>1676.6596115712</ele>
        <time>2011-04-02T11:21:54Z</time>
      </trkpt>
      <trkpt lat="46.237226" lon="14.086167">
        <ele>1672.329664224</ele>
        <time>2011-04-02T11:21:54Z</time>
      </trkpt>
      <trkpt lat="46.237177" lon="14.086129">
        <ele>1672.8096583872</ele>
        <time>2011-04-02T11:22:06Z</time>
      </trkpt>
      <trkpt lat="46.237163" lon="14.086126">
        <ele>1673.7696467136</ele>
        <time>2011-04-02T11:22:10Z</time>
      </trkpt>
      <trkpt lat="46.237149" lon="14.086103">
        <ele>1670.8896817344</ele>
        <time>2011-04-02T11:22:13Z</time>
      </trkpt>
      <trkpt lat="46.237146" lon="14.086097">
        <ele>1675.6996232448</ele>
        <time>2011-04-02T11:22:14Z</time>
      </trkpt>
      <trkpt lat="46.237139" lon="14.086090">
        <ele>1675.6996232448</ele>
        <time>2011-04-02T11:22:16Z</time>
      </trkpt>
      <trkpt lat="46.237131" lon="14.086087">
        <ele>1672.8096583872</ele>
        <time>2011-04-02T11:22:17Z</time>
      </trkpt>
      <trkpt lat="46.237124" lon="14.086087">
        <ele>1676.6596115712</ele>
        <time>2011-04-02T11:22:20Z</time>
      </trkpt>
      <trkpt lat="46.237118" lon="14.086089">
        <ele>1676.6596115712</ele>
        <time>2011-04-02T11:22:21Z</time>
      </trkpt>
      <trkpt lat="46.237114" lon="14.086092">
        <ele>1671.8496700608</ele>
        <time>2011-04-02T11:22:21Z</time>
      </trkpt>
      <trkpt lat="46.237114" lon="14.086092">
        <ele>1675.6996232448</ele>
        <time>2011-04-02T11:22:22Z</time>
      </trkpt>
      <trkpt lat="46.237114" lon="14.086092">
        <ele>1675.2096292032</ele>
        <time>2011-04-02T11:22:29Z</time>
      </trkpt>
      <trkpt lat="46.237114" lon="14.086092">
        <ele>1671.8496700608</ele>
        <time>2011-04-02T11:22:29Z</time>
      </trkpt>
      <trkpt lat="46.237114" lon="14.086092">
        <ele>1673.2896525504</ele>
        <time>2011-04-02T11:22:30Z</time>
      </trkpt>
      <trkpt lat="46.237114" lon="14.086092">
        <ele>1676.6596115712</ele>
        <time>2011-04-02T11:22:32Z</time>
      </trkpt>
      <trkpt lat="46.237114" lon="14.086092">
        <ele>1674.2496408768</ele>
        <time>2011-04-02T11:22:33Z</time>
      </trkpt>
      <trkpt lat="46.237095" lon="14.086077">
        <ele>1674.2496408768</ele>
        <time>2011-04-02T11:22:44Z</time>
      </trkpt>
      <trkpt lat="46.237095" lon="14.086071">
        <ele>1677.1396057344</ele>
        <time>2011-04-02T11:22:45Z</time>
      </trkpt>
      <trkpt lat="46.237095" lon="14.086071">
        <ele>1675.6996232448</ele>
        <time>2011-04-02T11:22:47Z</time>
      </trkpt>
      <trkpt lat="46.237095" lon="14.086071">
        <ele>1671.3696758976</ele>
        <time>2011-04-02T11:22:48Z</time>
      </trkpt>
      <trkpt lat="46.237095" lon="14.086071">
        <ele>1673.2896525504</ele>
        <time>2011-04-02T11:22:48Z</time>
      </trkpt>
      <trkpt lat="46.237095" lon="14.086071">
        <ele>1676.6596115712</ele>
        <time>2011-04-02T11:22:49Z</time>
      </trkpt>
      <trkpt lat="46.237095" lon="14.086071">
        <ele>1675.2096292032</ele>
        <time>2011-04-02T11:22:51Z</time>
      </trkpt>
      <trkpt lat="46.237095" lon="14.086071">
        <ele>1671.8496700608</ele>
        <time>2011-04-02T11:22:52Z</time>
      </trkpt>
      <trkpt lat="46.237095" lon="14.086071">
        <ele>1676.179617408</ele>
        <time>2011-04-02T11:22:52Z</time>
      </trkpt>
      <trkpt lat="46.237095" lon="14.086071">
        <ele>1672.8096583872</ele>
        <time>2011-04-02T11:22:55Z</time>
      </trkpt>
      <trkpt lat="46.237095" lon="14.086071">
        <ele>1677.6195998976</ele>
        <time>2011-04-02T11:22:57Z</time>
      </trkpt>
      <trkpt lat="46.237095" lon="14.086071">
        <ele>1671.3696758976</ele>
        <time>2011-04-02T11:23:00Z</time>
      </trkpt>
      <trkpt lat="46.237095" lon="14.086071">
        <ele>1673.2896525504</ele>
        <time>2011-04-02T11:23:00Z</time>
      </trkpt>
      <trkpt lat="46.237087" lon="14.086067">
        <ele>1671.3696758976</ele>
        <time>2011-04-02T11:23:02Z</time>
      </trkpt>
      <trkpt lat="46.237057" lon="14.086054">
        <ele>1674.2496408768</ele>
        <time>2011-04-02T11:23:04Z</time>
      </trkpt>
      <trkpt lat="46.237050" lon="14.086037">
        <ele>1676.179617408</ele>
        <time>2011-04-02T11:23:07Z</time>
      </trkpt>
      <trkpt lat="46.237056" lon="14.086031">
        <ele>1671.3696758976</ele>
        <time>2011-04-02T11:23:08Z</time>
      </trkpt>
      <trkpt lat="46.237072" lon="14.086014">
        <ele>1672.329664224</ele>
        <time>2011-04-02T11:23:11Z</time>
      </trkpt>
      <trkpt lat="46.237073" lon="14.085991">
        <ele>1674.72963504</ele>
        <time>2011-04-02T11:23:12Z</time>
      </trkpt>
      <trkpt lat="46.237067" lon="14.085977">
        <ele>1670.4096875712</ele>
        <time>2011-04-02T11:23:15Z</time>
      </trkpt>
      <trkpt lat="46.237060" lon="14.085968">
        <ele>1675.2096292032</ele>
        <time>2011-04-02T11:23:18Z</time>
      </trkpt>
      <trkpt lat="46.237057" lon="14.085965">
        <ele>1674.72963504</ele>
        <time>2011-04-02T11:23:19Z</time>
      </trkpt>
      <trkpt lat="46.237057" lon="14.085965">
        <ele>1669.929693408</ele>
        <time>2011-04-02T11:23:19Z</time>
      </trkpt>
      <trkpt lat="46.237057" lon="14.085965">
        <ele>1670.4096875712</ele>
        <time>2011-04-02T11:23:20Z</time>
      </trkpt>
      <trkpt lat="46.237056" lon="14.085950">
        <ele>1674.72963504</ele>
        <time>2011-04-02T11:23:24Z</time>
      </trkpt>
      <trkpt lat="46.237048" lon="14.085937">
        <ele>1670.8896817344</ele>
        <time>2011-04-02T11:23:27Z</time>
      </trkpt>
      <trkpt lat="46.237013" lon="14.085852">
        <ele>1672.8096583872</ele>
        <time>2011-04-02T11:23:39Z</time>
      </trkpt>
      <trkpt lat="46.237009" lon="14.085827">
        <ele>1667.5197227136</ele>
        <time>2011-04-02T11:23:42Z</time>
      </trkpt>
      <trkpt lat="46.237008" lon="14.085818">
        <ele>1668.9697050816</ele>
        <time>2011-04-02T11:23:42Z</time>
      </trkpt>
      <trkpt lat="46.237004" lon="14.085806">
        <ele>1672.329664224</ele>
        <time>2011-04-02T11:23:43Z</time>
      </trkpt>
      <trkpt lat="46.237002" lon="14.085795">
        <ele>1670.4096875712</ele>
        <time>2011-04-02T11:23:45Z</time>
      </trkpt>
      <trkpt lat="46.236998" lon="14.085762">
        <ele>1667.9997168768</ele>
        <time>2011-04-02T11:23:46Z</time>
      </trkpt>
      <trkpt lat="46.236994" lon="14.085750">
        <ele>1673.2896525504</ele>
        <time>2011-04-02T11:23:47Z</time>
      </trkpt>
      <trkpt lat="46.236991" lon="14.085744">
        <ele>1673.2896525504</ele>
        <time>2011-04-02T11:23:49Z</time>
      </trkpt>
      <trkpt lat="46.236991" lon="14.085737">
        <ele>1669.929693408</ele>
        <time>2011-04-02T11:23:50Z</time>
      </trkpt>
      <trkpt lat="46.236991" lon="14.085737">
        <ele>1672.329664224</ele>
        <time>2011-04-02T11:23:50Z</time>
      </trkpt>
      <trkpt lat="46.236990" lon="14.085726">
        <ele>1667.5197227136</ele>
        <time>2011-04-02T11:23:51Z</time>
      </trkpt>
      <trkpt lat="46.236990" lon="14.085716">
        <ele>1672.8096583872</ele>
        <time>2011-04-02T11:23:53Z</time>
      </trkpt>
      <trkpt lat="46.236988" lon="14.085708">
        <ele>1669.4496992448</ele>
        <time>2011-04-02T11:23:54Z</time>
      </trkpt>
      <trkpt lat="46.236985" lon="14.085677">
        <ele>1673.7696467136</ele>
        <time>2011-04-02T11:23:56Z</time>
      </trkpt>
      <trkpt lat="46.236981" lon="14.085665">
        <ele>1671.8496700608</ele>
        <time>2011-04-02T11:23:57Z</time>
      </trkpt>
      <trkpt lat="46.236973" lon="14.085632">
        <ele>1671.8496700608</ele>
        <time>2011-04-02T11:23:58Z</time>
      </trkpt>
      <trkpt lat="46.236968" lon="14.085620">
        <ele>1667.9997168768</ele>
        <time>2011-04-02T11:24:00Z</time>
      </trkpt>
      <trkpt lat="46.236966" lon="14.085617">
        <ele>1674.2496408768</ele>
        <time>2011-04-02T11:24:01Z</time>
      </trkpt>
      <trkpt lat="46.236966" lon="14.085617">
        <ele>1673.7696467136</ele>
        <time>2011-04-02T11:24:02Z</time>
      </trkpt>
      <trkpt lat="46.236966" lon="14.085617">
        <ele>1669.4496992448</ele>
        <time>2011-04-02T11:24:04Z</time>
      </trkpt>
      <trkpt lat="46.236966" lon="14.085617">
        <ele>1672.8096583872</ele>
        <time>2011-04-02T11:24:05Z</time>
      </trkpt>
      <trkpt lat="46.236961" lon="14.085598">
        <ele>1669.4496992448</ele>
        <time>2011-04-02T11:24:16Z</time>
      </trkpt>
      <trkpt lat="46.236961" lon="14.085585">
        <ele>1674.2496408768</ele>
        <time>2011-04-02T11:24:17Z</time>
      </trkpt>
      <trkpt lat="46.236956" lon="14.085559">
        <ele>1670.8896817344</ele>
        <time>2011-04-02T11:24:20Z</time>
      </trkpt>
      <trkpt lat="46.236956" lon="14.085552">
        <ele>1673.7696467136</ele>
        <time>2011-04-02T11:24:21Z</time>
      </trkpt>
      <trkpt lat="46.236961" lon="14.085530">
        <ele>1673.2896525504</ele>
        <time>2011-04-02T11:24:23Z</time>
      </trkpt>
      <trkpt lat="46.236961" lon="14.085530">
        <ele>1669.929693408</ele>
        <time>2011-04-02T11:24:24Z</time>
      </trkpt>
      <trkpt lat="46.236959" lon="14.085505">
        <ele>1674.72963504</ele>
        <time>2011-04-02T11:24:25Z</time>
      </trkpt>
      <trkpt lat="46.236990" lon="14.085447">
        <ele>1668.9697050816</ele>
        <time>2011-04-02T11:24:36Z</time>
      </trkpt>
      <trkpt lat="46.236987" lon="14.085440">
        <ele>1671.3696758976</ele>
        <time>2011-04-02T11:24:36Z</time>
      </trkpt>
      <trkpt lat="46.236987" lon="14.085440">
        <ele>1675.6996232448</ele>
        <time>2011-04-02T11:24:37Z</time>
      </trkpt>
      <trkpt lat="46.236987" lon="14.085440">
        <ele>1673.2896525504</ele>
        <time>2011-04-02T11:24:39Z</time>
      </trkpt>
      <trkpt lat="46.236971" lon="14.085426">
        <ele>1669.4496992448</ele>
        <time>2011-04-02T11:24:41Z</time>
      </trkpt>
      <trkpt lat="46.236961" lon="14.085421">
        <ele>1670.4096875712</ele>
        <time>2011-04-02T11:24:43Z</time>
      </trkpt>
      <trkpt lat="46.236955" lon="14.085413">
        <ele>1674.72963504</ele>
        <time>2011-04-02T11:24:44Z</time>
      </trkpt>
      <trkpt lat="46.236947" lon="14.085406">
        <ele>1670.8896817344</ele>
        <time>2011-04-02T11:24:44Z</time>
      </trkpt>
      <trkpt lat="46.236923" lon="14.085396">
        <ele>1675.2096292032</ele>
        <time>2011-04-02T11:24:48Z</time>
      </trkpt>
      <trkpt lat="46.236923" lon="14.085396">
        <ele>1673.2896525504</ele>
        <time>2011-04-02T11:24:48Z</time>
      </trkpt>
      <trkpt lat="46.236932" lon="14.085365">
        <ele>1669.929693408</ele>
        <time>2011-04-02T11:24:52Z</time>
      </trkpt>
      <trkpt lat="46.236930" lon="14.085357">
        <ele>1674.2496408768</ele>
        <time>2011-04-02T11:24:54Z</time>
      </trkpt>
      <trkpt lat="46.236929" lon="14.085344">
        <ele>1673.7696467136</ele>
        <time>2011-04-02T11:24:55Z</time>
      </trkpt>
      <trkpt lat="46.236931" lon="14.085336">
        <ele>1669.4496992448</ele>
        <time>2011-04-02T11:24:55Z</time>
      </trkpt>
      <trkpt lat="46.236933" lon="14.085330">
        <ele>1669.4496992448</ele>
        <time>2011-04-02T11:24:56Z</time>
      </trkpt>
      <trkpt lat="46.236934" lon="14.085321">
        <ele>1673.7696467136</ele>
        <time>2011-04-02T11:24:59Z</time>
      </trkpt>
      <trkpt lat="46.236934" lon="14.085315">
        <ele>1667.9997168768</ele>
        <time>2011-04-02T11:25:02Z</time>
      </trkpt>
      <trkpt lat="46.236935" lon="14.085305">
        <ele>1669.4496992448</ele>
        <time>2011-04-02T11:25:03Z</time>
      </trkpt>
      <trkpt lat="46.236937" lon="14.085286">
        <ele>1673.2896525504</ele>
        <time>2011-04-02T11:25:06Z</time>
      </trkpt>
      <trkpt lat="46.236938" lon="14.085257">
        <ele>1668.4897109184</ele>
        <time>2011-04-02T11:25:11Z</time>
      </trkpt>
      <trkpt lat="46.236942" lon="14.085245">
        <ele>1672.329664224</ele>
        <time>2011-04-02T11:25:18Z</time>
      </trkpt>
      <trkpt lat="46.236942" lon="14.085245">
        <ele>1667.0397285504</ele>
        <time>2011-04-02T11:25:19Z</time>
      </trkpt>
      <trkpt lat="46.236942" lon="14.085245">
        <ele>1672.329664224</ele>
        <time>2011-04-02T11:25:19Z</time>
      </trkpt>
      <trkpt lat="46.236942" lon="14.085235">
        <ele>1668.9697050816</ele>
        <time>2011-04-02T11:25:21Z</time>
      </trkpt>
      <trkpt lat="46.236938" lon="14.085144">
        <ele>1669.929693408</ele>
        <time>2011-04-02T11:25:27Z</time>
      </trkpt>
      <trkpt lat="46.236920" lon="14.085102">
        <ele>1665.5997460608</ele>
        <time>2011-04-02T11:25:31Z</time>
      </trkpt>
      <trkpt lat="46.236918" lon="14.085094">
        <ele>1668.4897109184</ele>
        <time>2011-04-02T11:25:33Z</time>
      </trkpt>
      <trkpt lat="46.236918" lon="14.085085">
        <ele>1665.1197518976</ele>
        <time>2011-04-02T11:25:34Z</time>
      </trkpt>
      <trkpt lat="46.236917" lon="14.085050">
        <ele>1668.9697050816</ele>
        <time>2011-04-02T11:25:41Z</time>
      </trkpt>
      <trkpt lat="46.236917" lon="14.085050">
        <ele>1664.6397577344</ele>
        <time>2011-04-02T11:25:42Z</time>
      </trkpt>
      <trkpt lat="46.236917" lon="14.085050">
        <ele>1669.4496992448</ele>
        <time>2011-04-02T11:25:44Z</time>
      </trkpt>
      <trkpt lat="46.236917" lon="14.085050">
        <ele>1664.6397577344</ele>
        <time>2011-04-02T11:25:45Z</time>
      </trkpt>
      <trkpt lat="46.236917" lon="14.085050">
        <ele>1669.4496992448</ele>
        <time>2011-04-02T11:25:46Z</time>
      </trkpt>
      <trkpt lat="46.236917" lon="14.085050">
        <ele>1664.1597635712</ele>
        <time>2011-04-02T11:25:48Z</time>
      </trkpt>
      <trkpt lat="46.236917" lon="14.085050">
        <ele>1667.0397285504</ele>
        <time>2011-04-02T11:25:49Z</time>
      </trkpt>
      <trkpt lat="46.236917" lon="14.085050">
        <ele>1663.679769408</ele>
        <time>2011-04-02T11:25:53Z</time>
      </trkpt>
      <trkpt lat="46.236917" lon="14.085050">
        <ele>1667.0397285504</ele>
        <time>2011-04-02T11:25:53Z</time>
      </trkpt>
      <trkpt lat="46.236923" lon="14.085050">
        <ele>1664.1597635712</ele>
        <time>2011-04-02T11:25:54Z</time>
      </trkpt>
      <trkpt lat="46.236924" lon="14.085041">
        <ele>1667.0397285504</ele>
        <time>2011-04-02T11:25:57Z</time>
      </trkpt>
      <trkpt lat="46.236924" lon="14.085041">
        <ele>1663.679769408</ele>
        <time>2011-04-02T11:25:57Z</time>
      </trkpt>
      <trkpt lat="46.236924" lon="14.085041">
        <ele>1667.5197227136</ele>
        <time>2011-04-02T11:25:58Z</time>
      </trkpt>
      <trkpt lat="46.236924" lon="14.085041">
        <ele>1663.679769408</ele>
        <time>2011-04-02T11:26:00Z</time>
      </trkpt>
      <trkpt lat="46.236921" lon="14.085024">
        <ele>1667.9997168768</ele>
        <time>2011-04-02T11:26:01Z</time>
      </trkpt>
      <trkpt lat="46.236920" lon="14.085011">
        <ele>1664.6397577344</ele>
        <time>2011-04-02T11:26:01Z</time>
      </trkpt>
      <trkpt lat="46.236919" lon="14.084980">
        <ele>1668.9697050816</ele>
        <time>2011-04-02T11:26:05Z</time>
      </trkpt>
      <trkpt lat="46.236918" lon="14.084972">
        <ele>1665.1197518976</ele>
        <time>2011-04-02T11:26:09Z</time>
      </trkpt>
      <trkpt lat="46.236918" lon="14.084972">
        <ele>1666.5597343872</ele>
        <time>2011-04-02T11:26:12Z</time>
      </trkpt>
      <trkpt lat="46.236918" lon="14.084972">
        <ele>1669.929693408</ele>
        <time>2011-04-02T11:26:16Z</time>
      </trkpt>
      <trkpt lat="46.236918" lon="14.084972">
        <ele>1666.5597343872</ele>
        <time>2011-04-02T11:26:16Z</time>
      </trkpt>
      <trkpt lat="46.236919" lon="14.084967">
        <ele>1669.929693408</ele>
        <time>2011-04-02T11:26:19Z</time>
      </trkpt>
      <trkpt lat="46.236920" lon="14.084961">
        <ele>1668.9697050816</ele>
        <time>2011-04-02T11:26:20Z</time>
      </trkpt>
      <trkpt lat="46.236920" lon="14.084961">
        <ele>1665.5997460608</ele>
        <time>2011-04-02T11:26:24Z</time>
      </trkpt>
      <trkpt lat="46.236920" lon="14.084961">
        <ele>1669.929693408</ele>
        <time>2011-04-02T11:26:25Z</time>
      </trkpt>
      <trkpt lat="46.236920" lon="14.084961">
        <ele>1665.1197518976</ele>
        <time>2011-04-02T11:26:27Z</time>
      </trkpt>
      <trkpt lat="46.236914" lon="14.084909">
        <ele>1668.9697050816</ele>
        <time>2011-04-02T11:26:32Z</time>
      </trkpt>
      <trkpt lat="46.236912" lon="14.084898">
        <ele>1664.6397577344</ele>
        <time>2011-04-02T11:26:33Z</time>
      </trkpt>
      <trkpt lat="46.236910" lon="14.084888">
        <ele>1668.4897109184</ele>
        <time>2011-04-02T11:26:35Z</time>
      </trkpt>
      <trkpt lat="46.236912" lon="14.084849">
        <ele>1665.5997460608</ele>
        <time>2011-04-02T11:26:39Z</time>
      </trkpt>
      <trkpt lat="46.236906" lon="14.084840">
        <ele>1666.5597343872</ele>
        <time>2011-04-02T11:26:40Z</time>
      </trkpt>
      <trkpt lat="46.236893" lon="14.084786">
        <ele>1668.9697050816</ele>
        <time>2011-04-02T11:26:43Z</time>
      </trkpt>
      <trkpt lat="46.236893" lon="14.084786">
        <ele>1665.5997460608</ele>
        <time>2011-04-02T11:26:47Z</time>
      </trkpt>
      <trkpt lat="46.236893" lon="14.084786">
        <ele>1669.929693408</ele>
        <time>2011-04-02T11:26:47Z</time>
      </trkpt>
      <trkpt lat="46.236893" lon="14.084786">
        <ele>1664.6397577344</ele>
        <time>2011-04-02T11:26:48Z</time>
      </trkpt>
      <trkpt lat="46.236893" lon="14.084786">
        <ele>1666.079740224</ele>
        <time>2011-04-02T11:26:54Z</time>
      </trkpt>
      <trkpt lat="46.236893" lon="14.084786">
        <ele>1669.4496992448</ele>
        <time>2011-04-02T11:26:55Z</time>
      </trkpt>
      <trkpt lat="46.236893" lon="14.084786">
        <ele>1665.5997460608</ele>
        <time>2011-04-02T11:26:59Z</time>
      </trkpt>
      <trkpt lat="46.236892" lon="14.084772">
        <ele>1668.9697050816</ele>
        <time>2011-04-02T11:27:03Z</time>
      </trkpt>
      <trkpt lat="46.236886" lon="14.084758">
        <ele>1668.9697050816</ele>
        <time>2011-04-02T11:27:05Z</time>
      </trkpt>
      <trkpt lat="46.236871" lon="14.084734">
        <ele>1667.0397285504</ele>
        <time>2011-04-02T11:27:07Z</time>
      </trkpt>
      <trkpt lat="46.236871" lon="14.084702">
        <ele>1662.7197810816</ele>
        <time>2011-04-02T11:27:10Z</time>
      </trkpt>
      <trkpt lat="46.236871" lon="14.084693">
        <ele>1667.5197227136</ele>
        <time>2011-04-02T11:27:10Z</time>
      </trkpt>
      <trkpt lat="46.236871" lon="14.084681">
        <ele>1662.2397869184</ele>
        <time>2011-04-02T11:27:11Z</time>
      </trkpt>
      <trkpt lat="46.236871" lon="14.084674">
        <ele>1666.5597343872</ele>
        <time>2011-04-02T11:27:13Z</time>
      </trkpt>
      <trkpt lat="46.236874" lon="14.084668">
        <ele>1662.7197810816</ele>
        <time>2011-04-02T11:27:14Z</time>
      </trkpt>
      <trkpt lat="46.236873" lon="14.084637">
        <ele>1666.079740224</ele>
        <time>2011-04-02T11:27:17Z</time>
      </trkpt>
      <trkpt lat="46.236875" lon="14.084612">
        <ele>1661.7597927552</ele>
        <time>2011-04-02T11:27:18Z</time>
      </trkpt>
      <trkpt lat="46.236873" lon="14.084595">
        <ele>1665.5997460608</ele>
        <time>2011-04-02T11:27:22Z</time>
      </trkpt>
      <trkpt lat="46.236873" lon="14.084595">
        <ele>1661.279798592</ele>
        <time>2011-04-02T11:27:23Z</time>
      </trkpt>
      <trkpt lat="46.236873" lon="14.084595">
        <ele>1666.5597343872</ele>
        <time>2011-04-02T11:27:25Z</time>
      </trkpt>
      <trkpt lat="46.236873" lon="14.084595">
        <ele>1662.7197810816</ele>
        <time>2011-04-02T11:27:26Z</time>
      </trkpt>
      <trkpt lat="46.236873" lon="14.084595">
        <ele>1667.0397285504</ele>
        <time>2011-04-02T11:27:26Z</time>
      </trkpt>
      <trkpt lat="46.236873" lon="14.084595">
        <ele>1663.1997752448</ele>
        <time>2011-04-02T11:27:30Z</time>
      </trkpt>
      <trkpt lat="46.236873" lon="14.084595">
        <ele>1663.679769408</ele>
        <time>2011-04-02T11:27:32Z</time>
      </trkpt>
      <trkpt lat="46.236877" lon="14.084595">
        <ele>1667.5197227136</ele>
        <time>2011-04-02T11:27:40Z</time>
      </trkpt>
      <trkpt lat="46.236877" lon="14.084595">
        <ele>1662.2397869184</ele>
        <time>2011-04-02T11:27:41Z</time>
      </trkpt>
      <trkpt lat="46.236877" lon="14.084595">
        <ele>1666.5597343872</ele>
        <time>2011-04-02T11:27:41Z</time>
      </trkpt>
      <trkpt lat="46.236877" lon="14.084595">
        <ele>1662.2397869184</ele>
        <time>2011-04-02T11:27:42Z</time>
      </trkpt>
      <trkpt lat="46.236876" lon="14.084595">
        <ele>1666.5597343872</ele>
        <time>2011-04-02T11:27:54Z</time>
      </trkpt>
      <trkpt lat="46.236876" lon="14.084595">
        <ele>1666.079740224</ele>
        <time>2011-04-02T11:27:56Z</time>
      </trkpt>
      <trkpt lat="46.236876" lon="14.084595">
        <ele>1661.279798592</ele>
        <time>2011-04-02T11:27:59Z</time>
      </trkpt>
      <trkpt lat="46.236876" lon="14.084595">
        <ele>1661.7597927552</ele>
        <time>2011-04-02T11:28:00Z</time>
      </trkpt>
      <trkpt lat="46.236876" lon="14.084595">
        <ele>1665.5997460608</ele>
        <time>2011-04-02T11:28:01Z</time>
      </trkpt>
      <trkpt lat="46.236876" lon="14.084595">
        <ele>1661.7597927552</ele>
        <time>2011-04-02T11:28:03Z</time>
      </trkpt>
      <trkpt lat="46.236876" lon="14.084595">
        <ele>1664.6397577344</ele>
        <time>2011-04-02T11:28:04Z</time>
      </trkpt>
      <trkpt lat="46.236876" lon="14.084595">
        <ele>1661.279798592</ele>
        <time>2011-04-02T11:28:08Z</time>
      </trkpt>
      <trkpt lat="46.236876" lon="14.084595">
        <ele>1666.5597343872</ele>
        <time>2011-04-02T11:28:08Z</time>
      </trkpt>
      <trkpt lat="46.236876" lon="14.084595">
        <ele>1662.7197810816</ele>
        <time>2011-04-02T11:28:11Z</time>
      </trkpt>
      <trkpt lat="46.236876" lon="14.084595">
        <ele>1665.1197518976</ele>
        <time>2011-04-02T11:28:15Z</time>
      </trkpt>
      <trkpt lat="46.236879" lon="14.084581">
        <ele>1661.279798592</ele>
        <time>2011-04-02T11:28:20Z</time>
      </trkpt>
      <trkpt lat="46.236879" lon="14.084581">
        <ele>1666.079740224</ele>
        <time>2011-04-02T11:28:20Z</time>
      </trkpt>
      <trkpt lat="46.236880" lon="14.084576">
        <ele>1662.7197810816</ele>
        <time>2011-04-02T11:28:23Z</time>
      </trkpt>
      <trkpt lat="46.236880" lon="14.084576">
        <ele>1666.5597343872</ele>
        <time>2011-04-02T11:28:26Z</time>
      </trkpt>
      <trkpt lat="46.236880" lon="14.084576">
        <ele>1663.1997752448</ele>
        <time>2011-04-02T11:28:27Z</time>
      </trkpt>
      <trkpt lat="46.236880" lon="14.084576">
        <ele>1663.1997752448</ele>
        <time>2011-04-02T11:28:28Z</time>
      </trkpt>
      <trkpt lat="46.236880" lon="14.084576">
        <ele>1666.079740224</ele>
        <time>2011-04-02T11:28:34Z</time>
      </trkpt>
      <trkpt lat="46.236880" lon="14.084576">
        <ele>1663.1997752448</ele>
        <time>2011-04-02T11:28:35Z</time>
      </trkpt>
      <trkpt lat="46.236880" lon="14.084576">
        <ele>1666.079740224</ele>
        <time>2011-04-02T11:28:36Z</time>
      </trkpt>
      <trkpt lat="46.236880" lon="14.084576">
        <ele>1663.1997752448</ele>
        <time>2011-04-02T11:28:39Z</time>
      </trkpt>
      <trkpt lat="46.236880" lon="14.084576">
        <ele>1666.079740224</ele>
        <time>2011-04-02T11:28:42Z</time>
      </trkpt>
      <trkpt lat="46.236880" lon="14.084576">
        <ele>1662.2397869184</ele>
        <time>2011-04-02T11:28:43Z</time>
      </trkpt>
      <trkpt lat="46.236880" lon="14.084576">
        <ele>1663.1997752448</ele>
        <time>2011-04-02T11:28:43Z</time>
      </trkpt>
      <trkpt lat="46.236880" lon="14.084576">
        <ele>1666.5597343872</ele>
        <time>2011-04-02T11:28:50Z</time>
      </trkpt>
      <trkpt lat="46.236880" lon="14.084576">
        <ele>1662.2397869184</ele>
        <time>2011-04-02T11:28:51Z</time>
      </trkpt>
      <trkpt lat="46.236880" lon="14.084576">
        <ele>1666.5597343872</ele>
        <time>2011-04-02T11:28:53Z</time>
      </trkpt>
      <trkpt lat="46.236880" lon="14.084576">
        <ele>1664.1597635712</ele>
        <time>2011-04-02T11:28:54Z</time>
      </trkpt>
      <trkpt lat="46.236878" lon="14.084576">
        <ele>1664.6397577344</ele>
        <time>2011-04-02T11:29:06Z</time>
      </trkpt>
      <trkpt lat="46.236878" lon="14.084576">
        <ele>1661.279798592</ele>
        <time>2011-04-02T11:29:06Z</time>
      </trkpt>
      <trkpt lat="46.236878" lon="14.084576">
        <ele>1664.6397577344</ele>
        <time>2011-04-02T11:29:07Z</time>
      </trkpt>
      <trkpt lat="46.236878" lon="14.084576">
        <ele>1661.7597927552</ele>
        <time>2011-04-02T11:29:14Z</time>
      </trkpt>
      <trkpt lat="46.236878" lon="14.084576">
        <ele>1667.0397285504</ele>
        <time>2011-04-02T11:29:22Z</time>
      </trkpt>
      <trkpt lat="46.236878" lon="14.084576">
        <ele>1663.679769408</ele>
        <time>2011-04-02T11:29:22Z</time>
      </trkpt>
      <trkpt lat="46.236890" lon="14.084570">
        <ele>1664.1597635712</ele>
        <time>2011-04-02T11:29:30Z</time>
      </trkpt>
      <trkpt lat="46.236931" lon="14.084493">
        <ele>1660.3098103872</ele>
        <time>2011-04-02T11:29:41Z</time>
      </trkpt>
      <trkpt lat="46.236927" lon="14.084483">
        <ele>1661.279798592</ele>
        <time>2011-04-02T11:29:42Z</time>
      </trkpt>
      <trkpt lat="46.236923" lon="14.084477">
        <ele>1665.5997460608</ele>
        <time>2011-04-02T11:29:44Z</time>
      </trkpt>
      <trkpt lat="46.236919" lon="14.084421">
        <ele>1660.7898045504</ele>
        <time>2011-04-02T11:29:48Z</time>
      </trkpt>
      <trkpt lat="46.236915" lon="14.084396">
        <ele>1664.6397577344</ele>
        <time>2011-04-02T11:29:52Z</time>
      </trkpt>
      <trkpt lat="46.236910" lon="14.084391">
        <ele>1663.679769408</ele>
        <time>2011-04-02T11:29:52Z</time>
      </trkpt>
      <trkpt lat="46.236900" lon="14.084382">
        <ele>1664.1597635712</ele>
        <time>2011-04-02T11:29:56Z</time>
      </trkpt>
      <trkpt lat="46.236890" lon="14.084368">
        <ele>1663.1997752448</ele>
        <time>2011-04-02T11:30:03Z</time>
      </trkpt>
      <trkpt lat="46.236899" lon="14.084333">
        <ele>1663.1997752448</ele>
        <time>2011-04-02T11:30:11Z</time>
      </trkpt>
      <trkpt lat="46.236924" lon="14.084290">
        <ele>1661.279798592</ele>
        <time>2011-04-02T11:30:22Z</time>
      </trkpt>
      <trkpt lat="46.236934" lon="14.084261">
        <ele>1662.2397869184</ele>
        <time>2011-04-02T11:30:24Z</time>
      </trkpt>
      <trkpt lat="46.236939" lon="14.084212">
        <ele>1658.3898337344</ele>
        <time>2011-04-02T11:30:27Z</time>
      </trkpt>
      <trkpt lat="46.236944" lon="14.084173">
        <ele>1661.279798592</ele>
        <time>2011-04-02T11:30:42Z</time>
      </trkpt>
      <trkpt lat="46.236944" lon="14.084173">
        <ele>1659.829816224</ele>
        <time>2011-04-02T11:30:58Z</time>
      </trkpt>
      <trkpt lat="46.236974" lon="14.084132">
        <ele>1662.7197810816</ele>
        <time>2011-04-02T11:31:14Z</time>
      </trkpt>
      <trkpt lat="46.236957" lon="14.084080">
        <ele>1664.1597635712</ele>
        <time>2011-04-02T11:31:39Z</time>
      </trkpt>
      <trkpt lat="46.236956" lon="14.084070">
        <ele>1663.679769408</ele>
        <time>2011-04-02T11:31:40Z</time>
      </trkpt>
      <trkpt lat="46.236980" lon="14.083959">
        <ele>1666.079740224</ele>
        <time>2011-04-02T11:31:51Z</time>
      </trkpt>
      <trkpt lat="46.236986" lon="14.083892">
        <ele>1667.0397285504</ele>
        <time>2011-04-02T11:32:02Z</time>
      </trkpt>
      <trkpt lat="46.237005" lon="14.083844">
        <ele>1667.0397285504</ele>
        <time>2011-04-02T11:32:06Z</time>
      </trkpt>
      <trkpt lat="46.236989" lon="14.083748">
        <ele>1668.4897109184</ele>
        <time>2011-04-02T11:32:15Z</time>
      </trkpt>
      <trkpt lat="46.236986" lon="14.083663">
        <ele>1668.9697050816</ele>
        <time>2011-04-02T11:32:27Z</time>
      </trkpt>
      <trkpt lat="46.237010" lon="14.083635">
        <ele>1669.4496992448</ele>
        <time>2011-04-02T11:32:31Z</time>
      </trkpt>
      <trkpt lat="46.237006" lon="14.083547">
        <ele>1671.3696758976</ele>
        <time>2011-04-02T11:32:43Z</time>
      </trkpt>
      <trkpt lat="46.237014" lon="14.083478">
        <ele>1671.3696758976</ele>
        <time>2011-04-02T11:32:51Z</time>
      </trkpt>
      <trkpt lat="46.237023" lon="14.083404">
        <ele>1672.8096583872</ele>
        <time>2011-04-02T11:32:58Z</time>
      </trkpt>
      <trkpt lat="46.237009" lon="14.083288">
        <ele>1673.2896525504</ele>
        <time>2011-04-02T11:33:09Z</time>
      </trkpt>
      <trkpt lat="46.236979" lon="14.083204">
        <ele>1675.2096292032</ele>
        <time>2011-04-02T11:33:20Z</time>
      </trkpt>
      <trkpt lat="46.236974" lon="14.083131">
        <ele>1676.179617408</ele>
        <time>2011-04-02T11:33:33Z</time>
      </trkpt>
      <trkpt lat="46.236974" lon="14.083131">
        <ele>1676.179617408</ele>
        <time>2011-04-02T11:33:55Z</time>
      </trkpt>
      <trkpt lat="46.236988" lon="14.083044">
        <ele>1678.0995940608</ele>
        <time>2011-04-02T11:34:07Z</time>
      </trkpt>
      <trkpt lat="46.236992" lon="14.082963">
        <ele>1678.579588224</ele>
        <time>2011-04-02T11:34:19Z</time>
      </trkpt>
      <trkpt lat="46.236988" lon="14.082882">
        <ele>1679.5395765504</ele>
        <time>2011-04-02T11:34:30Z</time>
      </trkpt>
      <trkpt lat="46.236986" lon="14.082873">
        <ele>1680.0195707136</ele>
        <time>2011-04-02T11:34:46Z</time>
      </trkpt>
      <trkpt lat="46.236984" lon="14.082868">
        <ele>1678.579588224</ele>
        <time>2011-04-02T11:35:04Z</time>
      </trkpt>
      <trkpt lat="46.236984" lon="14.082868">
        <ele>1678.579588224</ele>
        <time>2011-04-02T11:35:28Z</time>
      </trkpt>
      <trkpt lat="46.236984" lon="14.082866">
        <ele>1679.5395765504</ele>
        <time>2011-04-02T11:35:52Z</time>
      </trkpt>
      <trkpt lat="46.236982" lon="14.082857">
        <ele>1679.0595823872</ele>
        <time>2011-04-02T11:36:17Z</time>
      </trkpt>
      <trkpt lat="46.236984" lon="14.082851">
        <ele>1680.0195707136</ele>
        <time>2011-04-02T11:36:40Z</time>
      </trkpt>
      <trkpt lat="46.236985" lon="14.082839">
        <ele>1679.5395765504</ele>
        <time>2011-04-02T11:36:53Z</time>
      </trkpt>
      <trkpt lat="46.236987" lon="14.082784">
        <ele>1680.0195707136</ele>
        <time>2011-04-02T11:37:04Z</time>
      </trkpt>
      <trkpt lat="46.236976" lon="14.082784">
        <ele>1679.0595823872</ele>
        <time>2011-04-02T11:37:32Z</time>
      </trkpt>
      <trkpt lat="46.236974" lon="14.082789">
        <ele>1679.5395765504</ele>
        <time>2011-04-02T11:37:51Z</time>
      </trkpt>
      <trkpt lat="46.236968" lon="14.082789">
        <ele>1679.5395765504</ele>
        <time>2011-04-02T11:38:13Z</time>
      </trkpt>
      <trkpt lat="46.236968" lon="14.082789">
        <ele>1680.0195707136</ele>
        <time>2011-04-02T11:38:33Z</time>
      </trkpt>
      <trkpt lat="46.236970" lon="14.082787">
        <ele>1679.5395765504</ele>
        <time>2011-04-02T11:38:55Z</time>
      </trkpt>
    </trkseg>
  </trk>
</gpx>
